<?xml version="1.0" encoding="utf-8"?>
<gpx version="1.1" creator="com.bodunov.GalileoPro/v5.4.1" xmlns:xsi="http://www.w3.org/2001/XMLSchema-instance" xmlns="http://www.topografix.com/GPX/1/1" xmlns:gom="https://gurumaps.app/gpx/v3" xsi:schemaLocation="http://www.topografix.com/GPX/1/1 http://www.topografix.com/GPX/1/1/gpx.xsd https://gurumaps.app/gpx/v3 https://gurumaps.app/gpx/v3/schema.xsd">
 <trk>
  <name>2026-04-21 ГРУППА3</name>
  <type>TrackStyle_FFD60AC8</type>
  <extensions>
   <gom:time>2026-04-20T18:23:20.000Z</gom:time>
  </extensions>
  <trkseg>
   <trkpt lat="59.0894874579" lon="29.9763358966"><ele>91.019</ele><time>2026-04-20T18:23:20.000Z</time></trkpt>
   <trkpt lat="59.0895110948" lon="29.9763270118"><ele>90.979</ele><time>2026-04-20T18:24:02.000Z</time></trkpt>
   <trkpt lat="59.0895448739" lon="29.9763020337"><ele>89.479</ele><time>2026-04-20T18:24:41.000Z</time></trkpt>
   <trkpt lat="59.0895581173" lon="29.9762994353"><ele>89.409</ele><time>2026-04-20T18:24:42.000Z</time></trkpt>
   <trkpt lat="59.0895796588" lon="29.9763540015"><ele>88.789</ele><time>2026-04-20T18:25:02.000Z</time></trkpt>
   <trkpt lat="59.0895588717" lon="29.9763455358"><ele>88.159</ele><time>2026-04-20T18:25:31.000Z</time></trkpt>
   <trkpt lat="59.0895296188" lon="29.9763603717"><ele>87.239</ele><time>2026-04-20T18:25:57.000Z</time></trkpt>
   <trkpt lat="59.0895246735" lon="29.9763912172"><ele>86.819</ele><time>2026-04-20T18:26:23.000Z</time></trkpt>
   <trkpt lat="59.0895664992" lon="29.9763261736"><ele>86.149</ele><time>2026-04-20T18:26:39.000Z</time></trkpt>
   <trkpt lat="59.0897643121" lon="29.9763187975"><ele>85.949</ele><time>2026-04-20T18:26:47.000Z</time></trkpt>
   <trkpt lat="59.0904337747" lon="29.9762131855"><ele>83.999</ele><time>2026-04-20T18:27:04.000Z</time></trkpt>
   <trkpt lat="59.0908345135" lon="29.9761281092"><ele>85.229</ele><time>2026-04-20T18:27:13.000Z</time></trkpt>
   <trkpt lat="59.0908814522" lon="29.9761032988"><ele>85.369</ele><time>2026-04-20T18:27:14.000Z</time></trkpt>
   <trkpt lat="59.0914065784" lon="29.9760380876"><ele>88.549</ele><time>2026-04-20T18:27:27.000Z</time></trkpt>
   <trkpt lat="59.0918370729" lon="29.9759592977"><ele>87.449</ele><time>2026-04-20T18:27:39.000Z</time></trkpt>
   <trkpt lat="59.0925283285" lon="29.9758647498"><ele>86.349</ele><time>2026-04-20T18:27:54.000Z</time></trkpt>
   <trkpt lat="59.0930060132" lon="29.9758679349"><ele>87.219</ele><time>2026-04-20T18:28:06.000Z</time></trkpt>
   <trkpt lat="59.0931615813" lon="29.9755384423"><ele>86.849</ele><time>2026-04-20T18:28:15.000Z</time></trkpt>
   <trkpt lat="59.0932433887" lon="29.9746686522"><ele>77.289</ele><time>2026-04-20T18:28:27.000Z</time></trkpt>
   <trkpt lat="59.0932982901" lon="29.9738779873"><ele>76.229</ele><time>2026-04-20T18:28:41.000Z</time></trkpt>
   <trkpt lat="59.0933873898" lon="29.9729061056"><ele>77.189</ele><time>2026-04-20T18:28:54.000Z</time></trkpt>
   <trkpt lat="59.0934602285" lon="29.9722130061"><ele>74.829</ele><time>2026-04-20T18:29:03.000Z</time></trkpt>
   <trkpt lat="59.0935963506" lon="29.9707893398"><ele>71.199</ele><time>2026-04-20T18:29:19.000Z</time></trkpt>
   <trkpt lat="59.0936089235" lon="29.9705070373"><ele>70.579</ele><time>2026-04-20T18:29:22.000Z</time></trkpt>
   <trkpt lat="59.0936691893" lon="29.9698359821"><ele>68.889</ele><time>2026-04-20T18:29:30.000Z</time></trkpt>
   <trkpt lat="59.0937219115" lon="29.9692536075"><ele>66.229</ele><time>2026-04-20T18:29:36.000Z</time></trkpt>
   <trkpt lat="59.0938002823" lon="29.9681122437"><ele>63.629</ele><time>2026-04-20T18:29:50.000Z</time></trkpt>
   <trkpt lat="59.0939148629" lon="29.9666366097"><ele>62.099</ele><time>2026-04-20T18:30:04.000Z</time></trkpt>
   <trkpt lat="59.0940322096" lon="29.9652273603"><ele>57.629</ele><time>2026-04-20T18:30:18.000Z</time></trkpt>
   <trkpt lat="59.0940804893" lon="29.9647014797"><ele>55.439</ele><time>2026-04-20T18:30:24.000Z</time></trkpt>
   <trkpt lat="59.094155675" lon="29.9642206937"><ele>52.649</ele><time>2026-04-20T18:30:29.000Z</time></trkpt>
   <trkpt lat="59.0942783022" lon="29.9629254382"><ele>45.489</ele><time>2026-04-20T18:30:42.000Z</time></trkpt>
   <trkpt lat="59.0942775479" lon="29.9628289625"><ele>45.159</ele><time>2026-04-20T18:30:43.000Z</time></trkpt>
   <trkpt lat="59.0944160169" lon="29.9617565818"><ele>41.809</ele><time>2026-04-20T18:30:54.000Z</time></trkpt>
   <trkpt lat="59.0945080502" lon="29.9605672736"><ele>41.209</ele><time>2026-04-20T18:31:07.000Z</time></trkpt>
   <trkpt lat="59.0945024343" lon="29.9604672775"><ele>41.719</ele><time>2026-04-20T18:31:08.000Z</time></trkpt>
   <trkpt lat="59.0945010932" lon="29.9603787646"><ele>42.009</ele><time>2026-04-20T18:31:09.000Z</time></trkpt>
   <trkpt lat="59.0945726747" lon="29.9591111694"><ele>43.909</ele><time>2026-04-20T18:31:24.000Z</time></trkpt>
   <trkpt lat="59.0946861657" lon="29.9581375275"><ele>46.249</ele><time>2026-04-20T18:31:35.000Z</time></trkpt>
   <trkpt lat="59.0948042667" lon="29.9569939845"><ele>50.849</ele><time>2026-04-20T18:31:50.000Z</time></trkpt>
   <trkpt lat="59.0949190149" lon="29.9558364436"><ele>45.859</ele><time>2026-04-20T18:32:04.000Z</time></trkpt>
   <trkpt lat="59.0949783588" lon="29.95490161"><ele>45.629</ele><time>2026-04-20T18:32:17.000Z</time></trkpt>
   <trkpt lat="59.0950667041" lon="29.9539702129"><ele>55.109</ele><time>2026-04-20T18:32:32.000Z</time></trkpt>
   <trkpt lat="59.0951503555" lon="29.9530061264"><ele>58.919</ele><time>2026-04-20T18:32:46.000Z</time></trkpt>
   <trkpt lat="59.0951669516" lon="29.9522208259"><ele>58.849</ele><time>2026-04-20T18:32:59.000Z</time></trkpt>
   <trkpt lat="59.0951790216" lon="29.9521534354"><ele>59.289</ele><time>2026-04-20T18:33:00.000Z</time></trkpt>
   <trkpt lat="59.0934228452" lon="29.9182164505"><ele>88.269</ele><time>2026-04-20T18:41:55.000Z</time></trkpt>
   <trkpt lat="59.0934308918" lon="29.9182512354"><ele>81.399</ele><time>2026-04-20T18:42:10.000Z</time></trkpt>
   <trkpt lat="59.0934301375" lon="29.9182617966"><ele>81.099</ele><time>2026-04-20T18:42:43.000Z</time></trkpt>
   <trkpt lat="59.0934424589" lon="29.9182517383"><ele>82.509</ele><time>2026-04-20T18:43:09.000Z</time></trkpt>
   <trkpt lat="59.0934485777" lon="29.918269508"><ele>81.209</ele><time>2026-04-20T18:43:44.000Z</time></trkpt>
   <trkpt lat="59.0934209174" lon="29.9182371538"><ele>80.549</ele><time>2026-04-20T18:44:11.000Z</time></trkpt>
   <trkpt lat="59.093280269" lon="29.9176375125"><ele>80.789</ele><time>2026-04-20T18:44:21.000Z</time></trkpt>
   <trkpt lat="59.0932567997" lon="29.9174627498"><ele>81.199</ele><time>2026-04-20T18:44:23.000Z</time></trkpt>
   <trkpt lat="59.0932557101" lon="29.9173845466"><ele>81.389</ele><time>2026-04-20T18:44:24.000Z</time></trkpt>
   <trkpt lat="59.0932692887" lon="29.9173127976"><ele>81.459</ele><time>2026-04-20T18:44:25.000Z</time></trkpt>
   <trkpt lat="59.0932977034" lon="29.9172563035"><ele>81.409</ele><time>2026-04-20T18:44:26.000Z</time></trkpt>
   <trkpt lat="59.093345145" lon="29.9172262963"><ele>81.489</ele><time>2026-04-20T18:44:27.000Z</time></trkpt>
   <trkpt lat="59.0934111105" lon="29.9172163218"><ele>81.599</ele><time>2026-04-20T18:44:28.000Z</time></trkpt>
   <trkpt lat="59.0934880564" lon="29.9172098678"><ele>81.949</ele><time>2026-04-20T18:44:29.000Z</time></trkpt>
   <trkpt lat="59.0943953136" lon="29.917137029"><ele>82.809</ele><time>2026-04-20T18:44:37.000Z</time></trkpt>
   <trkpt lat="59.0960442016" lon="29.9169641942"><ele>81.969</ele><time>2026-04-20T18:44:48.000Z</time></trkpt>
   <trkpt lat="59.0983314553" lon="29.9167674709"><ele>79.239</ele><time>2026-04-20T18:45:02.000Z</time></trkpt>
   <trkpt lat="59.1009482017" lon="29.9165421654"><ele>82.009</ele><time>2026-04-20T18:45:18.000Z</time></trkpt>
   <trkpt lat="59.1039697102" lon="29.9162781354"><ele>80.559</ele><time>2026-04-20T18:45:36.000Z</time></trkpt>
   <trkpt lat="59.1065118576" lon="29.9160372395"><ele>81.019</ele><time>2026-04-20T18:45:50.000Z</time></trkpt>
   <trkpt lat="59.1093228964" lon="29.9157171346"><ele>84.689</ele><time>2026-04-20T18:46:05.000Z</time></trkpt>
   <trkpt lat="59.1125545392" lon="29.9153139651"><ele>80.459</ele><time>2026-04-20T18:46:23.000Z</time></trkpt>
   <trkpt lat="59.1151629875" lon="29.9149923515"><ele>78.089</ele><time>2026-04-20T18:46:36.000Z</time></trkpt>
   <trkpt lat="59.1181999186" lon="29.9146177642"><ele>76.889</ele><time>2026-04-20T18:46:50.000Z</time></trkpt>
   <trkpt lat="59.1215886383" lon="29.9142038658"><ele>77.209</ele><time>2026-04-20T18:47:04.000Z</time></trkpt>
   <trkpt lat="59.124885157" lon="29.913810587"><ele>78.589</ele><time>2026-04-20T18:47:18.000Z</time></trkpt>
   <trkpt lat="59.128130127" lon="29.9134063278"><ele>81.249</ele><time>2026-04-20T18:47:32.000Z</time></trkpt>
   <trkpt lat="59.1304244215" lon="29.9132510111"><ele>81.969</ele><time>2026-04-20T18:47:43.000Z</time></trkpt>
   <trkpt lat="59.131657148" lon="29.9131857161"><ele>83.509</ele><time>2026-04-20T18:47:51.000Z</time></trkpt>
   <trkpt lat="59.1317273045" lon="29.9131305631"><ele>83.939</ele><time>2026-04-20T18:47:52.000Z</time></trkpt>
   <trkpt lat="59.1317679568" lon="29.9130360153"><ele>83.809</ele><time>2026-04-20T18:47:53.000Z</time></trkpt>
   <trkpt lat="59.1317204314" lon="29.9127024994"><ele>82.559</ele><time>2026-04-20T18:47:56.000Z</time></trkpt>
   <trkpt lat="59.1316487661" lon="29.9126690556"><ele>82.909</ele><time>2026-04-20T18:47:57.000Z</time></trkpt>
   <trkpt lat="59.1315735804" lon="29.9126654513"><ele>82.759</ele><time>2026-04-20T18:47:58.000Z</time></trkpt>
   <trkpt lat="59.1314879174" lon="29.9126773536"><ele>82.679</ele><time>2026-04-20T18:47:59.000Z</time></trkpt>
   <trkpt lat="59.1305757987" lon="29.9127974663"><ele>82.849</ele><time>2026-04-20T18:48:06.000Z</time></trkpt>
   <trkpt lat="59.1289634558" lon="29.9131481651"><ele>83.579</ele><time>2026-04-20T18:48:14.000Z</time></trkpt>
   <trkpt lat="59.1262532512" lon="29.913476149"><ele>80.959</ele><time>2026-04-20T18:48:25.000Z</time></trkpt>
   <trkpt lat="59.1213987043" lon="29.9140612059"><ele>82.409</ele><time>2026-04-20T18:48:44.000Z</time></trkpt>
   <trkpt lat="59.1167029945" lon="29.9146464303"><ele>80.949</ele><time>2026-04-20T18:49:02.000Z</time></trkpt>
   <trkpt lat="59.1130825153" lon="29.9150849715"><ele>82.749</ele><time>2026-04-20T18:49:16.000Z</time></trkpt>
   <trkpt lat="59.1109851955" lon="29.9153405357"><ele>85.139</ele><time>2026-04-20T18:49:26.000Z</time></trkpt>
   <trkpt lat="59.1080196781" lon="29.9157020472"><ele>85.719</ele><time>2026-04-20T18:49:42.000Z</time></trkpt>
   <trkpt lat="59.1046753826" lon="29.9160396703"><ele>80.779</ele><time>2026-04-20T18:50:00.000Z</time></trkpt>
   <trkpt lat="59.10115557" lon="29.9163304385"><ele>85.419</ele><time>2026-04-20T18:50:19.000Z</time></trkpt>
   <trkpt lat="59.0976279622" lon="29.9166705761"><ele>92.179</ele><time>2026-04-20T18:50:38.000Z</time></trkpt>
   <trkpt lat="59.0942824094" lon="29.9169611767"><ele>85.539</ele><time>2026-04-20T18:50:56.000Z</time></trkpt>
   <trkpt lat="59.0918099994" lon="29.9170954548"><ele>89.409</ele><time>2026-04-20T18:51:08.000Z</time></trkpt>
   <trkpt lat="59.0889345875" lon="29.9172133044"><ele>91.969</ele><time>2026-04-20T18:51:21.000Z</time></trkpt>
   <trkpt lat="59.0860176014" lon="29.9177292943"><ele>93.009</ele><time>2026-04-20T18:51:33.000Z</time></trkpt>
   <trkpt lat="59.0829126092" lon="29.9179336451"><ele>88.179</ele><time>2026-04-20T18:51:45.000Z</time></trkpt>
   <trkpt lat="59.0786452146" lon="29.9183002696"><ele>79.589</ele><time>2026-04-20T18:52:01.000Z</time></trkpt>
   <trkpt lat="59.0753604306" lon="29.9185781297"><ele>77.999</ele><time>2026-04-20T18:52:14.000Z</time></trkpt>
   <trkpt lat="59.0712758454" lon="29.918930421"><ele>86.049</ele><time>2026-04-20T18:52:31.000Z</time></trkpt>
   <trkpt lat="59.0686130824" lon="29.9193076905"><ele>92.669</ele><time>2026-04-20T18:52:42.000Z</time></trkpt>
   <trkpt lat="59.065131156" lon="29.9209714983"><ele>88.499</ele><time>2026-04-20T18:52:57.000Z</time></trkpt>
   <trkpt lat="59.0613873789" lon="29.922754832"><ele>85.039</ele><time>2026-04-20T18:53:13.000Z</time></trkpt>
   <trkpt lat="59.0578433426" lon="29.9244454619"><ele>84.639</ele><time>2026-04-20T18:53:28.000Z</time></trkpt>
   <trkpt lat="59.053582486" lon="29.9264678475"><ele>84.809</ele><time>2026-04-20T18:53:46.000Z</time></trkpt>
   <trkpt lat="59.050293511" lon="29.927999305"><ele>83.319</ele><time>2026-04-20T18:54:00.000Z</time></trkpt>
   <trkpt lat="59.0464838522" lon="29.9297897633"><ele>84.039</ele><time>2026-04-20T18:54:17.000Z</time></trkpt>
   <trkpt lat="59.0424340518" lon="29.9316891026"><ele>84.479</ele><time>2026-04-20T18:54:35.000Z</time></trkpt>
   <trkpt lat="59.0381836725" lon="29.9337476142"><ele>88.219</ele><time>2026-04-20T18:54:53.000Z</time></trkpt>
   <trkpt lat="59.0350484217" lon="29.9352823407"><ele>90.129</ele><time>2026-04-20T18:55:05.000Z</time></trkpt>
   <trkpt lat="59.0326771813" lon="29.9369649239"><ele>90.809</ele><time>2026-04-20T18:55:15.000Z</time></trkpt>
   <trkpt lat="59.0303205254" lon="29.9396740388"><ele>84.219</ele><time>2026-04-20T18:55:26.000Z</time></trkpt>
   <trkpt lat="59.0285371916" lon="29.942893444"><ele>83.369</ele><time>2026-04-20T18:55:36.000Z</time></trkpt>
   <trkpt lat="59.02622672" lon="29.9477430456"><ele>87.899</ele><time>2026-04-20T18:55:50.000Z</time></trkpt>
   <trkpt lat="59.024864074" lon="29.9504262604"><ele>90.429</ele><time>2026-04-20T18:55:59.000Z</time></trkpt>
   <trkpt lat="59.0230296945" lon="29.9530418333"><ele>90.379</ele><time>2026-04-20T18:56:11.000Z</time></trkpt>
   <trkpt lat="59.0219024962" lon="29.9541995418"><ele>88.509</ele><time>2026-04-20T18:56:19.000Z</time></trkpt>
   <trkpt lat="59.0217677152" lon="29.9542463966"><ele>87.089</ele><time>2026-04-20T18:56:20.000Z</time></trkpt>
   <trkpt lat="59.0216394721" lon="29.9542520963"><ele>86.019</ele><time>2026-04-20T18:56:21.000Z</time></trkpt>
   <trkpt lat="59.0215135759" lon="29.954208678"><ele>84.829</ele><time>2026-04-20T18:56:22.000Z</time></trkpt>
   <trkpt lat="59.0213943852" lon="29.9541147169"><ele>83.799</ele><time>2026-04-20T18:56:23.000Z</time></trkpt>
   <trkpt lat="59.0212819001" lon="29.9539717216"><ele>82.369</ele><time>2026-04-20T18:56:24.000Z</time></trkpt>
   <trkpt lat="59.0211910402" lon="29.9537856434"><ele>81.059</ele><time>2026-04-20T18:56:25.000Z</time></trkpt>
   <trkpt lat="59.0211245717" lon="29.9535615951"><ele>79.439</ele><time>2026-04-20T18:56:26.000Z</time></trkpt>
   <trkpt lat="59.0210808182" lon="29.9533201963"><ele>78.369</ele><time>2026-04-20T18:56:27.000Z</time></trkpt>
   <trkpt lat="59.0210519006" lon="29.9530647159"><ele>77.259</ele><time>2026-04-20T18:56:28.000Z</time></trkpt>
   <trkpt lat="59.0210348854" lon="29.9528054636"><ele>76.489</ele><time>2026-04-20T18:56:29.000Z</time></trkpt>
   <trkpt lat="59.0210200494" lon="29.9525449541"><ele>75.329</ele><time>2026-04-20T18:56:30.000Z</time></trkpt>
   <trkpt lat="59.0210140144" lon="29.9522903119"><ele>74.239</ele><time>2026-04-20T18:56:31.000Z</time></trkpt>
   <trkpt lat="59.0210258329" lon="29.9520502542"><ele>74.259</ele><time>2026-04-20T18:56:32.000Z</time></trkpt>
   <trkpt lat="59.0210555887" lon="29.9518322409"><ele>73.389</ele><time>2026-04-20T18:56:33.000Z</time></trkpt>
   <trkpt lat="59.0211012701" lon="29.9516546283"><ele>72.679</ele><time>2026-04-20T18:56:34.000Z</time></trkpt>
   <trkpt lat="59.0211732706" lon="29.9515125551"><ele>72.909</ele><time>2026-04-20T18:56:35.000Z</time></trkpt>
   <trkpt lat="59.0212619511" lon="29.9513956275"><ele>73.179</ele><time>2026-04-20T18:56:36.000Z</time></trkpt>
   <trkpt lat="59.0213650486" lon="29.9513054382"><ele>73.669</ele><time>2026-04-20T18:56:37.000Z</time></trkpt>
   <trkpt lat="59.0214802159" lon="29.9512342759"><ele>74.159</ele><time>2026-04-20T18:56:38.000Z</time></trkpt>
   <trkpt lat="59.0216033461" lon="29.9511933722"><ele>74.619</ele><time>2026-04-20T18:56:39.000Z</time></trkpt>
   <trkpt lat="59.0217330979" lon="29.9511783686"><ele>74.919</ele><time>2026-04-20T18:56:40.000Z</time></trkpt>
   <trkpt lat="59.0218756741" lon="29.9511753511"><ele>75.359</ele><time>2026-04-20T18:56:41.000Z</time></trkpt>
   <trkpt lat="59.0233171938" lon="29.9513600044"><ele>79.249</ele><time>2026-04-20T18:56:50.000Z</time></trkpt>
   <trkpt lat="59.0255368894" lon="29.9523115181"><ele>81.589</ele><time>2026-04-20T18:57:04.000Z</time></trkpt>
   <trkpt lat="59.0269503297" lon="29.9535706476"><ele>80.169</ele><time>2026-04-20T18:57:14.000Z</time></trkpt>
   <trkpt lat="59.0282631872" lon="29.9553375528"><ele>81.379</ele><time>2026-04-20T18:57:27.000Z</time></trkpt>
   <trkpt lat="59.0293187203" lon="29.9569088243"><ele>81.199</ele><time>2026-04-20T18:57:39.000Z</time></trkpt>
   <trkpt lat="59.0295229035" lon="29.9573660571"><ele>82.369</ele><time>2026-04-20T18:57:42.000Z</time></trkpt>
   <trkpt lat="59.0295738654" lon="29.9575309292"><ele>82.679</ele><time>2026-04-20T18:57:43.000Z</time></trkpt>
   <trkpt lat="59.0295908807" lon="29.9577171751"><ele>82.329</ele><time>2026-04-20T18:57:44.000Z</time></trkpt>
   <trkpt lat="59.0295986759" lon="29.9579037562"><ele>82.299</ele><time>2026-04-20T18:57:45.000Z</time></trkpt>
   <trkpt lat="59.0295899587" lon="29.9580834642"><ele>82.009</ele><time>2026-04-20T18:57:46.000Z</time></trkpt>
   <trkpt lat="59.0295698421" lon="29.9582671117"><ele>82.129</ele><time>2026-04-20T18:57:47.000Z</time></trkpt>
   <trkpt lat="59.0295539165" lon="29.9584606499"><ele>82.509</ele><time>2026-04-20T18:57:48.000Z</time></trkpt>
   <trkpt lat="59.0295480492" lon="29.9586598877"><ele>82.739</ele><time>2026-04-20T18:57:49.000Z</time></trkpt>
   <trkpt lat="59.0295556767" lon="29.9588606343"><ele>82.579</ele><time>2026-04-20T18:57:50.000Z</time></trkpt>
   <trkpt lat="59.0295816606" lon="29.9590678349"><ele>82.539</ele><time>2026-04-20T18:57:51.000Z</time></trkpt>
   <trkpt lat="59.0296281802" lon="29.9592788913"><ele>82.499</ele><time>2026-04-20T18:57:52.000Z</time></trkpt>
   <trkpt lat="59.0296862667" lon="29.9594965693"><ele>82.809</ele><time>2026-04-20T18:57:53.000Z</time></trkpt>
   <trkpt lat="59.0303564837" lon="29.9621867411"><ele>83.949</ele><time>2026-04-20T18:58:05.000Z</time></trkpt>
   <trkpt lat="59.0303497782" lon="29.9624107894"><ele>83.419</ele><time>2026-04-20T18:58:06.000Z</time></trkpt>
   <trkpt lat="59.0303361995" lon="29.9630985245"><ele>83.599</ele><time>2026-04-20T18:58:09.000Z</time></trkpt>
   <trkpt lat="59.0303659553" lon="29.9633429408"><ele>83.679</ele><time>2026-04-20T18:58:10.000Z</time></trkpt>
   <trkpt lat="59.030750517" lon="29.9658254091"><ele>84.949</ele><time>2026-04-20T18:58:20.000Z</time></trkpt>
   <trkpt lat="59.031149747" lon="29.9681682349"><ele>86.519</ele><time>2026-04-20T18:58:29.000Z</time></trkpt>
   <trkpt lat="59.0319201278" lon="29.9708489351"><ele>86.339</ele><time>2026-04-20T18:58:40.000Z</time></trkpt>
   <trkpt lat="59.0323586689" lon="29.9730733246"><ele>86.969</ele><time>2026-04-20T18:58:48.000Z</time></trkpt>
   <trkpt lat="59.0331347493" lon="29.9748159223"><ele>90.209</ele><time>2026-04-20T18:58:56.000Z</time></trkpt>
   <trkpt lat="59.0335459655" lon="29.9754903302"><ele>87.249</ele><time>2026-04-20T18:59:00.000Z</time></trkpt>
   <trkpt lat="59.0336697662" lon="29.975598792"><ele>86.459</ele><time>2026-04-20T18:59:01.000Z</time></trkpt>
   <trkpt lat="59.0338012783" lon="29.9756887298"><ele>85.959</ele><time>2026-04-20T18:59:02.000Z</time></trkpt>
   <trkpt lat="59.0342906138" lon="29.9761328869"><ele>84.479</ele><time>2026-04-20T18:59:06.000Z</time></trkpt>
   <trkpt lat="59.0343991594" lon="29.9763001059"><ele>84.759</ele><time>2026-04-20T18:59:07.000Z</time></trkpt>
   <trkpt lat="59.0352314824" lon="29.9781525903"><ele>86.369</ele><time>2026-04-20T18:59:16.000Z</time></trkpt>
   <trkpt lat="59.0352888985" lon="29.9783906363"><ele>85.599</ele><time>2026-04-20T18:59:17.000Z</time></trkpt>
   <trkpt lat="59.0353359209" lon="29.9786361423"><ele>85.409</ele><time>2026-04-20T18:59:18.000Z</time></trkpt>
   <trkpt lat="59.0353684427" lon="29.9788849172"><ele>84.939</ele><time>2026-04-20T18:59:19.000Z</time></trkpt>
   <trkpt lat="59.0353864638" lon="29.979133273"><ele>84.049</ele><time>2026-04-20T18:59:20.000Z</time></trkpt>
   <trkpt lat="59.0353997072" lon="29.9793862388"><ele>83.649</ele><time>2026-04-20T18:59:21.000Z</time></trkpt>
   <trkpt lat="59.0355216639" lon="29.980878469"><ele>80.659</ele><time>2026-04-20T18:59:27.000Z</time></trkpt>
   <trkpt lat="59.0355914014" lon="29.9810687382"><ele>80.099</ele><time>2026-04-20T18:59:28.000Z</time></trkpt>
   <trkpt lat="59.0356792437" lon="29.9812436685"><ele>79.959</ele><time>2026-04-20T18:59:29.000Z</time></trkpt>
   <trkpt lat="59.0366662966" lon="29.9833594285"><ele>78.099</ele><time>2026-04-20T18:59:40.000Z</time></trkpt>
   <trkpt lat="59.0368885009" lon="29.9839837127"><ele>78.969</ele><time>2026-04-20T18:59:43.000Z</time></trkpt>
   <trkpt lat="59.036936613" lon="29.9841993791"><ele>78.819</ele><time>2026-04-20T18:59:44.000Z</time></trkpt>
   <trkpt lat="59.0369607529" lon="29.984426361"><ele>79.489</ele><time>2026-04-20T18:59:45.000Z</time></trkpt>
   <trkpt lat="59.0369662011" lon="29.9846567795"><ele>79.569</ele><time>2026-04-20T18:59:46.000Z</time></trkpt>
   <trkpt lat="59.0369615911" lon="29.9848893773"><ele>79.819</ele><time>2026-04-20T18:59:47.000Z</time></trkpt>
   <trkpt lat="59.0369478447" lon="29.9851397448"><ele>80.389</ele><time>2026-04-20T18:59:48.000Z</time></trkpt>
   <trkpt lat="59.0369387085" lon="29.9853887711"><ele>80.839</ele><time>2026-04-20T18:59:49.000Z</time></trkpt>
   <trkpt lat="59.0369660335" lon="29.9863686994"><ele>82.029</ele><time>2026-04-20T18:59:53.000Z</time></trkpt>
   <trkpt lat="59.0370024948" lon="29.98662594"><ele>82.179</ele><time>2026-04-20T18:59:54.000Z</time></trkpt>
   <trkpt lat="59.0376116915" lon="29.989175715"><ele>86.409</ele><time>2026-04-20T19:00:04.000Z</time></trkpt>
   <trkpt lat="59.0383861793" lon="29.9918652162"><ele>94.989</ele><time>2026-04-20T19:00:15.000Z</time></trkpt>
   <trkpt lat="59.0391988887" lon="29.9947739043"><ele>103.759</ele><time>2026-04-20T19:00:27.000Z</time></trkpt>
   <trkpt lat="59.0399349036" lon="29.9967960384"><ele>100.339</ele><time>2026-04-20T19:00:37.000Z</time></trkpt>
   <trkpt lat="59.0399763102" lon="29.9969984614"><ele>99.779</ele><time>2026-04-20T19:00:38.000Z</time></trkpt>
   <trkpt lat="59.0400008692" lon="29.9972050753"><ele>98.849</ele><time>2026-04-20T19:00:39.000Z</time></trkpt>
   <trkpt lat="59.0400044734" lon="29.9974176404"><ele>97.549</ele><time>2026-04-20T19:00:40.000Z</time></trkpt>
   <trkpt lat="59.0399965106" lon="29.997639677"><ele>95.959</ele><time>2026-04-20T19:00:41.000Z</time></trkpt>
   <trkpt lat="59.0399789086" lon="29.9978725262"><ele>94.039</ele><time>2026-04-20T19:00:42.000Z</time></trkpt>
   <trkpt lat="59.0399495719" lon="29.9981126678"><ele>92.349</ele><time>2026-04-20T19:00:43.000Z</time></trkpt>
   <trkpt lat="59.0399159605" lon="29.9983617779"><ele>91.029</ele><time>2026-04-20T19:00:44.000Z</time></trkpt>
   <trkpt lat="59.0394139683" lon="30.0019145314"><ele>80.349</ele><time>2026-04-20T19:00:58.000Z</time></trkpt>
   <trkpt lat="59.038994454" lon="30.0049372972"><ele>76.679</ele><time>2026-04-20T19:01:10.000Z</time></trkpt>
   <trkpt lat="59.0388663786" lon="30.006603871"><ele>77.709</ele><time>2026-04-20T19:01:17.000Z</time></trkpt>
   <trkpt lat="59.0388830585" lon="30.0068290927"><ele>77.849</ele><time>2026-04-20T19:01:18.000Z</time></trkpt>
   <trkpt lat="59.0389112217" lon="30.0070645404"><ele>78.359</ele><time>2026-04-20T19:01:19.000Z</time></trkpt>
   <trkpt lat="59.0389492756" lon="30.0073082861"><ele>78.619</ele><time>2026-04-20T19:01:20.000Z</time></trkpt>
   <trkpt lat="59.0389938673" lon="30.0075599108"><ele>79.429</ele><time>2026-04-20T19:01:21.000Z</time></trkpt>
   <trkpt lat="59.0394069275" lon="30.0100024812"><ele>81.169</ele><time>2026-04-20T19:01:31.000Z</time></trkpt>
   <trkpt lat="59.039539613" lon="30.0104342331"><ele>82.359</ele><time>2026-04-20T19:01:33.000Z</time></trkpt>
   <trkpt lat="59.0396237673" lon="30.0106451218"><ele>83.179</ele><time>2026-04-20T19:01:34.000Z</time></trkpt>
   <trkpt lat="59.0405687431" lon="30.0129114207"><ele>84.399</ele><time>2026-04-20T19:01:46.000Z</time></trkpt>
   <trkpt lat="59.0409020914" lon="30.0136848189"><ele>85.639</ele><time>2026-04-20T19:01:52.000Z</time></trkpt>
   <trkpt lat="59.0409454258" lon="30.013722789"><ele>85.459</ele><time>2026-04-20T19:01:53.000Z</time></trkpt>
   <trkpt lat="59.0409663806" lon="30.0136474357"><ele>85.089</ele><time>2026-04-20T19:01:54.000Z</time></trkpt>
   <trkpt lat="59.0410143251" lon="30.0135866669"><ele>84.549</ele><time>2026-04-20T19:01:55.000Z</time></trkpt>
   <trkpt lat="59.0410707353" lon="30.0135219586"><ele>83.999</ele><time>2026-04-20T19:01:56.000Z</time></trkpt>
   <trkpt lat="59.0411358627" lon="30.0134706613"><ele>83.729</ele><time>2026-04-20T19:01:57.000Z</time></trkpt>
   <trkpt lat="59.0412055163" lon="30.0134272431"><ele>83.389</ele><time>2026-04-20T19:01:58.000Z</time></trkpt>
   <trkpt lat="59.0412771815" lon="30.0133877643"><ele>83.249</ele><time>2026-04-20T19:01:59.000Z</time></trkpt>
   <trkpt lat="59.0424553419" lon="30.0129095767"><ele>78.379</ele><time>2026-04-20T19:02:12.000Z</time></trkpt>
   <trkpt lat="59.0440958479" lon="30.012309181"><ele>70.159</ele><time>2026-04-20T19:02:27.000Z</time></trkpt>
   <trkpt lat="59.0461605622" lon="30.0116109685"><ele>68.039</ele><time>2026-04-20T19:02:45.000Z</time></trkpt>
   <trkpt lat="59.0483038148" lon="30.0109405"><ele>72.029</ele><time>2026-04-20T19:03:00.000Z</time></trkpt>
   <trkpt lat="59.0497980567" lon="30.0104834348"><ele>69.409</ele><time>2026-04-20T19:03:12.000Z</time></trkpt>
   <trkpt lat="59.0516889302" lon="30.0097552151"><ele>66.329</ele><time>2026-04-20T19:03:28.000Z</time></trkpt>
   <trkpt lat="59.0535028579" lon="30.0091623631"><ele>62.189</ele><time>2026-04-20T19:03:43.000Z</time></trkpt>
   <trkpt lat="59.0550577847" lon="30.008628352"><ele>61.829</ele><time>2026-04-20T19:03:57.000Z</time></trkpt>
   <trkpt lat="59.0569164718" lon="30.0080324825"><ele>80.459</ele><time>2026-04-20T19:04:12.000Z</time></trkpt>
   <trkpt lat="59.0588087702" lon="30.0074439891"><ele>84.039</ele><time>2026-04-20T19:04:28.000Z</time></trkpt>
   <trkpt lat="59.0604311714" lon="30.0068530649"><ele>79.679</ele><time>2026-04-20T19:04:42.000Z</time></trkpt>
   <trkpt lat="59.0611329043" lon="30.0066424277"><ele>76.289</ele><time>2026-04-20T19:04:49.000Z</time></trkpt>
   <trkpt lat="59.0612223392" lon="30.0066837505"><ele>76.639</ele><time>2026-04-20T19:04:50.000Z</time></trkpt>
   <trkpt lat="59.0612903165" lon="30.0067561701"><ele>75.469</ele><time>2026-04-20T19:04:51.000Z</time></trkpt>
   <trkpt lat="59.0613403564" lon="30.0068668113"><ele>75.199</ele><time>2026-04-20T19:04:52.000Z</time></trkpt>
   <trkpt lat="59.0613776559" lon="30.0069901929"><ele>74.919</ele><time>2026-04-20T19:04:53.000Z</time></trkpt>
   <trkpt lat="59.0614167156" lon="30.0071436655"><ele>75.549</ele><time>2026-04-20T19:04:54.000Z</time></trkpt>
   <trkpt lat="59.0614152907" lon="30.0073533807"><ele>74.919</ele><time>2026-04-20T19:04:55.000Z</time></trkpt>
   <trkpt lat="59.061429037" lon="30.0075568095"><ele>74.089</ele><time>2026-04-20T19:04:56.000Z</time></trkpt>
   <trkpt lat="59.0616328849" lon="30.0099267927"><ele>72.299</ele><time>2026-04-20T19:05:07.000Z</time></trkpt>
   <trkpt lat="59.061718967" lon="30.0107384962"><ele>74.649</ele><time>2026-04-20T19:05:13.000Z</time></trkpt>
   <trkpt lat="59.0618646445" lon="30.012377745"><ele>78.069</ele><time>2026-04-20T19:05:21.000Z</time></trkpt>
   <trkpt lat="59.0620725157" lon="30.0149985146"><ele>77.429</ele><time>2026-04-20T19:05:34.000Z</time></trkpt>
   <trkpt lat="59.0623610208" lon="30.0183783494"><ele>72.439</ele><time>2026-04-20T19:05:49.000Z</time></trkpt>
   <trkpt lat="59.0627035054" lon="30.0222585001"><ele>74.749</ele><time>2026-04-20T19:06:04.000Z</time></trkpt>
   <trkpt lat="59.0629563036" lon="30.0251589738"><ele>77.979</ele><time>2026-04-20T19:06:16.000Z</time></trkpt>
   <trkpt lat="59.0632601475" lon="30.0283758645"><ele>79.339</ele><time>2026-04-20T19:06:30.000Z</time></trkpt>
   <trkpt lat="59.0635038095" lon="30.0311071076"><ele>83.069</ele><time>2026-04-20T19:06:42.000Z</time></trkpt>
   <trkpt lat="59.0637872016" lon="30.034029039"><ele>83.459</ele><time>2026-04-20T19:06:55.000Z</time></trkpt>
   <trkpt lat="59.0639683345" lon="30.0361362495"><ele>83.179</ele><time>2026-04-20T19:07:04.000Z</time></trkpt>
   <trkpt lat="59.0639871938" lon="30.036388461"><ele>83.239</ele><time>2026-04-20T19:07:05.000Z</time></trkpt>
   <trkpt lat="59.0643026887" lon="30.0398850557"><ele>81.669</ele><time>2026-04-20T19:07:19.000Z</time></trkpt>
   <trkpt lat="59.0645320175" lon="30.0425307196"><ele>81.049</ele><time>2026-04-20T19:07:30.000Z</time></trkpt>
   <trkpt lat="59.0647670461" lon="30.0454088137"><ele>78.509</ele><time>2026-04-20T19:07:42.000Z</time></trkpt>
   <trkpt lat="59.065075081" lon="30.0490519241"><ele>74.619</ele><time>2026-04-20T19:07:57.000Z</time></trkpt>
   <trkpt lat="59.0654019753" lon="30.0526319188"><ele>73.439</ele><time>2026-04-20T19:08:12.000Z</time></trkpt>
   <trkpt lat="59.0655194057" lon="30.0539705087"><ele>72.779</ele><time>2026-04-20T19:08:22.000Z</time></trkpt>
   <trkpt lat="59.0655338226" lon="30.0542562478"><ele>73.259</ele><time>2026-04-20T19:08:33.000Z</time></trkpt>
   <trkpt lat="59.0655268656" lon="30.0542781246"><ele>73.849</ele><time>2026-04-20T19:08:47.000Z</time></trkpt>
   <trkpt lat="59.0654992053" lon="30.0542578403"><ele>73.519</ele><time>2026-04-20T19:09:19.000Z</time></trkpt>
   <trkpt lat="59.0655121973" lon="30.0542235584"><ele>73.229</ele><time>2026-04-20T19:09:54.000Z</time></trkpt>
   <trkpt lat="59.0654908234" lon="30.0542518054"><ele>72.179</ele><time>2026-04-20T19:10:28.000Z</time></trkpt>
   <trkpt lat="59.0655231776" lon="30.0542232231"><ele>72.989</ele><time>2026-04-20T19:10:58.000Z</time></trkpt>
   <trkpt lat="59.0654694496" lon="30.05422096"><ele>74.109</ele><time>2026-04-20T19:11:39.000Z</time></trkpt>
   <trkpt lat="59.0654717127" lon="30.0542429206"><ele>75.229</ele><time>2026-04-20T19:12:14.000Z</time></trkpt>
   <trkpt lat="59.065479005" lon="30.0542860035"><ele>73.709</ele><time>2026-04-20T19:12:48.000Z</time></trkpt>
   <trkpt lat="59.0655528495" lon="30.0543072098"><ele>75.429</ele><time>2026-04-20T19:13:17.000Z</time></trkpt>
   <trkpt lat="59.0655347446" lon="30.0543146696"><ele>78.609</ele><time>2026-04-20T19:14:04.000Z</time></trkpt>
   <trkpt lat="59.0655303022" lon="30.0543093052"><ele>78.949</ele><time>2026-04-20T19:15:04.000Z</time></trkpt>
   <trkpt lat="59.0654907396" lon="30.0542717543"><ele>79.109</ele><time>2026-04-20T19:16:00.000Z</time></trkpt>
   <trkpt lat="59.0654754846" lon="30.0542400707"><ele>78.329</ele><time>2026-04-20T19:16:55.000Z</time></trkpt>
   <trkpt lat="59.0655007141" lon="30.0541656394"><ele>78.479</ele><time>2026-04-20T19:17:13.000Z</time></trkpt>
   <trkpt lat="59.0655375945" lon="30.0541390688"><ele>78.259</ele><time>2026-04-20T19:17:32.000Z</time></trkpt>
   <trkpt lat="59.0655599741" lon="30.0541305192"><ele>80.479</ele><time>2026-04-20T19:17:59.000Z</time></trkpt>
   <trkpt lat="59.0655625725" lon="30.0541522284"><ele>80.289</ele><time>2026-04-20T19:18:12.000Z</time></trkpt>
   <trkpt lat="59.065547988" lon="30.0542155117"><ele>79.529</ele><time>2026-04-20T19:18:26.000Z</time></trkpt>
   <trkpt lat="59.0655494129" lon="30.0541924615"><ele>80.219</ele><time>2026-04-20T19:18:50.000Z</time></trkpt>
   <trkpt lat="59.0655528495" lon="30.0542231393"><ele>79.809</ele><time>2026-04-20T19:19:13.000Z</time></trkpt>
   <trkpt lat="59.065562824" lon="30.0541851692"><ele>79.959</ele><time>2026-04-20T19:19:39.000Z</time></trkpt>
   <trkpt lat="59.0655675179" lon="30.054176033"><ele>80.609</ele><time>2026-04-20T19:20:05.000Z</time></trkpt>
   <trkpt lat="59.0655706192" lon="30.0541833252"><ele>80.899</ele><time>2026-04-20T19:20:24.000Z</time></trkpt>
   <trkpt lat="59.0655877182" lon="30.0541997538"><ele>81.039</ele><time>2026-04-20T19:20:46.000Z</time></trkpt>
   <trkpt lat="59.0655935856" lon="30.0541517255"><ele>81.959</ele><time>2026-04-20T19:21:06.000Z</time></trkpt>
   <trkpt lat="59.0656302145" lon="30.0541453552"><ele>84.099</ele><time>2026-04-20T19:21:26.000Z</time></trkpt>
   <trkpt lat="59.0656380935" lon="30.0541223888"><ele>85.529</ele><time>2026-04-20T19:21:51.000Z</time></trkpt>
   <trkpt lat="59.0656121934" lon="30.0540990871"><ele>83.859</ele><time>2026-04-20T19:22:06.000Z</time></trkpt>
   <trkpt lat="59.0655365048" lon="30.0540464487"><ele>78.279</ele><time>2026-04-20T19:22:33.000Z</time></trkpt>
   <trkpt lat="59.0655722117" lon="30.0540368096"><ele>76.829</ele><time>2026-04-20T19:22:45.000Z</time></trkpt>
   <trkpt lat="59.0655746425" lon="30.0539430999"><ele>75.669</ele><time>2026-04-20T19:23:07.000Z</time></trkpt>
   <trkpt lat="59.06563692" lon="30.0538475462"><ele>74.599</ele><time>2026-04-20T19:23:25.000Z</time></trkpt>
   <trkpt lat="59.0656787457" lon="30.0538502284"><ele>75.129</ele><time>2026-04-20T19:23:41.000Z</time></trkpt>
   <trkpt lat="59.0656902289" lon="30.0538612087"><ele>76.449</ele><time>2026-04-20T19:24:03.000Z</time></trkpt>
   <trkpt lat="59.0657686835" lon="30.0538688362"><ele>78.719</ele><time>2026-04-20T19:24:33.000Z</time></trkpt>
   <trkpt lat="59.0658074917" lon="30.0537271821"><ele>77.759</ele><time>2026-04-20T19:24:50.000Z</time></trkpt>
   <trkpt lat="59.065909751" lon="30.0535249267"><ele>75.149</ele><time>2026-04-20T19:25:09.000Z</time></trkpt>
   <trkpt lat="59.0659698492" lon="30.0533681851"><ele>74.819</ele><time>2026-04-20T19:25:27.000Z</time></trkpt>
   <trkpt lat="59.0660000241" lon="30.0533454702"><ele>77.119</ele><time>2026-04-20T19:25:54.000Z</time></trkpt>
   <trkpt lat="59.065981081" lon="30.0532379304"><ele>77.409</ele><time>2026-04-20T19:26:25.000Z</time></trkpt>
   <trkpt lat="59.0659631437" lon="30.0530782551"><ele>78.269</ele><time>2026-04-20T19:26:45.000Z</time></trkpt>
   <trkpt lat="59.0659322983" lon="30.0529501796"><ele>77.889</ele><time>2026-04-20T19:26:55.000Z</time></trkpt>
   <trkpt lat="59.0658808334" lon="30.0528058433"><ele>77.239</ele><time>2026-04-20T19:27:11.000Z</time></trkpt>
   <trkpt lat="59.0657806696" lon="30.0526408036"><ele>76.859</ele><time>2026-04-20T19:27:28.000Z</time></trkpt>
   <trkpt lat="59.0657528417" lon="30.0525033404"><ele>76.499</ele><time>2026-04-20T19:27:44.000Z</time></trkpt>
   <trkpt lat="59.0657673424" lon="30.0523818866"><ele>75.049</ele><time>2026-04-20T19:28:00.000Z</time></trkpt>
   <trkpt lat="59.0657523388" lon="30.0522017595"><ele>73.209</ele><time>2026-04-20T19:28:18.000Z</time></trkpt>
   <trkpt lat="59.0657080824" lon="30.0519579299"><ele>69.439</ele><time>2026-04-20T19:28:37.000Z</time></trkpt>
   <trkpt lat="59.0657276122" lon="30.0517347199"><ele>67.509</ele><time>2026-04-20T19:28:56.000Z</time></trkpt>
   <trkpt lat="59.0657415262" lon="30.0516376574"><ele>67.349</ele><time>2026-04-20T19:29:18.000Z</time></trkpt>
   <trkpt lat="59.0657782389" lon="30.0516997673"><ele>72.559</ele><time>2026-04-20T19:29:44.000Z</time></trkpt>
   <trkpt lat="59.0657623133" lon="30.0515939877"><ele>75.979</ele><time>2026-04-20T19:30:13.000Z</time></trkpt>
   <trkpt lat="59.0657717848" lon="30.0512667582"><ele>76.319</ele><time>2026-04-20T19:30:32.000Z</time></trkpt>
   <trkpt lat="59.0658330565" lon="30.0511821848"><ele>77.639</ele><time>2026-04-20T19:30:52.000Z</time></trkpt>
   <trkpt lat="59.0659332203" lon="30.0510656763"><ele>78.269</ele><time>2026-04-20T19:31:11.000Z</time></trkpt>
   <trkpt lat="59.0660079869" lon="30.0510948454"><ele>79.219</ele><time>2026-04-20T19:31:30.000Z</time></trkpt>
   <trkpt lat="59.0660664087" lon="30.0511148781"><ele>80.309</ele><time>2026-04-20T19:31:49.000Z</time></trkpt>
   <trkpt lat="59.0661785586" lon="30.0511268642"><ele>79.979</ele><time>2026-04-20T19:32:10.000Z</time></trkpt>
   <trkpt lat="59.0662496371" lon="30.0510995392"><ele>81.329</ele><time>2026-04-20T19:32:38.000Z</time></trkpt>
   <trkpt lat="59.0662484637" lon="30.05110197"><ele>80.429</ele><time>2026-04-20T19:33:13.000Z</time></trkpt>
   <trkpt lat="59.0662659818" lon="30.0510982819"><ele>81.599</ele><time>2026-04-20T19:33:39.000Z</time></trkpt>
   <trkpt lat="59.0662670715" lon="30.0511323963"><ele>79.729</ele><time>2026-04-20T19:34:08.000Z</time></trkpt>
   <trkpt lat="59.0662415905" lon="30.0511505012"><ele>80.249</ele><time>2026-04-20T19:34:36.000Z</time></trkpt>
   <trkpt lat="59.0662645569" lon="30.0512230885"><ele>79.929</ele><time>2026-04-20T19:35:10.000Z</time></trkpt>
   <trkpt lat="59.0663186202" lon="30.0511555303"><ele>79.909</ele><time>2026-04-20T19:35:31.000Z</time></trkpt>
   <trkpt lat="59.0663710071" lon="30.0509693683"><ele>78.739</ele><time>2026-04-20T19:35:49.000Z</time></trkpt>
   <trkpt lat="59.0664554967" lon="30.0507696275"><ele>77.719</ele><time>2026-04-20T19:36:04.000Z</time></trkpt>
   <trkpt lat="59.0665276649" lon="30.0507667777"><ele>77.679</ele><time>2026-04-20T19:36:18.000Z</time></trkpt>
   <trkpt lat="59.0666233862" lon="30.0506875687"><ele>76.869</ele><time>2026-04-20T19:36:36.000Z</time></trkpt>
   <trkpt lat="59.0666756055" lon="30.0506396242"><ele>78.719</ele><time>2026-04-20T19:36:59.000Z</time></trkpt>
   <trkpt lat="59.0667037686" lon="30.0506263808"><ele>78.729</ele><time>2026-04-20T19:37:30.000Z</time></trkpt>
   <trkpt lat="59.0667287467" lon="30.0506656081"><ele>78.879</ele><time>2026-04-20T19:37:50.000Z</time></trkpt>
   <trkpt lat="59.0667869171" lon="30.0505529553"><ele>78.539</ele><time>2026-04-20T19:38:04.000Z</time></trkpt>
   <trkpt lat="59.0668213667" lon="30.0504191802"><ele>77.519</ele><time>2026-04-20T19:38:16.000Z</time></trkpt>
   <trkpt lat="59.0668607617" lon="30.0504061044"><ele>76.649</ele><time>2026-04-20T19:38:29.000Z</time></trkpt>
   <trkpt lat="59.0668864103" lon="30.0503167533"><ele>76.779</ele><time>2026-04-20T19:38:39.000Z</time></trkpt>
   <trkpt lat="59.0669419823" lon="30.0501786195"><ele>74.149</ele><time>2026-04-20T19:38:52.000Z</time></trkpt>
   <trkpt lat="59.0669952074" lon="30.0500728399"><ele>72.749</ele><time>2026-04-20T19:39:07.000Z</time></trkpt>
   <trkpt lat="59.0670914317" lon="30.0499427528"><ele>72.739</ele><time>2026-04-20T19:39:27.000Z</time></trkpt>
   <trkpt lat="59.0671789387" lon="30.0497969915"><ele>72.859</ele><time>2026-04-20T19:39:45.000Z</time></trkpt>
   <trkpt lat="59.0672540406" lon="30.0496514816"><ele>73.409</ele><time>2026-04-20T19:40:05.000Z</time></trkpt>
   <trkpt lat="59.0672836287" lon="30.049537823"><ele>73.649</ele><time>2026-04-20T19:40:23.000Z</time></trkpt>
   <trkpt lat="59.0673770031" lon="30.0494667445"><ele>74.049</ele><time>2026-04-20T19:40:39.000Z</time></trkpt>
   <trkpt lat="59.0674740655" lon="30.049409077"><ele>74.049</ele><time>2026-04-20T19:40:54.000Z</time></trkpt>
   <trkpt lat="59.0674966129" lon="30.0494147767"><ele>74.939</ele><time>2026-04-20T19:41:12.000Z</time></trkpt>
   <trkpt lat="59.0675019773" lon="30.0494182971"><ele>77.359</ele><time>2026-04-20T19:41:42.000Z</time></trkpt>
   <trkpt lat="59.0675417075" lon="30.0494430237"><ele>78.319</ele><time>2026-04-20T19:42:07.000Z</time></trkpt>
   <trkpt lat="59.0676214194" lon="30.0494392519"><ele>77.519</ele><time>2026-04-20T19:42:23.000Z</time></trkpt>
   <trkpt lat="59.0677117763" lon="30.0493157026"><ele>76.559</ele><time>2026-04-20T19:42:41.000Z</time></trkpt>
   <trkpt lat="59.0678421149" lon="30.0492229149"><ele>76.299</ele><time>2026-04-20T19:43:01.000Z</time></trkpt>
   <trkpt lat="59.0679737946" lon="30.0492382538"><ele>75.849</ele><time>2026-04-20T19:43:19.000Z</time></trkpt>
   <trkpt lat="59.0681090785" lon="30.0492262677"><ele>76.449</ele><time>2026-04-20T19:43:37.000Z</time></trkpt>
   <trkpt lat="59.0682379922" lon="30.0491472263"><ele>76.829</ele><time>2026-04-20T19:43:56.000Z</time></trkpt>
   <trkpt lat="59.0683415087" lon="30.0490140379"><ele>77.169</ele><time>2026-04-20T19:44:13.000Z</time></trkpt>
   <trkpt lat="59.0684491323" lon="30.0489212502"><ele>77.249</ele><time>2026-04-20T19:44:33.000Z</time></trkpt>
   <trkpt lat="59.0685718434" lon="30.0488362577"><ele>77.529</ele><time>2026-04-20T19:44:50.000Z</time></trkpt>
   <trkpt lat="59.0687055348" lon="30.0488667679"><ele>77.979</ele><time>2026-04-20T19:45:11.000Z</time></trkpt>
   <trkpt lat="59.0688163435" lon="30.0487993774"><ele>78.579</ele><time>2026-04-20T19:45:29.000Z</time></trkpt>
   <trkpt lat="59.0688787887" lon="30.0488381856"><ele>78.299</ele><time>2026-04-20T19:45:38.000Z</time></trkpt>
   <trkpt lat="59.0690037629" lon="30.0488962722"><ele>82.199</ele><time>2026-04-20T19:46:06.000Z</time></trkpt>
   <trkpt lat="59.0690330157" lon="30.0487933424"><ele>83.369</ele><time>2026-04-20T19:46:35.000Z</time></trkpt>
   <trkpt lat="59.0690149946" lon="30.048787056"><ele>82.139</ele><time>2026-04-20T19:47:03.000Z</time></trkpt>
   <trkpt lat="59.0691278989" lon="30.0487418775"><ele>84.229</ele><time>2026-04-20T19:47:23.000Z</time></trkpt>
   <trkpt lat="59.0692398811" lon="30.0486620818"><ele>84.879</ele><time>2026-04-20T19:47:41.000Z</time></trkpt>
   <trkpt lat="59.0693564734" lon="30.0485691265"><ele>85.709</ele><time>2026-04-20T19:48:01.000Z</time></trkpt>
   <trkpt lat="59.069434928" lon="30.0485854712"><ele>85.729</ele><time>2026-04-20T19:48:20.000Z</time></trkpt>
   <trkpt lat="59.0695519393" lon="30.0485267141"><ele>85.129</ele><time>2026-04-20T19:48:41.000Z</time></trkpt>
   <trkpt lat="59.0695950223" lon="30.0484962039"><ele>85.019</ele><time>2026-04-20T19:49:03.000Z</time></trkpt>
   <trkpt lat="59.0696840381" lon="30.0485143927"><ele>86.379</ele><time>2026-04-20T19:49:20.000Z</time></trkpt>
   <trkpt lat="59.0697882252" lon="30.0484200124"><ele>86.609</ele><time>2026-04-20T19:49:38.000Z</time></trkpt>
   <trkpt lat="59.0698680209" lon="30.0483698048"><ele>85.609</ele><time>2026-04-20T19:49:58.000Z</time></trkpt>
   <trkpt lat="59.0698816834" lon="30.0483560585"><ele>85.529</ele><time>2026-04-20T19:50:02.000Z</time></trkpt>
   <trkpt lat="59.0700311327" lon="30.0483226985"><ele>85.579</ele><time>2026-04-20T19:50:25.000Z</time></trkpt>
   <trkpt lat="59.0701126048" lon="30.0483259675"><ele>87.759</ele><time>2026-04-20T19:50:43.000Z</time></trkpt>
   <trkpt lat="59.070184773" lon="30.0483573158"><ele>89.939</ele><time>2026-04-20T19:51:08.000Z</time></trkpt>
   <trkpt lat="59.0702913908" lon="30.0483171665"><ele>91.509</ele><time>2026-04-20T19:51:31.000Z</time></trkpt>
   <trkpt lat="59.070332546" lon="30.0482624326"><ele>91.229</ele><time>2026-04-20T19:51:36.000Z</time></trkpt>
   <trkpt lat="59.0704951549" lon="30.0481165037"><ele>88.339</ele><time>2026-04-20T19:51:57.000Z</time></trkpt>
   <trkpt lat="59.0705855118" lon="30.048186325"><ele>86.329</ele><time>2026-04-20T19:52:16.000Z</time></trkpt>
   <trkpt lat="59.0706777128" lon="30.048177524"><ele>84.969</ele><time>2026-04-20T19:52:35.000Z</time></trkpt>
   <trkpt lat="59.0707452709" lon="30.048166376"><ele>82.689</ele><time>2026-04-20T19:52:58.000Z</time></trkpt>
   <trkpt lat="59.0708259886" lon="30.0481136539"><ele>82.409</ele><time>2026-04-20T19:53:23.000Z</time></trkpt>
   <trkpt lat="59.0709674752" lon="30.0481813796"><ele>83.159</ele><time>2026-04-20T19:53:44.000Z</time></trkpt>
   <trkpt lat="59.0710977299" lon="30.0482346047"><ele>83.159</ele><time>2026-04-20T19:54:08.000Z</time></trkpt>
   <trkpt lat="59.0711790344" lon="30.0482288212"><ele>83.129</ele><time>2026-04-20T19:54:30.000Z</time></trkpt>
   <trkpt lat="59.0711872487" lon="30.0482286536"><ele>83.029</ele><time>2026-04-20T19:54:32.000Z</time></trkpt>
   <trkpt lat="59.0712776056" lon="30.048117761"><ele>81.239</ele><time>2026-04-20T19:55:00.000Z</time></trkpt>
   <trkpt lat="59.0712657033" lon="30.0481450022"><ele>80.349</ele><time>2026-04-20T19:55:30.000Z</time></trkpt>
   <trkpt lat="59.0712979736" lon="30.0481157493"><ele>79.469</ele><time>2026-04-20T19:55:57.000Z</time></trkpt>
   <trkpt lat="59.0713245442" lon="30.0480983988"><ele>78.389</ele><time>2026-04-20T19:56:26.000Z</time></trkpt>
   <trkpt lat="59.0712999014" lon="30.0480809644"><ele>80.689</ele><time>2026-04-20T19:56:55.000Z</time></trkpt>
   <trkpt lat="59.0712779408" lon="30.0480970577"><ele>76.619</ele><time>2026-04-20T19:57:27.000Z</time></trkpt>
   <trkpt lat="59.0712962134" lon="30.0481595867"><ele>77.759</ele><time>2026-04-20T19:57:56.000Z</time></trkpt>
   <trkpt lat="59.0713094568" lon="30.0482502789"><ele>80.619</ele><time>2026-04-20T19:58:18.000Z</time></trkpt>
   <trkpt lat="59.0712935312" lon="30.0482684676"><ele>83.359</ele><time>2026-04-20T19:58:46.000Z</time></trkpt>
   <trkpt lat="59.0713195989" lon="30.0482383766"><ele>83.199</ele><time>2026-04-20T19:59:13.000Z</time></trkpt>
   <trkpt lat="59.0713330099" lon="30.0482315034"><ele>83.589</ele><time>2026-04-20T19:59:46.000Z</time></trkpt>
   <trkpt lat="59.0713926053" lon="30.0482353591"><ele>82.709</ele><time>2026-04-20T20:00:13.000Z</time></trkpt>
   <trkpt lat="59.0714082794" lon="30.048228905"><ele>82.179</ele><time>2026-04-20T20:00:44.000Z</time></trkpt>
   <trkpt lat="59.0714028312" lon="30.0482606724"><ele>83.839</ele><time>2026-04-20T20:01:13.000Z</time></trkpt>
   <trkpt lat="59.0713593291" lon="30.0482205231"><ele>83.269</ele><time>2026-04-20T20:01:48.000Z</time></trkpt>
   <trkpt lat="59.0713424815" lon="30.0482071959"><ele>87.469</ele><time>2026-04-20T20:02:20.000Z</time></trkpt>
   <trkpt lat="59.0713206886" lon="30.0482130632"><ele>88.899</ele><time>2026-04-20T20:02:50.000Z</time></trkpt>
   <trkpt lat="59.0712623505" lon="30.0482501112"><ele>88.069</ele><time>2026-04-20T20:03:20.000Z</time></trkpt>
   <trkpt lat="59.0712551421" lon="30.048274754"><ele>89.189</ele><time>2026-04-20T20:03:47.000Z</time></trkpt>
   <trkpt lat="59.0713071099" lon="30.0482175895"><ele>88.859</ele><time>2026-04-20T20:04:13.000Z</time></trkpt>
   <trkpt lat="59.0714352692" lon="30.0482399691"><ele>87.179</ele><time>2026-04-20T20:04:34.000Z</time></trkpt>
   <trkpt lat="59.0715361035" lon="30.0482126441"><ele>86.659</ele><time>2026-04-20T20:04:55.000Z</time></trkpt>
   <trkpt lat="59.0716334174" lon="30.0481755961"><ele>86.179</ele><time>2026-04-20T20:05:14.000Z</time></trkpt>
   <trkpt lat="59.071769288" lon="30.0481653702"><ele>84.029</ele><time>2026-04-20T20:05:32.000Z</time></trkpt>
   <trkpt lat="59.0718714634" lon="30.0482092914"><ele>82.369</ele><time>2026-04-20T20:05:49.000Z</time></trkpt>
   <trkpt lat="59.0719787518" lon="30.0482380413"><ele>78.779</ele><time>2026-04-20T20:06:08.000Z</time></trkpt>
   <trkpt lat="59.0720395206" lon="30.0482097105"><ele>78.469</ele><time>2026-04-20T20:06:26.000Z</time></trkpt>
   <trkpt lat="59.0720901473" lon="30.0483594113"><ele>78.849</ele><time>2026-04-20T20:06:43.000Z</time></trkpt>
   <trkpt lat="59.0721270276" lon="30.0483017438"><ele>79.599</ele><time>2026-04-20T20:07:06.000Z</time></trkpt>
   <trkpt lat="59.0721337332" lon="30.048283555"><ele>79.639</ele><time>2026-04-20T20:07:39.000Z</time></trkpt>
   <trkpt lat="59.0722291192" lon="30.048252542"><ele>80.129</ele><time>2026-04-20T20:08:01.000Z</time></trkpt>
   <trkpt lat="59.0722073263" lon="30.0482493569"><ele>80.749</ele><time>2026-04-20T20:08:23.000Z</time></trkpt>
   <trkpt lat="59.0723058975" lon="30.048121449"><ele>82.709</ele><time>2026-04-20T20:08:48.000Z</time></trkpt>
   <trkpt lat="59.0724386668" lon="30.0480708223"><ele>82.809</ele><time>2026-04-20T20:09:06.000Z</time></trkpt>
   <trkpt lat="59.0724518264" lon="30.0480688107"><ele>82.899</ele><time>2026-04-20T20:09:08.000Z</time></trkpt>
   <trkpt lat="59.0725632219" lon="30.0479067047"><ele>83.339</ele><time>2026-04-20T20:09:29.000Z</time></trkpt>
   <trkpt lat="59.0726407545" lon="30.047850965"><ele>83.979</ele><time>2026-04-20T20:09:43.000Z</time></trkpt>
   <trkpt lat="59.0727594422" lon="30.0477072154"><ele>86.579</ele><time>2026-04-20T20:10:12.000Z</time></trkpt>
   <trkpt lat="59.0727974123" lon="30.0476375618"><ele>86.259</ele><time>2026-04-20T20:10:30.000Z</time></trkpt>
   <trkpt lat="59.0728284253" lon="30.0474247452"><ele>85.569</ele><time>2026-04-20T20:10:49.000Z</time></trkpt>
   <trkpt lat="59.0728930498" lon="30.0473011122"><ele>84.189</ele><time>2026-04-20T20:11:10.000Z</time></trkpt>
   <trkpt lat="59.0729617814" lon="30.0472027924"><ele>83.489</ele><time>2026-04-20T20:11:28.000Z</time></trkpt>
   <trkpt lat="59.0730208738" lon="30.0471560214"><ele>82.869</ele><time>2026-04-20T20:11:46.000Z</time></trkpt>
   <trkpt lat="59.073115254" lon="30.0470748846"><ele>82.219</ele><time>2026-04-20T20:12:07.000Z</time></trkpt>
   <trkpt lat="59.0732668826" lon="30.0470504933"><ele>82.829</ele><time>2026-04-20T20:12:26.000Z</time></trkpt>
   <trkpt lat="59.0733667949" lon="30.0470628147"><ele>83.399</ele><time>2026-04-20T20:12:44.000Z</time></trkpt>
   <trkpt lat="59.0734241272" lon="30.0471039698"><ele>84.179</ele><time>2026-04-20T20:13:01.000Z</time></trkpt>
   <trkpt lat="59.0735323375" lon="30.0471668341"><ele>85.369</ele><time>2026-04-20T20:13:22.000Z</time></trkpt>
   <trkpt lat="59.0736906717" lon="30.0470970966"><ele>83.929</ele><time>2026-04-20T20:13:44.000Z</time></trkpt>
   <trkpt lat="59.0738477485" lon="30.0470400997"><ele>80.709</ele><time>2026-04-20T20:14:04.000Z</time></trkpt>
   <trkpt lat="59.0739078468" lon="30.0469173886"><ele>79.669</ele><time>2026-04-20T20:14:21.000Z</time></trkpt>
   <trkpt lat="59.0739815237" lon="30.0469506648"><ele>80.329</ele><time>2026-04-20T20:14:41.000Z</time></trkpt>
   <trkpt lat="59.0740762392" lon="30.0468934164"><ele>82.609</ele><time>2026-04-20T20:15:02.000Z</time></trkpt>
   <trkpt lat="59.0740634987" lon="30.0469371699"><ele>85.449</ele><time>2026-04-20T20:15:33.000Z</time></trkpt>
   <trkpt lat="59.0741028099" lon="30.0469028041"><ele>86.529</ele><time>2026-04-20T20:16:01.000Z</time></trkpt>
   <trkpt lat="59.074124519" lon="30.0468848669"><ele>87.459</ele><time>2026-04-20T20:16:29.000Z</time></trkpt>
   <trkpt lat="59.0742390158" lon="30.0467881397"><ele>87.839</ele><time>2026-04-20T20:16:48.000Z</time></trkpt>
   <trkpt lat="59.0743081665" lon="30.0467698671"><ele>87.899</ele><time>2026-04-20T20:17:06.000Z</time></trkpt>
   <trkpt lat="59.074328283" lon="30.0469060731"><ele>86.459</ele><time>2026-04-20T20:17:20.000Z</time></trkpt>
   <trkpt lat="59.0743850285" lon="30.0469800853"><ele>85.989</ele><time>2026-04-20T20:17:32.000Z</time></trkpt>
   <trkpt lat="59.0744724518" lon="30.0470563606"><ele>83.879</ele><time>2026-04-20T20:17:45.000Z</time></trkpt>
   <trkpt lat="59.0745848531" lon="30.0470141158"><ele>82.459</ele><time>2026-04-20T20:18:02.000Z</time></trkpt>
   <trkpt lat="59.0746814964" lon="30.0468879682"><ele>81.539</ele><time>2026-04-20T20:18:20.000Z</time></trkpt>
   <trkpt lat="59.0747825822" lon="30.0469520059"><ele>78.879</ele><time>2026-04-20T20:18:36.000Z</time></trkpt>
   <trkpt lat="59.0748628808" lon="30.046817644"><ele>79.769</ele><time>2026-04-20T20:18:56.000Z</time></trkpt>
   <trkpt lat="59.0750162697" lon="30.0466552865"><ele>79.049</ele><time>2026-04-20T20:19:15.000Z</time></trkpt>
   <trkpt lat="59.0751105661" lon="30.0465322402"><ele>78.749</ele><time>2026-04-20T20:19:31.000Z</time></trkpt>
   <trkpt lat="59.0751798844" lon="30.0464158156"><ele>79.879</ele><time>2026-04-20T20:19:49.000Z</time></trkpt>
   <trkpt lat="59.0752165133" lon="30.0463283923"><ele>80.029</ele><time>2026-04-20T20:20:09.000Z</time></trkpt>
   <trkpt lat="59.0752599316" lon="30.0463041686"><ele>79.219</ele><time>2026-04-20T20:20:34.000Z</time></trkpt>
   <trkpt lat="59.0753546471" lon="30.046202999"><ele>79.209</ele><time>2026-04-20T20:20:51.000Z</time></trkpt>
   <trkpt lat="59.0754543079" lon="30.0461874087"><ele>78.989</ele><time>2026-04-20T20:21:10.000Z</time></trkpt>
   <trkpt lat="59.0754885899" lon="30.046165029"><ele>79.259</ele><time>2026-04-20T20:21:27.000Z</time></trkpt>
   <trkpt lat="59.0754680542" lon="30.0461488519"><ele>80.299</ele><time>2026-04-20T20:21:52.000Z</time></trkpt>
   <trkpt lat="59.0754906854" lon="30.0460121431"><ele>81.609</ele><time>2026-04-20T20:22:17.000Z</time></trkpt>
   <trkpt lat="59.0755020009" lon="30.045914913"><ele>81.129</ele><time>2026-04-20T20:22:33.000Z</time></trkpt>
   <trkpt lat="59.0755263923" lon="30.0457867537"><ele>81.879</ele><time>2026-04-20T20:22:49.000Z</time></trkpt>
   <trkpt lat="59.0755173398" lon="30.0455706683"><ele>81.579</ele><time>2026-04-20T20:23:05.000Z</time></trkpt>
   <trkpt lat="59.0755193515" lon="30.0453937263"><ele>81.979</ele><time>2026-04-20T20:23:23.000Z</time></trkpt>
   <trkpt lat="59.075483896" lon="30.0451189675"><ele>82.009</ele><time>2026-04-20T20:23:44.000Z</time></trkpt>
   <trkpt lat="59.0754709879" lon="30.0450420216"><ele>81.819</ele><time>2026-04-20T20:24:01.000Z</time></trkpt>
   <trkpt lat="59.0754243007" lon="30.0447881338"><ele>80.929</ele><time>2026-04-20T20:24:19.000Z</time></trkpt>
   <trkpt lat="59.0753896834" lon="30.0445831124"><ele>78.839</ele><time>2026-04-20T20:24:38.000Z</time></trkpt>
   <trkpt lat="59.0753647054" lon="30.0443780073"><ele>77.859</ele><time>2026-04-20T20:24:54.000Z</time></trkpt>
   <trkpt lat="59.0752970634" lon="30.0441517797"><ele>75.029</ele><time>2026-04-20T20:25:15.000Z</time></trkpt>
   <trkpt lat="59.075221291" lon="30.0439543859"><ele>72.389</ele><time>2026-04-20T20:25:33.000Z</time></trkpt>
   <trkpt lat="59.0751839077" lon="30.0437566568"><ele>72.039</ele><time>2026-04-20T20:25:49.000Z</time></trkpt>
   <trkpt lat="59.0751530623" lon="30.043553228"><ele>71.069</ele><time>2026-04-20T20:26:04.000Z</time></trkpt>
   <trkpt lat="59.0751209596" lon="30.0433330354"><ele>70.149</ele><time>2026-04-20T20:26:19.000Z</time></trkpt>
   <trkpt lat="59.075109225" lon="30.0430553429"><ele>69.149</ele><time>2026-04-20T20:26:36.000Z</time></trkpt>
   <trkpt lat="59.0751036091" lon="30.042959454"><ele>70.099</ele><time>2026-04-20T20:26:53.000Z</time></trkpt>
   <trkpt lat="59.0750805589" lon="30.0428206496"><ele>71.449</ele><time>2026-04-20T20:27:11.000Z</time></trkpt>
   <trkpt lat="59.0750668125" lon="30.0428469688"><ele>73.619</ele><time>2026-04-20T20:27:39.000Z</time></trkpt>
   <trkpt lat="59.0750704168" lon="30.0428456277"><ele>72.709</ele><time>2026-04-20T20:28:05.000Z</time></trkpt>
   <trkpt lat="59.0750648009" lon="30.04285753"><ele>74.199</ele><time>2026-04-20T20:28:31.000Z</time></trkpt>
   <trkpt lat="59.0750606937" lon="30.0428748806"><ele>76.369</ele><time>2026-04-20T20:29:00.000Z</time></trkpt>
   <trkpt lat="59.0750961492" lon="30.0428794068"><ele>76.429</ele><time>2026-04-20T20:29:28.000Z</time></trkpt>
   <trkpt lat="59.0750544073" lon="30.0425802567"><ele>76.769</ele><time>2026-04-20T20:29:47.000Z</time></trkpt>
   <trkpt lat="59.075023059" lon="30.0423181546"><ele>75.049</ele><time>2026-04-20T20:30:06.000Z</time></trkpt>
   <trkpt lat="59.0749928003" lon="30.0420335889"><ele>73.759</ele><time>2026-04-20T20:30:24.000Z</time></trkpt>
   <trkpt lat="59.0749353843" lon="30.0417923578"><ele>71.859</ele><time>2026-04-20T20:30:40.000Z</time></trkpt>
   <trkpt lat="59.0749083946" lon="30.0415492826"><ele>70.629</ele><time>2026-04-20T20:30:55.000Z</time></trkpt>
   <trkpt lat="59.0748750346" lon="30.0412883539"><ele>71.099</ele><time>2026-04-20T20:31:12.000Z</time></trkpt>
   <trkpt lat="59.0748672394" lon="30.0411899504"><ele>72.209</ele><time>2026-04-20T20:31:26.000Z</time></trkpt>
   <trkpt lat="59.0748273416" lon="30.0409160298"><ele>73.039</ele><time>2026-04-20T20:31:43.000Z</time></trkpt>
   <trkpt lat="59.0748145173" lon="30.0407373276"><ele>74.159</ele><time>2026-04-20T20:31:58.000Z</time></trkpt>
   <trkpt lat="59.074808147" lon="30.0405344856"><ele>75.949</ele><time>2026-04-20T20:32:15.000Z</time></trkpt>
   <trkpt lat="59.07474654" lon="30.0402093515"><ele>74.919</ele><time>2026-04-20T20:32:35.000Z</time></trkpt>
   <trkpt lat="59.0747411756" lon="30.0401557074"><ele>74.989</ele><time>2026-04-20T20:32:38.000Z</time></trkpt>
   <trkpt lat="59.074719215" lon="30.0398453255"><ele>75.649</ele><time>2026-04-20T20:32:57.000Z</time></trkpt>
   <trkpt lat="59.0746628886" lon="30.0395698123"><ele>76.059</ele><time>2026-04-20T20:33:15.000Z</time></trkpt>
   <trkpt lat="59.0746317918" lon="30.0393837341"><ele>76.229</ele><time>2026-04-20T20:33:29.000Z</time></trkpt>
   <trkpt lat="59.0746172911" lon="30.0392618612"><ele>76.189</ele><time>2026-04-20T20:33:36.000Z</time></trkpt>
   <trkpt lat="59.0745745434" lon="30.0389509764"><ele>75.369</ele><time>2026-04-20T20:33:54.000Z</time></trkpt>
   <trkpt lat="59.0745377468" lon="30.0386544247"><ele>73.789</ele><time>2026-04-20T20:34:12.000Z</time></trkpt>
   <trkpt lat="59.0745022914" lon="30.0383257703"><ele>71.939</ele><time>2026-04-20T20:34:31.000Z</time></trkpt>
   <trkpt lat="59.074470021" lon="30.0382173084"><ele>72.269</ele><time>2026-04-20T20:34:48.000Z</time></trkpt>
   <trkpt lat="59.0744689314" lon="30.0381981139"><ele>73.089</ele><time>2026-04-20T20:35:13.000Z</time></trkpt>
   <trkpt lat="59.0744670874" lon="30.0380819407"><ele>74.319</ele><time>2026-04-20T20:35:38.000Z</time></trkpt>
   <trkpt lat="59.0744221604" lon="30.0377952796"><ele>74.119</ele><time>2026-04-20T20:35:59.000Z</time></trkpt>
   <trkpt lat="59.0743742159" lon="30.0374867417"><ele>72.419</ele><time>2026-04-20T20:36:20.000Z</time></trkpt>
   <trkpt lat="59.0743339827" lon="30.0371594284"><ele>70.749</ele><time>2026-04-20T20:36:41.000Z</time></trkpt>
   <trkpt lat="59.0743092561" lon="30.0369497132"><ele>69.779</ele><time>2026-04-20T20:36:55.000Z</time></trkpt>
   <trkpt lat="59.0742877146" lon="30.0367282633"><ele>68.849</ele><time>2026-04-20T20:37:14.000Z</time></trkpt>
   <trkpt lat="59.074286625" lon="30.0367503915"><ele>69.819</ele><time>2026-04-20T20:37:42.000Z</time></trkpt>
   <trkpt lat="59.0742617307" lon="30.0367882778"><ele>72.399</ele><time>2026-04-20T20:38:12.000Z</time></trkpt>
   <trkpt lat="59.0742506666" lon="30.0368050416"><ele>74.379</ele><time>2026-04-20T20:38:41.000Z</time></trkpt>
   <trkpt lat="59.0742455537" lon="30.0366381579"><ele>75.099</ele><time>2026-04-20T20:39:07.000Z</time></trkpt>
   <trkpt lat="59.0742261915" lon="30.036381504"><ele>75.739</ele><time>2026-04-20T20:39:24.000Z</time></trkpt>
   <trkpt lat="59.0741968548" lon="30.036155025"><ele>75.699</ele><time>2026-04-20T20:39:43.000Z</time></trkpt>
   <trkpt lat="59.0741428753" lon="30.0359433819"><ele>75.109</ele><time>2026-04-20T20:40:02.000Z</time></trkpt>
   <trkpt lat="59.0741489103" lon="30.0357933458"><ele>73.709</ele><time>2026-04-20T20:40:18.000Z</time></trkpt>
   <trkpt lat="59.0741240999" lon="30.0356795196"><ele>72.559</ele><time>2026-04-20T20:40:31.000Z</time></trkpt>
   <trkpt lat="59.0740976969" lon="30.0354596623"><ele>73.599</ele><time>2026-04-20T20:40:48.000Z</time></trkpt>
   <trkpt lat="59.0740827771" lon="30.035211977"><ele>75.119</ele><time>2026-04-20T20:41:04.000Z</time></trkpt>
   <trkpt lat="59.0740302226" lon="30.0348865916"><ele>75.739</ele><time>2026-04-20T20:41:24.000Z</time></trkpt>
   <trkpt lat="59.074003149" lon="30.0346860964"><ele>75.819</ele><time>2026-04-20T20:41:37.000Z</time></trkpt>
   <trkpt lat="59.073970292" lon="30.0344552588"><ele>76.019</ele><time>2026-04-20T20:41:55.000Z</time></trkpt>
   <trkpt lat="59.0739488343" lon="30.0342273549"><ele>76.519</ele><time>2026-04-20T20:42:11.000Z</time></trkpt>
   <trkpt lat="59.0739183242" lon="30.0339213316"><ele>76.639</ele><time>2026-04-20T20:42:28.000Z</time></trkpt>
   <trkpt lat="59.0738861377" lon="30.0336296414"><ele>76.319</ele><time>2026-04-20T20:42:44.000Z</time></trkpt>
   <trkpt lat="59.073860489" lon="30.0333543797"><ele>76.119</ele><time>2026-04-20T20:42:58.000Z</time></trkpt>
   <trkpt lat="59.0738347566" lon="30.0331414793"><ele>77.409</ele><time>2026-04-20T20:43:15.000Z</time></trkpt>
   <trkpt lat="59.0738039112" lon="30.0327931274"><ele>76.829</ele><time>2026-04-20T20:43:32.000Z</time></trkpt>
   <trkpt lat="59.0738044979" lon="30.0326244835"><ele>78.539</ele><time>2026-04-20T20:43:48.000Z</time></trkpt>
   <trkpt lat="59.0737734849" lon="30.0326093123"><ele>79.329</ele><time>2026-04-20T20:44:07.000Z</time></trkpt>
   <trkpt lat="59.0737526139" lon="30.0325859268"><ele>80.399</ele><time>2026-04-20T20:44:35.000Z</time></trkpt>
   <trkpt lat="59.0737666955" lon="30.0326124974"><ele>81.399</ele><time>2026-04-20T20:45:02.000Z</time></trkpt>
   <trkpt lat="59.0737625884" lon="30.032621969"><ele>80.309</ele><time>2026-04-20T20:45:28.000Z</time></trkpt>
   <trkpt lat="59.0737662764" lon="30.0326436781"><ele>80.429</ele><time>2026-04-20T20:45:58.000Z</time></trkpt>
   <trkpt lat="59.0737604091" lon="30.0326445163"><ele>81.329</ele><time>2026-04-20T20:46:26.000Z</time></trkpt>
   <trkpt lat="59.0737056753" lon="30.0326422532"><ele>82.669</ele><time>2026-04-20T20:46:44.000Z</time></trkpt>
   <trkpt lat="59.0737154821" lon="30.0325917103"><ele>83.639</ele><time>2026-04-20T20:47:09.000Z</time></trkpt>
   <trkpt lat="59.0737635104" lon="30.0326278363"><ele>84.479</ele><time>2026-04-20T20:47:31.000Z</time></trkpt>
   <trkpt lat="59.0738135504" lon="30.0326613639"><ele>85.619</ele><time>2026-04-20T20:48:01.000Z</time></trkpt>
   <trkpt lat="59.0738371873" lon="30.0326886889"><ele>84.739</ele><time>2026-04-20T20:48:27.000Z</time></trkpt>
   <trkpt lat="59.0738343375" lon="30.0326625374"><ele>88.259</ele><time>2026-04-20T20:48:54.000Z</time></trkpt>
   <trkpt lat="59.0738344213" lon="30.0326524791"><ele>87.799</ele><time>2026-04-20T20:49:20.000Z</time></trkpt>
   <trkpt lat="59.0738266261" lon="30.0326471147"><ele>89.799</ele><time>2026-04-20T20:49:51.000Z</time></trkpt>
   <trkpt lat="59.0738249498" lon="30.0326101505"><ele>89.409</ele><time>2026-04-20T20:50:08.000Z</time></trkpt>
   <trkpt lat="59.0737931823" lon="30.0325342943"><ele>89.969</ele><time>2026-04-20T20:50:34.000Z</time></trkpt>
   <trkpt lat="59.0737725629" lon="30.0324402493"><ele>91.649</ele><time>2026-04-20T20:51:03.000Z</time></trkpt>
   <trkpt lat="59.0737508537" lon="30.0324719329"><ele>92.479</ele><time>2026-04-20T20:51:31.000Z</time></trkpt>
   <trkpt lat="59.0737730658" lon="30.0324983359"><ele>92.249</ele><time>2026-04-20T20:52:02.000Z</time></trkpt>
   <trkpt lat="59.0737759994" lon="30.0324871041"><ele>92.539</ele><time>2026-04-20T20:52:33.000Z</time></trkpt>
   <trkpt lat="59.0737522787" lon="30.0324772135"><ele>95.919</ele><time>2026-04-20T20:53:01.000Z</time></trkpt>
   <trkpt lat="59.0737630075" lon="30.0324997608"><ele>94.959</ele><time>2026-04-20T20:53:31.000Z</time></trkpt>
   <trkpt lat="59.0737639295" lon="30.032513088"><ele>95.579</ele><time>2026-04-20T20:54:01.000Z</time></trkpt>
   <trkpt lat="59.0737788493" lon="30.0325799756"><ele>93.519</ele><time>2026-04-20T20:54:29.000Z</time></trkpt>
   <trkpt lat="59.0737521948" lon="30.0325872679"><ele>93.369</ele><time>2026-04-20T20:55:01.000Z</time></trkpt>
   <trkpt lat="59.0737578107" lon="30.0325429276"><ele>93.789</ele><time>2026-04-20T20:55:40.000Z</time></trkpt>
   <trkpt lat="59.0737449026" lon="30.0325365574"><ele>93.659</ele><time>2026-04-20T20:56:09.000Z</time></trkpt>
   <trkpt lat="59.0737420527" lon="30.032538569"><ele>94.319</ele><time>2026-04-20T20:56:34.000Z</time></trkpt>
   <trkpt lat="59.0737460761" lon="30.0325193745"><ele>94.989</ele><time>2026-04-20T20:57:02.000Z</time></trkpt>
   <trkpt lat="59.0737666955" lon="30.0325005152"><ele>95.459</ele><time>2026-04-20T20:57:26.000Z</time></trkpt>
   <trkpt lat="59.0737717247" lon="30.0325793889"><ele>94.029</ele><time>2026-04-20T20:57:45.000Z</time></trkpt>
   <trkpt lat="59.0737738202" lon="30.0326658063"><ele>92.299</ele><time>2026-04-20T20:58:06.000Z</time></trkpt>
   <trkpt lat="59.0738562981" lon="30.0326527305"><ele>91.229</ele><time>2026-04-20T20:58:27.000Z</time></trkpt>
   <trkpt lat="59.0739312323" lon="30.0326057919"><ele>91.289</ele><time>2026-04-20T20:58:46.000Z</time></trkpt>
   <trkpt lat="59.0740316475" lon="30.0325275049"><ele>90.609</ele><time>2026-04-20T20:59:06.000Z</time></trkpt>
   <trkpt lat="59.0741453899" lon="30.0325306062"><ele>89.789</ele><time>2026-04-20T20:59:25.000Z</time></trkpt>
   <trkpt lat="59.0741302187" lon="30.0325235654"><ele>89.089</ele><time>2026-04-20T20:59:42.000Z</time></trkpt>
   <trkpt lat="59.0742484035" lon="30.0325370603"><ele>89.029</ele><time>2026-04-20T21:00:00.000Z</time></trkpt>
   <trkpt lat="59.074349154" lon="30.0325166923"><ele>88.249</ele><time>2026-04-20T21:00:20.000Z</time></trkpt>
   <trkpt lat="59.0744830968" lon="30.0324226473"><ele>86.829</ele><time>2026-04-20T21:00:39.000Z</time></trkpt>
   <trkpt lat="59.0746058917" lon="30.0324659817"><ele>84.549</ele><time>2026-04-20T21:00:55.000Z</time></trkpt>
   <trkpt lat="59.0746569375" lon="30.0324169476"><ele>85.309</ele><time>2026-04-20T21:01:15.000Z</time></trkpt>
   <trkpt lat="59.0746736175" lon="30.0323965796"><ele>87.129</ele><time>2026-04-20T21:01:40.000Z</time></trkpt>
   <trkpt lat="59.0746897945" lon="30.0323861022"><ele>87.319</ele><time>2026-04-20T21:02:13.000Z</time></trkpt>
   <trkpt lat="59.0746736175" lon="30.0324069731"><ele>85.979</ele><time>2026-04-20T21:02:37.000Z</time></trkpt>
   <trkpt lat="59.0746281037" lon="30.0324117508"><ele>84.919</ele><time>2026-04-20T21:03:08.000Z</time></trkpt>
   <trkpt lat="59.0746352283" lon="30.0323587772"><ele>87.379</ele><time>2026-04-20T21:03:31.000Z</time></trkpt>
   <trkpt lat="59.0746522436" lon="30.0323633034"><ele>88.699</ele><time>2026-04-20T21:03:59.000Z</time></trkpt>
   <trkpt lat="59.0746610446" lon="30.0322274328"><ele>88.599</ele><time>2026-04-20T21:04:19.000Z</time></trkpt>
   <trkpt lat="59.0746470468" lon="30.0322369881"><ele>87.179</ele><time>2026-04-20T21:04:35.000Z</time></trkpt>
   <trkpt lat="59.0746933988" lon="30.0322862737"><ele>86.129</ele><time>2026-04-20T21:04:55.000Z</time></trkpt>
   <trkpt lat="59.0748186244" lon="30.0323330448"><ele>82.049</ele><time>2026-04-20T21:05:15.000Z</time></trkpt>
   <trkpt lat="59.0749346299" lon="30.032342181"><ele>77.779</ele><time>2026-04-20T21:05:33.000Z</time></trkpt>
   <trkpt lat="59.0750691595" lon="30.0323773012"><ele>75.489</ele><time>2026-04-20T21:05:55.000Z</time></trkpt>
   <trkpt lat="59.0751304312" lon="30.032390377"><ele>79.179</ele><time>2026-04-20T21:06:13.000Z</time></trkpt>
   <trkpt lat="59.075285664" lon="30.0322885369"><ele>80.899</ele><time>2026-04-20T21:06:35.000Z</time></trkpt>
   <trkpt lat="59.0753848219" lon="30.0323012773"><ele>81.389</ele><time>2026-04-20T21:06:54.000Z</time></trkpt>
   <trkpt lat="59.0754412322" lon="30.0323487189"><ele>81.049</ele><time>2026-04-20T21:07:03.000Z</time></trkpt>
   <trkpt lat="59.0755363668" lon="30.0324214738"><ele>81.919</ele><time>2026-04-20T21:07:19.000Z</time></trkpt>
   <trkpt lat="59.0756289868" lon="30.0324358907"><ele>82.379</ele><time>2026-04-20T21:07:35.000Z</time></trkpt>
   <trkpt lat="59.0756869896" lon="30.0324596953"><ele>83.639</ele><time>2026-04-20T21:07:49.000Z</time></trkpt>
   <trkpt lat="59.0757932721" lon="30.0324403331"><ele>85.059</ele><time>2026-04-20T21:08:09.000Z</time></trkpt>
   <trkpt lat="59.0758643506" lon="30.0324420933"><ele>85.519</ele><time>2026-04-20T21:08:29.000Z</time></trkpt>
   <trkpt lat="59.0759633409" lon="30.0324516487"><ele>82.909</ele><time>2026-04-20T21:08:45.000Z</time></trkpt>
   <trkpt lat="59.0760639237" lon="30.0324925524"><ele>81.289</ele><time>2026-04-20T21:09:01.000Z</time></trkpt>
   <trkpt lat="59.0761468208" lon="30.0325424247"><ele>80.809</ele><time>2026-04-20T21:09:16.000Z</time></trkpt>
   <trkpt lat="59.0762246886" lon="30.0326374755"><ele>80.559</ele><time>2026-04-20T21:09:29.000Z</time></trkpt>
   <trkpt lat="59.0762715435" lon="30.0326287583"><ele>81.679</ele><time>2026-04-20T21:09:40.000Z</time></trkpt>
   <trkpt lat="59.0763643311" lon="30.0325311929"><ele>81.439</ele><time>2026-04-20T21:09:53.000Z</time></trkpt>
   <trkpt lat="59.0764174724" lon="30.032448715"><ele>80.519</ele><time>2026-04-20T21:10:09.000Z</time></trkpt>
   <trkpt lat="59.0764177239" lon="30.0324552529"><ele>79.859</ele><time>2026-04-20T21:10:33.000Z</time></trkpt>
   <trkpt lat="59.0764046481" lon="30.0324651436"><ele>79.549</ele><time>2026-04-20T21:11:01.000Z</time></trkpt>
   <trkpt lat="59.0764028879" lon="30.0324609526"><ele>79.099</ele><time>2026-04-20T21:11:21.000Z</time></trkpt>
   <trkpt lat="59.076398697" lon="30.0325008505"><ele>80.019</ele><time>2026-04-20T21:11:48.000Z</time></trkpt>
   <trkpt lat="59.0763823522" lon="30.0325096515"><ele>80.819</ele><time>2026-04-20T21:12:13.000Z</time></trkpt>
   <trkpt lat="59.0763960986" lon="30.0325031136"><ele>80.509</ele><time>2026-04-20T21:12:43.000Z</time></trkpt>
   <trkpt lat="59.0764367508" lon="30.0324759562"><ele>81.839</ele><time>2026-04-20T21:13:04.000Z</time></trkpt>
   <trkpt lat="59.0765562767" lon="30.0323574361"><ele>82.469</ele><time>2026-04-20T21:13:23.000Z</time></trkpt>
   <trkpt lat="59.0766318815" lon="30.0322761316"><ele>82.249</ele><time>2026-04-20T21:13:36.000Z</time></trkpt>
   <trkpt lat="59.0767023733" lon="30.0321394228"><ele>82.359</ele><time>2026-04-20T21:13:53.000Z</time></trkpt>
   <trkpt lat="59.076793317" lon="30.0320121017"><ele>82.099</ele><time>2026-04-20T21:14:14.000Z</time></trkpt>
   <trkpt lat="59.0769109989" lon="30.0320048094"><ele>83.169</ele><time>2026-04-20T21:14:36.000Z</time></trkpt>
   <trkpt lat="59.0770591909" lon="30.0320420251"><ele>83.039</ele><time>2026-04-20T21:14:56.000Z</time></trkpt>
   <trkpt lat="59.0771788845" lon="30.0319764786"><ele>79.919</ele><time>2026-04-20T21:15:13.000Z</time></trkpt>
   <trkpt lat="59.0772162678" lon="30.032123581"><ele>78.729</ele><time>2026-04-20T21:15:28.000Z</time></trkpt>
   <trkpt lat="59.0772843288" lon="30.0321795721"><ele>78.909</ele><time>2026-04-20T21:15:42.000Z</time></trkpt>
   <trkpt lat="59.077407459" lon="30.0321982638"><ele>78.039</ele><time>2026-04-20T21:15:59.000Z</time></trkpt>
   <trkpt lat="59.0774518831" lon="30.0321805779"><ele>76.229</ele><time>2026-04-20T21:16:17.000Z</time></trkpt>
   <trkpt lat="59.0774841534" lon="30.032077732"><ele>73.819</ele><time>2026-04-20T21:16:34.000Z</time></trkpt>
   <trkpt lat="59.0775392225" lon="30.0319568649"><ele>72.209</ele><time>2026-04-20T21:16:47.000Z</time></trkpt>
   <trkpt lat="59.0776351953" lon="30.031859132"><ele>71.159</ele><time>2026-04-20T21:17:05.000Z</time></trkpt>
   <trkpt lat="59.0776761828" lon="30.03179149"><ele>72.489</ele><time>2026-04-20T21:17:19.000Z</time></trkpt>
   <trkpt lat="59.0777355267" lon="30.0317396898"><ele>74.039</ele><time>2026-04-20T21:17:33.000Z</time></trkpt>
   <trkpt lat="59.0778014084" lon="30.0315628317"><ele>75.489</ele><time>2026-04-20T21:17:48.000Z</time></trkpt>
   <trkpt lat="59.0778322539" lon="30.0315081817"><ele>75.999</ele><time>2026-04-20T21:18:06.000Z</time></trkpt>
   <trkpt lat="59.0778403005" lon="30.0315026496"><ele>76.719</ele><time>2026-04-20T21:18:35.000Z</time></trkpt>
   <trkpt lat="59.0778439047" lon="30.0314945192"><ele>77.449</ele><time>2026-04-20T21:19:02.000Z</time></trkpt>
   <trkpt lat="59.0778387917" lon="30.0315166474"><ele>79.849</ele><time>2026-04-20T21:19:28.000Z</time></trkpt>
   <trkpt lat="59.0778434018" lon="30.0315065891"><ele>82.019</ele><time>2026-04-20T21:19:53.000Z</time></trkpt>
   <trkpt lat="59.0778221117" lon="30.0315154739"><ele>81.379</ele><time>2026-04-20T21:20:19.000Z</time></trkpt>
   <trkpt lat="59.0778177532" lon="30.0315306452"><ele>82.049</ele><time>2026-04-20T21:20:54.000Z</time></trkpt>
   <trkpt lat="59.077820603" lon="30.0315241073"><ele>81.949</ele><time>2026-04-20T21:21:22.000Z</time></trkpt>
   <trkpt lat="59.0778110476" lon="30.0314835389"><ele>81.059</ele><time>2026-04-20T21:21:51.000Z</time></trkpt>
   <trkpt lat="59.0777996482" lon="30.0314980396"><ele>80.289</ele><time>2026-04-20T21:22:14.000Z</time></trkpt>
   <trkpt lat="59.0778093713" lon="30.031499213"><ele>79.859</ele><time>2026-04-20T21:22:45.000Z</time></trkpt>
   <trkpt lat="59.0778148195" lon="30.0315042422"><ele>79.839</ele><time>2026-04-20T21:23:01.000Z</time></trkpt>
   <trkpt lat="59.0778102094" lon="30.0315137137"><ele>79.909</ele><time>2026-04-20T21:23:20.000Z</time></trkpt>
   <trkpt lat="59.0778289011" lon="30.0315081817"><ele>80.499</ele><time>2026-04-20T21:23:48.000Z</time></trkpt>
   <trkpt lat="59.0778138137" lon="30.0315185752"><ele>80.779</ele><time>2026-04-20T21:24:30.000Z</time></trkpt>
   <trkpt lat="59.0778143166" lon="30.0315179047"><ele>79.809</ele><time>2026-04-20T21:25:11.000Z</time></trkpt>
   <trkpt lat="59.0778115505" lon="30.0315405358"><ele>79.059</ele><time>2026-04-20T21:25:39.000Z</time></trkpt>
   <trkpt lat="59.07781088" lon="30.0315185752"><ele>78.649</ele><time>2026-04-20T21:26:07.000Z</time></trkpt>
   <trkpt lat="59.0778054318" lon="30.031508014"><ele>77.299</ele><time>2026-04-20T21:26:26.000Z</time></trkpt>
   <trkpt lat="59.077790512" lon="30.0315063376"><ele>77.199</ele><time>2026-04-20T21:26:43.000Z</time></trkpt>
   <trkpt lat="59.0777967984" lon="30.0315174018"><ele>77.919</ele><time>2026-04-20T21:27:07.000Z</time></trkpt>
   <trkpt lat="59.0778104609" lon="30.031500638"><ele>79.469</ele><time>2026-04-20T21:27:35.000Z</time></trkpt>
   <trkpt lat="59.0778273923" lon="30.0314743188"><ele>80.639</ele><time>2026-04-20T21:28:03.000Z</time></trkpt>
   <trkpt lat="59.0778279791" lon="30.0315375183"><ele>84.909</ele><time>2026-04-20T21:28:46.000Z</time></trkpt>
   <trkpt lat="59.077813646" lon="30.0315535278"><ele>84.929</ele><time>2026-04-20T21:29:31.000Z</time></trkpt>
   <trkpt lat="59.0778107962" lon="30.0315293879"><ele>83.699</ele><time>2026-04-20T21:29:53.000Z</time></trkpt>
   <trkpt lat="59.077812724" lon="30.031528885"><ele>82.679</ele><time>2026-04-20T21:30:28.000Z</time></trkpt>
   <trkpt lat="59.077785399" lon="30.031558054"><ele>80.069</ele><time>2026-04-20T21:31:18.000Z</time></trkpt>
   <trkpt lat="59.0777724909" lon="30.031548331"><ele>78.319</ele><time>2026-04-20T21:31:59.000Z</time></trkpt>
   <trkpt lat="59.077796044" lon="30.0315345847"><ele>77.539</ele><time>2026-04-20T21:32:37.000Z</time></trkpt>
   <trkpt lat="59.0778061023" lon="30.0315292202"><ele>77.849</ele><time>2026-04-20T21:33:13.000Z</time></trkpt>
   <trkpt lat="59.0778175855" lon="30.0315159768"><ele>79.019</ele><time>2026-04-20T21:33:39.000Z</time></trkpt>
   <trkpt lat="59.0778221956" lon="30.0315014761"><ele>79.699</ele><time>2026-04-20T21:34:14.000Z</time></trkpt>
   <trkpt lat="59.0778177532" lon="30.0315080978"><ele>78.579</ele><time>2026-04-20T21:34:40.000Z</time></trkpt>
   <trkpt lat="59.0778227823" lon="30.0315096066"><ele>78.659</ele><time>2026-04-20T21:35:06.000Z</time></trkpt>
   <trkpt lat="59.0778181723" lon="30.0315041584"><ele>78.319</ele><time>2026-04-20T21:35:34.000Z</time></trkpt>
   <trkpt lat="59.0778287335" lon="30.0314942677"><ele>78.939</ele><time>2026-04-20T21:36:11.000Z</time></trkpt>
   <trkpt lat="59.0778205192" lon="30.0314847123"><ele>78.799</ele><time>2026-04-20T21:37:03.000Z</time></trkpt>
   <trkpt lat="59.0778052641" lon="30.0315147196"><ele>79.049</ele><time>2026-04-20T21:37:52.000Z</time></trkpt>
   <trkpt lat="59.0778056832" lon="30.0315225147"><ele>78.659</ele><time>2026-04-20T21:38:18.000Z</time></trkpt>
   <trkpt lat="59.0778255483" lon="30.0315320701"><ele>80.369</ele><time>2026-04-20T21:38:48.000Z</time></trkpt>
   <trkpt lat="59.0778218603" lon="30.0315214251"><ele>80.819</ele><time>2026-04-20T21:39:14.000Z</time></trkpt>
   <trkpt lat="59.0778259674" lon="30.0315151386"><ele>82.439</ele><time>2026-04-20T21:39:40.000Z</time></trkpt>
   <trkpt lat="59.0778204354" lon="30.0314985425"><ele>82.669</ele><time>2026-04-20T21:40:09.000Z</time></trkpt>
   <trkpt lat="59.0778223632" lon="30.0314909988"><ele>82.399</ele><time>2026-04-20T21:40:39.000Z</time></trkpt>
   <trkpt lat="59.0778273923" lon="30.0314931781"><ele>82.929</ele><time>2026-04-20T21:41:13.000Z</time></trkpt>
   <trkpt lat="59.0778350199" lon="30.0314879813"><ele>82.889</ele><time>2026-04-20T21:41:35.000Z</time></trkpt>
   <trkpt lat="59.0778180046" lon="30.031359822"><ele>82.219</ele><time>2026-04-20T21:42:03.000Z</time></trkpt>
   <trkpt lat="59.0777610915" lon="30.0310813752"><ele>82.019</ele><time>2026-04-20T21:42:25.000Z</time></trkpt>
   <trkpt lat="59.0777294917" lon="30.0308393896"><ele>81.859</ele><time>2026-04-20T21:42:44.000Z</time></trkpt>
   <trkpt lat="59.0777223671" lon="30.0306333624"><ele>81.799</ele><time>2026-04-20T21:43:00.000Z</time></trkpt>
   <trkpt lat="59.0777139852" lon="30.0305368867"><ele>81.739</ele><time>2026-04-20T21:43:17.000Z</time></trkpt>
   <trkpt lat="59.0776971376" lon="30.0305446819"><ele>81.579</ele><time>2026-04-20T21:43:41.000Z</time></trkpt>
   <trkpt lat="59.0776954612" lon="30.0305391498"><ele>81.239</ele><time>2026-04-20T21:44:05.000Z</time></trkpt>
   <trkpt lat="59.0776999874" lon="30.0304953963"><ele>81.479</ele><time>2026-04-20T21:44:29.000Z</time></trkpt>
   <trkpt lat="59.077702502" lon="30.0305191171"><ele>80.329</ele><time>2026-04-20T21:44:57.000Z</time></trkpt>
   <trkpt lat="59.0776894262" lon="30.0305545725"><ele>81.509</ele><time>2026-04-20T21:45:27.000Z</time></trkpt>
   <trkpt lat="59.0776928628" lon="30.0305426702"><ele>81.109</ele><time>2026-04-20T21:45:54.000Z</time></trkpt>
   <trkpt lat="59.0777095428" lon="30.0305015151"><ele>80.199</ele><time>2026-04-20T21:46:26.000Z</time></trkpt>
   <trkpt lat="59.077695545" lon="30.0305069633"><ele>79.299</ele><time>2026-04-20T21:46:56.000Z</time></trkpt>
   <trkpt lat="59.0776746741" lon="30.0305707496"><ele>79.009</ele><time>2026-04-20T21:47:31.000Z</time></trkpt>
   <trkpt lat="59.0777019153" lon="30.0305391498"><ele>79.239</ele><time>2026-04-20T21:48:00.000Z</time></trkpt>
   <trkpt lat="59.0777224509" lon="30.030352401"><ele>78.419</ele><time>2026-04-20T21:48:15.000Z</time></trkpt>
   <trkpt lat="59.0777165836" lon="30.0302348029"><ele>78.459</ele><time>2026-04-20T21:48:27.000Z</time></trkpt>
   <trkpt lat="59.0777185952" lon="30.0301225693"><ele>78.719</ele><time>2026-04-20T21:48:42.000Z</time></trkpt>
   <trkpt lat="59.0777246302" lon="30.0300240819"><ele>80.349</ele><time>2026-04-20T21:49:03.000Z</time></trkpt>
   <trkpt lat="59.0777361972" lon="30.0300316256"><ele>82.819</ele><time>2026-04-20T21:49:29.000Z</time></trkpt>
   <trkpt lat="59.0776996521" lon="30.0300141074"><ele>83.719</ele><time>2026-04-20T21:49:45.000Z</time></trkpt>
   <trkpt lat="59.0776425714" lon="30.0300316256"><ele>84.269</ele><time>2026-04-20T21:50:01.000Z</time></trkpt>
   <trkpt lat="59.077610804" lon="30.0300730322"><ele>83.919</ele><time>2026-04-20T21:50:17.000Z</time></trkpt>
   <trkpt lat="59.077564955" lon="30.0300607108"><ele>83.389</ele><time>2026-04-20T21:50:31.000Z</time></trkpt>
   <trkpt lat="59.0775483588" lon="30.0301208929"><ele>83.829</ele><time>2026-04-20T21:50:49.000Z</time></trkpt>
   <trkpt lat="59.0775234645" lon="30.0301269278"><ele>84.489</ele><time>2026-04-20T21:51:09.000Z</time></trkpt>
   <trkpt lat="59.0774904398" lon="30.0302951526"><ele>85.189</ele><time>2026-04-20T21:51:30.000Z</time></trkpt>
   <trkpt lat="59.077467222" lon="30.0303482101"><ele>85.539</ele><time>2026-04-20T21:51:49.000Z</time></trkpt>
   <trkpt lat="59.0774188584" lon="30.0304119126"><ele>85.789</ele><time>2026-04-20T21:52:04.000Z</time></trkpt>
   <trkpt lat="59.0773554074" lon="30.0304596056"><ele>85.459</ele><time>2026-04-20T21:52:21.000Z</time></trkpt>
   <trkpt lat="59.0773188623" lon="30.0305276666"><ele>84.949</ele><time>2026-04-20T21:52:33.000Z</time></trkpt>
   <trkpt lat="59.0772625359" lon="30.0305949733"><ele>84.729</ele><time>2026-04-20T21:52:51.000Z</time></trkpt>
   <trkpt lat="59.0772202073" lon="30.0305370544"><ele>85.059</ele><time>2026-04-20T21:53:16.000Z</time></trkpt>
   <trkpt lat="59.0771678204" lon="30.0306357094"><ele>84.089</ele><time>2026-04-20T21:53:38.000Z</time></trkpt>
   <trkpt lat="59.0770858454" lon="30.0307202828"><ele>83.139</ele><time>2026-04-20T21:53:54.000Z</time></trkpt>
   <trkpt lat="59.076972522" lon="30.0307842367"><ele>83.629</ele><time>2026-04-20T21:54:13.000Z</time></trkpt>
   <trkpt lat="59.0768874457" lon="30.0309610948"><ele>84.099</ele><time>2026-04-20T21:54:30.000Z</time></trkpt>
   <trkpt lat="59.0767819176" lon="30.0309215323"><ele>83.289</ele><time>2026-04-20T21:54:47.000Z</time></trkpt>
   <trkpt lat="59.0766820891" lon="30.0309213646"><ele>83.979</ele><time>2026-04-20T21:55:03.000Z</time></trkpt>
   <trkpt lat="59.0765844399" lon="30.0308928662"><ele>84.209</ele><time>2026-04-20T21:55:22.000Z</time></trkpt>
   <trkpt lat="59.0764649978" lon="30.0307133258"><ele>84.919</ele><time>2026-04-20T21:55:40.000Z</time></trkpt>
   <trkpt lat="59.0764296262" lon="30.0307148345"><ele>86.619</ele><time>2026-04-20T21:56:01.000Z</time></trkpt>
   <trkpt lat="59.0763313903" lon="30.0307661318"><ele>88.759</ele><time>2026-04-20T21:56:27.000Z</time></trkpt>
   <trkpt lat="59.0763217511" lon="30.0307201151"><ele>90.639</ele><time>2026-04-20T21:56:40.000Z</time></trkpt>
   <trkpt lat="59.076305574" lon="30.0307104759"><ele>91.169</ele><time>2026-04-20T21:56:45.000Z</time></trkpt>
   <trkpt lat="59.0762704538" lon="30.0307636172"><ele>91.869</ele><time>2026-04-20T21:57:00.000Z</time></trkpt>
   <trkpt lat="59.0761976989" lon="30.0308409822"><ele>91.919</ele><time>2026-04-20T21:57:17.000Z</time></trkpt>
   <trkpt lat="59.0761343317" lon="30.0308662117"><ele>90.059</ele><time>2026-04-20T21:57:30.000Z</time></trkpt>
   <trkpt lat="59.0760609063" lon="30.030966124"><ele>86.589</ele><time>2026-04-20T21:57:43.000Z</time></trkpt>
   <trkpt lat="59.0760206731" lon="30.0310144876"><ele>83.359</ele><time>2026-04-20T21:58:00.000Z</time></trkpt>
   <trkpt lat="59.076020254" lon="30.0309993163"><ele>83.329</ele><time>2026-04-20T21:58:01.000Z</time></trkpt>
   <trkpt lat="59.0759495946" lon="30.0310014956"><ele>83.669</ele><time>2026-04-20T21:58:15.000Z</time></trkpt>
   <trkpt lat="59.075890586" lon="30.0311351032"><ele>83.599</ele><time>2026-04-20T21:58:30.000Z</time></trkpt>
   <trkpt lat="59.0758413842" lon="30.0311941956"><ele>83.419</ele><time>2026-04-20T21:58:45.000Z</time></trkpt>
   <trkpt lat="59.075810455" lon="30.0312143121"><ele>83.389</ele><time>2026-04-20T21:59:05.000Z</time></trkpt>
   <trkpt lat="59.0757817051" lon="30.0312572275"><ele>85.079</ele><time>2026-04-20T21:59:28.000Z</time></trkpt>
   <trkpt lat="59.0758046715" lon="30.0312360213"><ele>84.659</ele><time>2026-04-20T21:59:55.000Z</time></trkpt>
   <trkpt lat="59.0758195074" lon="30.0312543776"><ele>84.939</ele><time>2026-04-20T22:00:20.000Z</time></trkpt>
   <trkpt lat="59.0758301525" lon="30.0312118814"><ele>87.309</ele><time>2026-04-20T22:00:50.000Z</time></trkpt>
   <trkpt lat="59.0758764206" lon="30.0312012364"><ele>88.199</ele><time>2026-04-20T22:01:19.000Z</time></trkpt>
   <trkpt lat="59.0758385344" lon="30.0312363565"><ele>88.779</ele><time>2026-04-20T22:01:52.000Z</time></trkpt>
   <trkpt lat="59.075820178" lon="30.0312512763"><ele>88.449</ele><time>2026-04-20T22:02:13.000Z</time></trkpt>
   <trkpt lat="59.0757954514" lon="30.0312141445"><ele>89.139</ele><time>2026-04-20T22:02:34.000Z</time></trkpt>
   <trkpt lat="59.0757462496" lon="30.031019852"><ele>89.479</ele><time>2026-04-20T22:02:54.000Z</time></trkpt>
   <trkpt lat="59.0756559765" lon="30.0310304132"><ele>88.299</ele><time>2026-04-20T22:03:13.000Z</time></trkpt>
   <trkpt lat="59.0755310023" lon="30.0310543016"><ele>87.529</ele><time>2026-04-20T22:03:30.000Z</time></trkpt>
   <trkpt lat="59.0754012505" lon="30.0310546369"><ele>87.359</ele><time>2026-04-20T22:03:46.000Z</time></trkpt>
   <trkpt lat="59.0752668047" lon="30.0310654495"><ele>86.359</ele><time>2026-04-20T22:04:02.000Z</time></trkpt>
   <trkpt lat="59.0752020126" lon="30.0310560618"><ele>86.309</ele><time>2026-04-20T22:04:14.000Z</time></trkpt>
   <trkpt lat="59.0751388131" lon="30.0310301617"><ele>86.429</ele><time>2026-04-20T22:04:30.000Z</time></trkpt>
   <trkpt lat="59.0750906171" lon="30.031058744"><ele>87.069</ele><time>2026-04-20T22:04:36.000Z</time></trkpt>
   <trkpt lat="59.0749914592" lon="30.0310817104"><ele>87.189</ele><time>2026-04-20T22:04:47.000Z</time></trkpt>
   <trkpt lat="59.0749325344" lon="30.0311563932"><ele>87.689</ele><time>2026-04-20T22:04:59.000Z</time></trkpt>
   <trkpt lat="59.0748508947" lon="30.0312097859"><ele>88.569</ele><time>2026-04-20T22:05:18.000Z</time></trkpt>
   <trkpt lat="59.0747436902" lon="30.0312125519"><ele>88.709</ele><time>2026-04-20T22:05:32.000Z</time></trkpt>
   <trkpt lat="59.0747056363" lon="30.0311662838"><ele>88.159</ele><time>2026-04-20T22:06:01.000Z</time></trkpt>
   <trkpt lat="59.074677976" lon="30.0311999791"><ele>88.419</ele><time>2026-04-20T22:06:19.000Z</time></trkpt>
   <trkpt lat="59.0745410996" lon="30.0312370271"><ele>89.429</ele><time>2026-04-20T22:06:38.000Z</time></trkpt>
   <trkpt lat="59.0744664168" lon="30.0314072636"><ele>88.559</ele><time>2026-04-20T22:06:56.000Z</time></trkpt>
   <trkpt lat="59.0743701926" lon="30.031402402"><ele>88.609</ele><time>2026-04-20T22:07:11.000Z</time></trkpt>
   <trkpt lat="59.0742920732" lon="30.0314916693"><ele>88.669</ele><time>2026-04-20T22:07:29.000Z</time></trkpt>
   <trkpt lat="59.0742714537" lon="30.0315153901"><ele>88.549</ele><time>2026-04-20T22:07:32.000Z</time></trkpt>
   <trkpt lat="59.0741438812" lon="30.031595102"><ele>87.749</ele><time>2026-04-20T22:07:49.000Z</time></trkpt>
   <trkpt lat="59.0740625767" lon="30.0316552841"><ele>87.829</ele><time>2026-04-20T22:08:05.000Z</time></trkpt>
   <trkpt lat="59.0740114471" lon="30.0316868"><ele>87.399</ele><time>2026-04-20T22:08:11.000Z</time></trkpt>
   <trkpt lat="59.0739085173" lon="30.0317346607"><ele>86.469</ele><time>2026-04-20T22:08:28.000Z</time></trkpt>
   <trkpt lat="59.0738293084" lon="30.031804901"><ele>84.389</ele><time>2026-04-20T22:08:47.000Z</time></trkpt>
   <trkpt lat="59.0738718046" lon="30.0317867123"><ele>85.729</ele><time>2026-04-20T22:08:58.000Z</time></trkpt>
   <trkpt lat="59.0737614149" lon="30.0317523465"><ele>86.859</ele><time>2026-04-20T22:09:17.000Z</time></trkpt>
   <trkpt lat="59.0737058429" lon="30.0315020629"><ele>87.129</ele><time>2026-04-20T22:09:36.000Z</time></trkpt>
   <trkpt lat="59.0736277236" lon="30.0311301578"><ele>87.789</ele><time>2026-04-20T22:09:56.000Z</time></trkpt>
   <trkpt lat="59.0736124685" lon="30.0310080335"><ele>87.279</ele><time>2026-04-20T22:10:15.000Z</time></trkpt>
   <trkpt lat="59.0735767616" lon="30.0308873341"><ele>87.969</ele><time>2026-04-20T22:10:35.000Z</time></trkpt>
   <trkpt lat="59.0735676253" lon="30.030881802"><ele>90.819</ele><time>2026-04-20T22:10:54.000Z</time></trkpt>
   <trkpt lat="59.0735397974" lon="30.0308539741"><ele>92.179</ele><time>2026-04-20T22:11:25.000Z</time></trkpt>
   <trkpt lat="59.0735013245" lon="30.0308212009"><ele>89.269</ele><time>2026-04-20T22:11:54.000Z</time></trkpt>
   <trkpt lat="59.0734927749" lon="30.0307560735"><ele>88.599</ele><time>2026-04-20T22:12:20.000Z</time></trkpt>
   <trkpt lat="59.0734926073" lon="30.0307607674"><ele>88.079</ele><time>2026-04-20T22:12:47.000Z</time></trkpt>
   <trkpt lat="59.073482549" lon="30.0308443349"><ele>87.309</ele><time>2026-04-20T22:13:15.000Z</time></trkpt>
   <trkpt lat="59.07348674" lon="30.0308691454"><ele>86.659</ele><time>2026-04-20T22:13:43.000Z</time></trkpt>
   <trkpt lat="59.0734767655" lon="30.0308134057"><ele>87.089</ele><time>2026-04-20T22:14:14.000Z</time></trkpt>
   <trkpt lat="59.0734998157" lon="30.0308403954"><ele>87.899</ele><time>2026-04-20T22:14:42.000Z</time></trkpt>
   <trkpt lat="59.0735132268" lon="30.0309065287"><ele>88.499</ele><time>2026-04-20T22:15:12.000Z</time></trkpt>
   <trkpt lat="59.0735534599" lon="30.0308979791"><ele>88.529</ele><time>2026-04-20T22:15:44.000Z</time></trkpt>
   <trkpt lat="59.0735679606" lon="30.0308426586"><ele>89.509</ele><time>2026-04-20T22:16:13.000Z</time></trkpt>
   <trkpt lat="59.0735588243" lon="30.0308420718"><ele>91.589</ele><time>2026-04-20T22:16:42.000Z</time></trkpt>
   <trkpt lat="59.0735943636" lon="30.0308341928"><ele>93.349</ele><time>2026-04-20T22:17:13.000Z</time></trkpt>
   <trkpt lat="59.0735584052" lon="30.0308512919"><ele>92.459</ele><time>2026-04-20T22:17:41.000Z</time></trkpt>
   <trkpt lat="59.0735141488" lon="30.0308291637"><ele>91.369</ele><time>2026-04-20T22:18:09.000Z</time></trkpt>
   <trkpt lat="59.07356268" lon="30.0308539741"><ele>90.869</ele><time>2026-04-20T22:18:38.000Z</time></trkpt>
   <trkpt lat="59.0735604169" lon="30.0308082928"><ele>90.959</ele><time>2026-04-20T22:19:03.000Z</time></trkpt>
   <trkpt lat="59.0735489337" lon="30.0308460951"><ele>92.619</ele><time>2026-04-20T22:19:25.000Z</time></trkpt>
   <trkpt lat="59.0735565612" lon="30.0308675528"><ele>92.199</ele><time>2026-04-20T22:19:54.000Z</time></trkpt>
   <trkpt lat="59.0735446589" lon="30.0308962189"><ele>91.549</ele><time>2026-04-20T22:20:20.000Z</time></trkpt>
   <trkpt lat="59.0735609198" lon="30.0308928662"><ele>92.649</ele><time>2026-04-20T22:20:49.000Z</time></trkpt>
   <trkpt lat="59.0735528732" lon="30.0308879208"><ele>93.089</ele><time>2026-04-20T22:21:18.000Z</time></trkpt>
   <trkpt lat="59.0735665357" lon="30.0309138209"><ele>92.429</ele><time>2026-04-20T22:21:47.000Z</time></trkpt>
   <trkpt lat="59.0735753367" lon="30.0309113063"><ele>93.949</ele><time>2026-04-20T22:22:17.000Z</time></trkpt>
   <trkpt lat="59.0735893345" lon="30.0309496116"><ele>94.089</ele><time>2026-04-20T22:22:42.000Z</time></trkpt>
   <trkpt lat="59.0735334272" lon="30.0309040141"><ele>92.389</ele><time>2026-04-20T22:23:10.000Z</time></trkpt>
   <trkpt lat="59.0735191779" lon="30.0309766014"><ele>92.109</ele><time>2026-04-20T22:23:39.000Z</time></trkpt>
   <trkpt lat="59.073506186" lon="30.0310261384"><ele>91.349</ele><time>2026-04-20T22:24:15.000Z</time></trkpt>
   <trkpt lat="59.0735406356" lon="30.0309761823"><ele>92.659</ele><time>2026-04-20T22:24:46.000Z</time></trkpt>
   <trkpt lat="59.0735708943" lon="30.0307395611"><ele>92.359</ele><time>2026-04-20T22:25:09.000Z</time></trkpt>
   <trkpt lat="59.0735669548" lon="30.0303541612"><ele>90.299</ele><time>2026-04-20T22:25:31.000Z</time></trkpt>
   <trkpt lat="59.0734973012" lon="30.0299710244"><ele>86.019</ele><time>2026-04-20T22:25:53.000Z</time></trkpt>
   <trkpt lat="59.0734532962" lon="30.0297261891"><ele>82.599</ele><time>2026-04-20T22:26:09.000Z</time></trkpt>
   <trkpt lat="59.0734423997" lon="30.0296059087"><ele>83.029</ele><time>2026-04-20T22:26:28.000Z</time></trkpt>
   <trkpt lat="59.0733970536" lon="30.0292217661"><ele>83.609</ele><time>2026-04-20T22:26:48.000Z</time></trkpt>
   <trkpt lat="59.0733924436" lon="30.02913845"><ele>89.249</ele><time>2026-04-20T22:27:10.000Z</time></trkpt>
   <trkpt lat="59.0734100456" lon="30.0291706365"><ele>89.949</ele><time>2026-04-20T22:27:34.000Z</time></trkpt>
   <trkpt lat="59.0734053517" lon="30.0291998055"><ele>91.179</ele><time>2026-04-20T22:28:10.000Z</time></trkpt>
   <trkpt lat="59.0733912701" lon="30.029225538"><ele>88.749</ele><time>2026-04-20T22:28:53.000Z</time></trkpt>
   <trkpt lat="59.073384816" lon="30.0292504322"><ele>86.869</ele><time>2026-04-20T22:29:27.000Z</time></trkpt>
   <trkpt lat="59.0734086206" lon="30.0292673637"><ele>88.769</ele><time>2026-04-20T22:30:00.000Z</time></trkpt>
   <trkpt lat="59.0734117219" lon="30.0292454869"><ele>88.629</ele><time>2026-04-20T22:30:32.000Z</time></trkpt>
   <trkpt lat="59.0734574871" lon="30.0292566348"><ele>87.679</ele><time>2026-04-20T22:30:54.000Z</time></trkpt>
   <trkpt lat="59.0734995643" lon="30.0292368535"><ele>87.919</ele><time>2026-04-20T22:31:11.000Z</time></trkpt>
   <trkpt lat="59.073539043" lon="30.0292260409"><ele>87.989</ele><time>2026-04-20T22:31:17.000Z</time></trkpt>
   <trkpt lat="59.0736392068" lon="30.0291330018"><ele>84.379</ele><time>2026-04-20T22:31:37.000Z</time></trkpt>
   <trkpt lat="59.0737216847" lon="30.0288797845"><ele>79.609</ele><time>2026-04-20T22:31:54.000Z</time></trkpt>
   <trkpt lat="59.0737542903" lon="30.0286884256"><ele>76.909</ele><time>2026-04-20T22:32:07.000Z</time></trkpt>
   <trkpt lat="59.0738147238" lon="30.028496983"><ele>76.189</ele><time>2026-04-20T22:32:22.000Z</time></trkpt>
   <trkpt lat="59.0738324935" lon="30.0283472822"><ele>73.249</ele><time>2026-04-20T22:32:37.000Z</time></trkpt>
   <trkpt lat="59.0738622492" lon="30.0282336236"><ele>72.579</ele><time>2026-04-20T22:32:50.000Z</time></trkpt>
   <trkpt lat="59.0738651829" lon="30.0280509819"><ele>69.829</ele><time>2026-04-20T22:33:05.000Z</time></trkpt>
   <trkpt lat="59.0739377702" lon="30.0279182964"><ele>72.769</ele><time>2026-04-20T22:33:24.000Z</time></trkpt>
   <trkpt lat="59.0740080105" lon="30.0277580344"><ele>75.219</ele><time>2026-04-20T22:33:42.000Z</time></trkpt>
   <trkpt lat="59.0739942642" lon="30.0276111834"><ele>77.289</ele><time>2026-04-20T22:33:54.000Z</time></trkpt>
   <trkpt lat="59.0740130397" lon="30.0276025501"><ele>79.089</ele><time>2026-04-20T22:34:15.000Z</time></trkpt>
   <trkpt lat="59.0741151313" lon="30.0275067449"><ele>79.309</ele><time>2026-04-20T22:34:35.000Z</time></trkpt>
   <trkpt lat="59.0741386844" lon="30.0274950102"><ele>81.069</ele><time>2026-04-20T22:34:56.000Z</time></trkpt>
   <trkpt lat="59.0741961843" lon="30.0274625723"><ele>80.159</ele><time>2026-04-20T22:35:16.000Z</time></trkpt>
   <trkpt lat="59.0742731301" lon="30.0274379295"><ele>78.039</ele><time>2026-04-20T22:35:32.000Z</time></trkpt>
   <trkpt lat="59.074332474" lon="30.0274479878"><ele>77.879</ele><time>2026-04-20T22:35:48.000Z</time></trkpt>
   <trkpt lat="59.0744067377" lon="30.0273603969"><ele>76.749</ele><time>2026-04-20T22:36:05.000Z</time></trkpt>
   <trkpt lat="59.0744838512" lon="30.0273272045"><ele>75.269</ele><time>2026-04-20T22:36:19.000Z</time></trkpt>
   <trkpt lat="59.0745397585" lon="30.0272928387"><ele>73.329</ele><time>2026-04-20T22:36:33.000Z</time></trkpt>
   <trkpt lat="59.0745732023" lon="30.0272856303"><ele>74.109</ele><time>2026-04-20T22:36:40.000Z</time></trkpt>
   <trkpt lat="59.0746457895" lon="30.0272760749"><ele>75.149</ele><time>2026-04-20T22:36:56.000Z</time></trkpt>
   <trkpt lat="59.0747185445" lon="30.0272319861"><ele>75.029</ele><time>2026-04-20T22:37:09.000Z</time></trkpt>
   <trkpt lat="59.0747824984" lon="30.0272008054"><ele>74.699</ele><time>2026-04-20T22:37:21.000Z</time></trkpt>
   <trkpt lat="59.0748762081" lon="30.027187562"><ele>74.019</ele><time>2026-04-20T22:37:38.000Z</time></trkpt>
   <trkpt lat="59.0749197101" lon="30.0271487538"><ele>76.429</ele><time>2026-04-20T22:37:54.000Z</time></trkpt>
   <trkpt lat="59.0749255775" lon="30.0271505978"><ele>77.359</ele><time>2026-04-20T22:38:17.000Z</time></trkpt>
   <trkpt lat="59.074930439" lon="30.0271942676"><ele>77.639</ele><time>2026-04-20T22:38:34.000Z</time></trkpt>
   <trkpt lat="59.0749329535" lon="30.0273194094"><ele>77.429</ele><time>2026-04-20T22:38:48.000Z</time></trkpt>
   <trkpt lat="59.0749237334" lon="30.0273490813"><ele>78.529</ele><time>2026-04-20T22:39:02.000Z</time></trkpt>
   <trkpt lat="59.0749492144" lon="30.0274386839"><ele>78.129</ele><time>2026-04-20T22:39:18.000Z</time></trkpt>
   <trkpt lat="59.0749746116" lon="30.0275971018"><ele>76.769</ele><time>2026-04-20T22:39:35.000Z</time></trkpt>
   <trkpt lat="59.0749542436" lon="30.0277197291"><ele>77.959</ele><time>2026-04-20T22:39:51.000Z</time></trkpt>
   <trkpt lat="59.0749386532" lon="30.0278257601"><ele>77.109</ele><time>2026-04-20T22:40:07.000Z</time></trkpt>
   <trkpt lat="59.0748860149" lon="30.0279633072"><ele>75.799</ele><time>2026-04-20T22:40:27.000Z</time></trkpt>
   <trkpt lat="59.0748671556" lon="30.0281293527"><ele>76.029</ele><time>2026-04-20T22:40:44.000Z</time></trkpt>
   <trkpt lat="59.0748527387" lon="30.0282753654"><ele>75.609</ele><time>2026-04-20T22:41:04.000Z</time></trkpt>
   <trkpt lat="59.0748454465" lon="30.028447865"><ele>75.159</ele><time>2026-04-20T22:41:19.000Z</time></trkpt>
   <trkpt lat="59.0748019444" lon="30.0285733421"><ele>76.329</ele><time>2026-04-20T22:41:34.000Z</time></trkpt>
   <trkpt lat="59.074748384" lon="30.0287286588"><ele>76.969</ele><time>2026-04-20T22:41:49.000Z</time></trkpt>
   <trkpt lat="59.0747135991" lon="30.0288838916"><ele>76.519</ele><time>2026-04-20T22:42:05.000Z</time></trkpt>
   <trkpt lat="59.0746713543" lon="30.0289945327"><ele>75.679</ele><time>2026-04-20T22:42:20.000Z</time></trkpt>
   <trkpt lat="59.0746322947" lon="30.0291159027"><ele>74.819</ele><time>2026-04-20T22:42:37.000Z</time></trkpt>
   <trkpt lat="59.0746244157" lon="30.029195866"><ele>74.719</ele><time>2026-04-20T22:42:53.000Z</time></trkpt>
   <trkpt lat="59.0746010302" lon="30.0294158072"><ele>75.989</ele><time>2026-04-20T22:43:10.000Z</time></trkpt>
   <trkpt lat="59.074573789" lon="30.0295017217"><ele>76.509</ele><time>2026-04-20T22:43:26.000Z</time></trkpt>
   <trkpt lat="59.0745530019" lon="30.0294868019"><ele>77.639</ele><time>2026-04-20T22:43:59.000Z</time></trkpt>
   <trkpt lat="59.0745396746" lon="30.0296197389"><ele>75.529</ele><time>2026-04-20T22:44:21.000Z</time></trkpt>
   <trkpt lat="59.0745743757" lon="30.0296852854"><ele>76.649</ele><time>2026-04-20T22:44:44.000Z</time></trkpt>
   <trkpt lat="59.0745879544" lon="30.0297324755"><ele>76.759</ele><time>2026-04-20T22:45:17.000Z</time></trkpt>
   <trkpt lat="59.0745646527" lon="30.0297173042"><ele>77.919</ele><time>2026-04-20T22:45:39.000Z</time></trkpt>
   <trkpt lat="59.0745643174" lon="30.0297152088"><ele>79.489</ele><time>2026-04-20T22:46:03.000Z</time></trkpt>
   <trkpt lat="59.0745524151" lon="30.029737337"><ele>80.939</ele><time>2026-04-20T22:46:20.000Z</time></trkpt>
   <trkpt lat="59.0745503197" lon="30.0297820963"><ele>81.279</ele><time>2026-04-20T22:46:38.000Z</time></trkpt>
   <trkpt lat="59.074559875" lon="30.0297510833"><ele>82.399</ele><time>2026-04-20T22:47:04.000Z</time></trkpt>
   <trkpt lat="59.0745620543" lon="30.0297403545"><ele>82.289</ele><time>2026-04-20T22:47:30.000Z</time></trkpt>
   <trkpt lat="59.0745663291" lon="30.0297515862"><ele>81.919</ele><time>2026-04-20T22:47:48.000Z</time></trkpt>
   <trkpt lat="59.074566832" lon="30.0297513348"><ele>81.919</ele><time>2026-04-20T22:48:06.000Z</time></trkpt>
   <trkpt lat="59.07454923" lon="30.0297632371"><ele>83.819</ele><time>2026-04-20T22:48:31.000Z</time></trkpt>
   <trkpt lat="59.0745675026" lon="30.0297472276"><ele>84.859</ele><time>2026-04-20T22:48:53.000Z</time></trkpt>
   <trkpt lat="59.0745809974" lon="30.029759549"><ele>84.619</ele><time>2026-04-20T22:49:20.000Z</time></trkpt>
   <trkpt lat="59.0745866971" lon="30.0297323078"><ele>82.789</ele><time>2026-04-20T22:49:59.000Z</time></trkpt>
   <trkpt lat="59.0745898822" lon="30.0297378399"><ele>82.739</ele><time>2026-04-20T22:50:26.000Z</time></trkpt>
   <trkpt lat="59.0745833444" lon="30.0297449645"><ele>82.419</ele><time>2026-04-20T22:50:56.000Z</time></trkpt>
   <trkpt lat="59.0745986832" lon="30.0297371693"><ele>82.989</ele><time>2026-04-20T22:51:26.000Z</time></trkpt>
   <trkpt lat="59.0745952467" lon="30.0297478982"><ele>84.029</ele><time>2026-04-20T22:51:53.000Z</time></trkpt>
   <trkpt lat="59.0746028742" lon="30.029781342"><ele>85.019</ele><time>2026-04-20T22:52:23.000Z</time></trkpt>
   <trkpt lat="59.07459927" lon="30.0297837727"><ele>85.619</ele><time>2026-04-20T22:52:56.000Z</time></trkpt>
   <trkpt lat="59.0746129325" lon="30.0297499098"><ele>85.439</ele><time>2026-04-20T22:53:23.000Z</time></trkpt>
   <trkpt lat="59.0746265112" lon="30.0297407736"><ele>85.399</ele><time>2026-04-20T22:53:45.000Z</time></trkpt>
   <trkpt lat="59.0746058917" lon="30.02976374"><ele>84.689</ele><time>2026-04-20T22:54:08.000Z</time></trkpt>
   <trkpt lat="59.074592313" lon="30.029754939"><ele>84.559</ele><time>2026-04-20T22:54:26.000Z</time></trkpt>
   <trkpt lat="59.0745681731" lon="30.0297570345"><ele>86.129</ele><time>2026-04-20T22:55:02.000Z</time></trkpt>
   <trkpt lat="59.074556187" lon="30.0297617283"><ele>86.009</ele><time>2026-04-20T22:55:31.000Z</time></trkpt>
   <trkpt lat="59.0745692628" lon="30.0297675118"><ele>86.429</ele><time>2026-04-20T22:56:00.000Z</time></trkpt>
   <trkpt lat="59.0745887926" lon="30.0297427014"><ele>87.199</ele><time>2026-04-20T22:56:25.000Z</time></trkpt>
   <trkpt lat="59.0746008625" lon="30.02974706"><ele>86.859</ele><time>2026-04-20T22:56:46.000Z</time></trkpt>
   <trkpt lat="59.0747001043" lon="30.0296801724"><ele>84.889</ele><time>2026-04-20T22:57:05.000Z</time></trkpt>
   <trkpt lat="59.07475861" lon="30.0297302962"><ele>81.709</ele><time>2026-04-20T22:57:20.000Z</time></trkpt>
   <trkpt lat="59.0748352206" lon="30.0297228363"><ele>79.649</ele><time>2026-04-20T22:57:35.000Z</time></trkpt>
   <trkpt lat="59.0749066344" lon="30.0296701979"><ele>79.099</ele><time>2026-04-20T22:57:48.000Z</time></trkpt>
   <trkpt lat="59.0749664812" lon="30.0296153803"><ele>76.589</ele><time>2026-04-20T22:58:03.000Z</time></trkpt>
   <trkpt lat="59.0749723485" lon="30.0296123628"><ele>76.509</ele><time>2026-04-20T22:58:04.000Z</time></trkpt>
   <trkpt lat="59.0750223884" lon="30.029550672"><ele>76.979</ele><time>2026-04-20T22:58:14.000Z</time></trkpt>
   <trkpt lat="59.0750575924" lon="30.0294859637"><ele>78.739</ele><time>2026-04-20T22:58:31.000Z</time></trkpt>
   <trkpt lat="59.0750783796" lon="30.0294146337"><ele>77.309</ele><time>2026-04-20T22:58:45.000Z</time></trkpt>
   <trkpt lat="59.0751142541" lon="30.0293656834"><ele>76.929</ele><time>2026-04-20T22:58:59.000Z</time></trkpt>
   <trkpt lat="59.0751642941" lon="30.0292575568"><ele>76.499</ele><time>2026-04-20T22:59:13.000Z</time></trkpt>
   <trkpt lat="59.0752225483" lon="30.029178264"><ele>74.609</ele><time>2026-04-20T22:59:29.000Z</time></trkpt>
   <trkpt lat="59.0752649607" lon="30.0290807825"><ele>73.669</ele><time>2026-04-20T22:59:47.000Z</time></trkpt>
   <trkpt lat="59.0753184373" lon="30.0290432316"><ele>75.149</ele><time>2026-04-20T23:00:01.000Z</time></trkpt>
   <trkpt lat="59.0753567426" lon="30.0290387054"><ele>76.199</ele><time>2026-04-20T23:00:13.000Z</time></trkpt>
   <trkpt lat="59.0753943773" lon="30.0290491827"><ele>76.609</ele><time>2026-04-20T23:00:28.000Z</time></trkpt>
   <trkpt lat="59.075445926" lon="30.0290093687"><ele>76.199</ele><time>2026-04-20T23:00:43.000Z</time></trkpt>
   <trkpt lat="59.0754974747" lon="30.0289450795"><ele>77.399</ele><time>2026-04-20T23:00:57.000Z</time></trkpt>
   <trkpt lat="59.0755299127" lon="30.0288462569"><ele>76.789</ele><time>2026-04-20T23:01:11.000Z</time></trkpt>
   <trkpt lat="59.0755847303" lon="30.0288152438"><ele>75.739</ele><time>2026-04-20T23:01:27.000Z</time></trkpt>
   <trkpt lat="59.0756036734" lon="30.0288113881"><ele>79.139</ele><time>2026-04-20T23:01:50.000Z</time></trkpt>
   <trkpt lat="59.0756232871" lon="30.0287939538"><ele>78.699</ele><time>2026-04-20T23:02:09.000Z</time></trkpt>
   <trkpt lat="59.075684475" lon="30.0286505394"><ele>77.609</ele><time>2026-04-20T23:02:25.000Z</time></trkpt>
   <trkpt lat="59.0757228641" lon="30.0286240526"><ele>77.259</ele><time>2026-04-20T23:02:39.000Z</time></trkpt>
   <trkpt lat="59.0757642707" lon="30.0285166804"><ele>76.929</ele><time>2026-04-20T23:02:51.000Z</time></trkpt>
   <trkpt lat="59.075815987" lon="30.0284502958"><ele>77.109</ele><time>2026-04-20T23:03:05.000Z</time></trkpt>
   <trkpt lat="59.0758779293" lon="30.0283990823"><ele>75.739</ele><time>2026-04-20T23:03:20.000Z</time></trkpt>
   <trkpt lat="59.0759286398" lon="30.0283804745"><ele>72.889</ele><time>2026-04-20T23:03:35.000Z</time></trkpt>
   <trkpt lat="59.0759967009" lon="30.0283109047"><ele>72.129</ele><time>2026-04-20T23:03:52.000Z</time></trkpt>
   <trkpt lat="59.0760720542" lon="30.0282290135"><ele>72.929</ele><time>2026-04-20T23:04:11.000Z</time></trkpt>
   <trkpt lat="59.0761391094" lon="30.0282057118"><ele>73.529</ele><time>2026-04-20T23:04:25.000Z</time></trkpt>
   <trkpt lat="59.0761827791" lon="30.0281334598"><ele>73.189</ele><time>2026-04-20T23:04:42.000Z</time></trkpt>
   <trkpt lat="59.076213876" lon="30.0279815797"><ele>73.749</ele><time>2026-04-20T23:05:06.000Z</time></trkpt>
   <trkpt lat="59.0762568751" lon="30.0279042148"><ele>74.269</ele><time>2026-04-20T23:05:24.000Z</time></trkpt>
   <trkpt lat="59.0763007963" lon="30.027920308"><ele>75.039</ele><time>2026-04-20T23:05:43.000Z</time></trkpt>
   <trkpt lat="59.0763390178" lon="30.0280128442"><ele>74.799</ele><time>2026-04-20T23:06:00.000Z</time></trkpt>
   <trkpt lat="59.0763645826" lon="30.027985603"><ele>74.119</ele><time>2026-04-20T23:06:14.000Z</time></trkpt>
   <trkpt lat="59.0764502457" lon="30.0279544224"><ele>73.249</ele><time>2026-04-20T23:06:29.000Z</time></trkpt>
   <trkpt lat="59.076515373" lon="30.0280296919"><ele>72.039</ele><time>2026-04-20T23:06:48.000Z</time></trkpt>
   <trkpt lat="59.076581171" lon="30.028029608"><ele>72.929</ele><time>2026-04-20T23:07:07.000Z</time></trkpt>
   <trkpt lat="59.0766784849" lon="30.028087527"><ele>73.289</ele><time>2026-04-20T23:07:25.000Z</time></trkpt>
   <trkpt lat="59.0766991882" lon="30.0282262475"><ele>71.949</ele><time>2026-04-20T23:07:42.000Z</time></trkpt>
   <trkpt lat="59.0767170416" lon="30.0282352999"><ele>71.809</ele><time>2026-04-20T23:07:59.000Z</time></trkpt>
   <trkpt lat="59.076680748" lon="30.0282983318"><ele>73.779</ele><time>2026-04-20T23:08:22.000Z</time></trkpt>
   <trkpt lat="59.0767051393" lon="30.0284567498"><ele>72.759</ele><time>2026-04-20T23:08:38.000Z</time></trkpt>
   <trkpt lat="59.0767895451" lon="30.0286083784"><ele>70.849</ele><time>2026-04-20T23:08:52.000Z</time></trkpt>
   <trkpt lat="59.076777559" lon="30.0287755136"><ele>69.409</ele><time>2026-04-20T23:09:07.000Z</time></trkpt>
   <trkpt lat="59.0767467136" lon="30.0288917706"><ele>68.419</ele><time>2026-04-20T23:09:22.000Z</time></trkpt>
   <trkpt lat="59.0767602084" lon="30.0289193471"><ele>73.299</ele><time>2026-04-20T23:09:48.000Z</time></trkpt>
   <trkpt lat="59.0767655729" lon="30.0289807864"><ele>73.279</ele><time>2026-04-20T23:10:05.000Z</time></trkpt>
   <trkpt lat="59.0768194685" lon="30.0289978017"><ele>73.129</ele><time>2026-04-20T23:10:31.000Z</time></trkpt>
   <trkpt lat="59.0768571032" lon="30.0289449119"><ele>74.849</ele><time>2026-04-20T23:10:50.000Z</time></trkpt>
   <trkpt lat="59.0768633058" lon="30.0289132283"><ele>76.039</ele><time>2026-04-20T23:11:03.000Z</time></trkpt>
   <trkpt lat="59.0769070594" lon="30.0287920259"><ele>76.159</ele><time>2026-04-20T23:11:18.000Z</time></trkpt>
   <trkpt lat="59.0769518187" lon="30.0287613482"><ele>76.379</ele><time>2026-04-20T23:11:39.000Z</time></trkpt>
   <trkpt lat="59.0770169461" lon="30.0286574126"><ele>76.599</ele><time>2026-04-20T23:11:55.000Z</time></trkpt>
   <trkpt lat="59.0771037826" lon="30.0285311811"><ele>76.619</ele><time>2026-04-20T23:12:11.000Z</time></trkpt>
   <trkpt lat="59.0771876855" lon="30.0283260759"><ele>76.489</ele><time>2026-04-20T23:12:30.000Z</time></trkpt>
   <trkpt lat="59.0772536511" lon="30.0281845894"><ele>76.929</ele><time>2026-04-20T23:12:49.000Z</time></trkpt>
   <trkpt lat="59.0772995001" lon="30.0280664884"><ele>77.489</ele><time>2026-04-20T23:13:04.000Z</time></trkpt>
   <trkpt lat="59.0773965625" lon="30.0278835953"><ele>78.099</ele><time>2026-04-20T23:13:26.000Z</time></trkpt>
   <trkpt lat="59.0773663039" lon="30.0278270174"><ele>77.319</ele><time>2026-04-20T23:13:42.000Z</time></trkpt>
   <trkpt lat="59.0773397332" lon="30.0277501554"><ele>77.139</ele><time>2026-04-20T23:14:00.000Z</time></trkpt>
   <trkpt lat="59.0773189461" lon="30.0277016242"><ele>77.069</ele><time>2026-04-20T23:14:13.000Z</time></trkpt>
   <trkpt lat="59.0773075467" lon="30.0278140255"><ele>75.779</ele><time>2026-04-20T23:14:37.000Z</time></trkpt>
   <trkpt lat="59.0773077982" lon="30.0278253411"><ele>76.969</ele><time>2026-04-20T23:14:58.000Z</time></trkpt>
   <trkpt lat="59.0773320219" lon="30.0278151989"><ele>79.449</ele><time>2026-04-20T23:15:29.000Z</time></trkpt>
   <trkpt lat="59.0773176888" lon="30.0278333039"><ele>79.999</ele><time>2026-04-20T23:16:00.000Z</time></trkpt>
   <trkpt lat="59.0773068762" lon="30.027851325"><ele>79.089</ele><time>2026-04-20T23:16:34.000Z</time></trkpt>
   <trkpt lat="59.0773206225" lon="30.0278688431"><ele>79.119</ele><time>2026-04-20T23:17:05.000Z</time></trkpt>
   <trkpt lat="59.0773251487" lon="30.0278597907"><ele>79.089</ele><time>2026-04-20T23:17:29.000Z</time></trkpt>
   <trkpt lat="59.077357419" lon="30.0278300349"><ele>78.909</ele><time>2026-04-20T23:17:56.000Z</time></trkpt>
   <trkpt lat="59.077354653" lon="30.027826766"><ele>79.529</ele><time>2026-04-20T23:18:20.000Z</time></trkpt>
   <trkpt lat="59.0773510488" lon="30.027840177"><ele>79.999</ele><time>2026-04-20T23:18:47.000Z</time></trkpt>
   <trkpt lat="59.0773439242" lon="30.0278301187"><ele>80.699</ele><time>2026-04-20T23:19:06.000Z</time></trkpt>
   <trkpt lat="59.0773077144" lon="30.027869849"><ele>79.779</ele><time>2026-04-20T23:19:38.000Z</time></trkpt>
   <trkpt lat="59.0772917049" lon="30.0279046339"><ele>80.729</ele><time>2026-04-20T23:20:02.000Z</time></trkpt>
   <trkpt lat="59.0772741867" lon="30.0279101659"><ele>80.269</ele><time>2026-04-20T23:20:28.000Z</time></trkpt>
   <trkpt lat="59.0772533996" lon="30.0278884568"><ele>79.579</ele><time>2026-04-20T23:20:46.000Z</time></trkpt>
   <trkpt lat="59.0772475323" lon="30.0278775603"><ele>79.659</ele><time>2026-04-20T23:21:10.000Z</time></trkpt>
   <trkpt lat="59.0772623683" lon="30.0278218207"><ele>81.029</ele><time>2026-04-20T23:21:38.000Z</time></trkpt>
   <trkpt lat="59.0772733485" lon="30.0277312123"><ele>81.609</ele><time>2026-04-20T23:22:06.000Z</time></trkpt>
   <trkpt lat="59.0772576744" lon="30.0276930746"><ele>83.349</ele><time>2026-04-20T23:22:40.000Z</time></trkpt>
   <trkpt lat="59.0772652181" lon="30.0276825972"><ele>84.529</ele><time>2026-04-20T23:23:16.000Z</time></trkpt>
   <trkpt lat="59.077278713" lon="30.0276737962"><ele>85.289</ele><time>2026-04-20T23:23:54.000Z</time></trkpt>
   <trkpt lat="59.0772923755" lon="30.0276152067"><ele>86.679</ele><time>2026-04-20T23:24:23.000Z</time></trkpt>
   <trkpt lat="59.0772890227" lon="30.0276318867"><ele>88.339</ele><time>2026-04-20T23:24:48.000Z</time></trkpt>
   <trkpt lat="59.0772873463" lon="30.0276517518"><ele>88.309</ele><time>2026-04-20T23:25:08.000Z</time></trkpt>
   <trkpt lat="59.0772960635" lon="30.0276703597"><ele>87.989</ele><time>2026-04-20T23:25:41.000Z</time></trkpt>
   <trkpt lat="59.0772741029" lon="30.0276529253"><ele>88.559</ele><time>2026-04-20T23:26:18.000Z</time></trkpt>
   <trkpt lat="59.0772857538" lon="30.0277302064"><ele>86.869</ele><time>2026-04-20T23:26:45.000Z</time></trkpt>
   <trkpt lat="59.0773326086" lon="30.0277623091"><ele>84.939</ele><time>2026-04-20T23:27:13.000Z</time></trkpt>
   <trkpt lat="59.0773822295" lon="30.0277649913"><ele>84.589</ele><time>2026-04-20T23:27:34.000Z</time></trkpt>
   <trkpt lat="59.0773974007" lon="30.0277711101"><ele>84.139</ele><time>2026-04-20T23:27:55.000Z</time></trkpt>
   <trkpt lat="59.0773741828" lon="30.0278006983"><ele>84.569</ele><time>2026-04-20T23:28:31.000Z</time></trkpt>
   <trkpt lat="59.0773809722" lon="30.0278279394"><ele>86.419</ele><time>2026-04-20T23:29:02.000Z</time></trkpt>
   <trkpt lat="59.0773717521" lon="30.0278278556"><ele>85.979</ele><time>2026-04-20T23:29:34.000Z</time></trkpt>
   <trkpt lat="59.0774260668" lon="30.0278301187"><ele>84.469</ele><time>2026-04-20T23:29:54.000Z</time></trkpt>
   <trkpt lat="59.0775064493" lon="30.0278183841"><ele>83.569</ele><time>2026-04-20T23:30:12.000Z</time></trkpt>
   <trkpt lat="59.0776002428" lon="30.0278280233"><ele>79.999</ele><time>2026-04-20T23:30:29.000Z</time></trkpt>
   <trkpt lat="59.0776789488" lon="30.0277732894"><ele>77.169</ele><time>2026-04-20T23:30:43.000Z</time></trkpt>
   <trkpt lat="59.0777457526" lon="30.0278248381"><ele>74.859</ele><time>2026-04-20T23:30:58.000Z</time></trkpt>
   <trkpt lat="59.0777999835" lon="30.0279252533"><ele>75.179</ele><time>2026-04-20T23:31:18.000Z</time></trkpt>
   <trkpt lat="59.0778174179" lon="30.0279668276"><ele>74.919</ele><time>2026-04-20T23:31:21.000Z</time></trkpt>
   <trkpt lat="59.0778554717" lon="30.0280089885"><ele>75.389</ele><time>2026-04-20T23:31:39.000Z</time></trkpt>
   <trkpt lat="59.0779428112" lon="30.0280576036"><ele>75.289</ele><time>2026-04-20T23:31:57.000Z</time></trkpt>
   <trkpt lat="59.0780190027" lon="30.0280960765"><ele>75.789</ele><time>2026-04-20T23:32:17.000Z</time></trkpt>
   <trkpt lat="59.078078598" lon="30.0281252455"><ele>74.359</ele><time>2026-04-20T23:32:31.000Z</time></trkpt>
   <trkpt lat="59.078097122" lon="30.0281426799"><ele>75.229</ele><time>2026-04-20T23:32:52.000Z</time></trkpt>
   <trkpt lat="59.0781723077" lon="30.0282150995"><ele>73.559</ele><time>2026-04-20T23:33:08.000Z</time></trkpt>
   <trkpt lat="59.0781951064" lon="30.0281562586"><ele>73.499</ele><time>2026-04-20T23:33:20.000Z</time></trkpt>
   <trkpt lat="59.0782182405" lon="30.0281266705"><ele>74.399</ele><time>2026-04-20T23:33:41.000Z</time></trkpt>
   <trkpt lat="59.0782775005" lon="30.0280333799"><ele>74.259</ele><time>2026-04-20T23:33:55.000Z</time></trkpt>
   <trkpt lat="59.0783246068" lon="30.0280010257"><ele>73.549</ele><time>2026-04-20T23:34:09.000Z</time></trkpt>
   <trkpt lat="59.0783865491" lon="30.0279301148"><ele>72.729</ele><time>2026-04-20T23:34:29.000Z</time></trkpt>
   <trkpt lat="59.0784504192" lon="30.0278710224"><ele>73.269</ele><time>2026-04-20T23:34:43.000Z</time></trkpt>
   <trkpt lat="59.0784873834" lon="30.0278733694"><ele>74.009</ele><time>2026-04-20T23:34:56.000Z</time></trkpt>
   <trkpt lat="59.0785174744" lon="30.0278067332"><ele>74.339</ele><time>2026-04-20T23:35:14.000Z</time></trkpt>
   <trkpt lat="59.0785785785" lon="30.0277738762"><ele>74.939</ele><time>2026-04-20T23:35:36.000Z</time></trkpt>
   <trkpt lat="59.0785822665" lon="30.0277882092"><ele>74.899</ele><time>2026-04-20T23:35:39.000Z</time></trkpt>
   <trkpt lat="59.078640856" lon="30.0276726228"><ele>73.189</ele><time>2026-04-20T23:35:53.000Z</time></trkpt>
   <trkpt lat="59.0786856154" lon="30.0277172145"><ele>73.699</ele><time>2026-04-20T23:36:08.000Z</time></trkpt>
   <trkpt lat="59.0787824264" lon="30.0277320505"><ele>74.119</ele><time>2026-04-20T23:36:24.000Z</time></trkpt>
   <trkpt lat="59.0788351486" lon="30.0277255964"><ele>73.549</ele><time>2026-04-20T23:36:35.000Z</time></trkpt>
   <trkpt lat="59.0789142737" lon="30.0276839383"><ele>73.399</ele><time>2026-04-20T23:36:51.000Z</time></trkpt>
   <trkpt lat="59.0789361505" lon="30.0276672584"><ele>74.829</ele><time>2026-04-20T23:37:07.000Z</time></trkpt>
   <trkpt lat="59.0789560994" lon="30.027629456"><ele>75.429</ele><time>2026-04-20T23:37:38.000Z</time></trkpt>
   <trkpt lat="59.0789576082" lon="30.0276488182"><ele>75.829</ele><time>2026-04-20T23:38:16.000Z</time></trkpt>
   <trkpt lat="59.0790117553" lon="30.0276561104"><ele>76.769</ele><time>2026-04-20T23:38:49.000Z</time></trkpt>
   <trkpt lat="59.0790011102" lon="30.0276266061"><ele>77.529</ele><time>2026-04-20T23:39:31.000Z</time></trkpt>
   <trkpt lat="59.0789913872" lon="30.0276075792"><ele>77.809</ele><time>2026-04-20T23:40:11.000Z</time></trkpt>
   <trkpt lat="59.0790049659" lon="30.0275162165"><ele>77.499</ele><time>2026-04-20T23:40:30.000Z</time></trkpt>
   <trkpt lat="59.0790403376" lon="30.027353859"><ele>77.279</ele><time>2026-04-20T23:40:47.000Z</time></trkpt>
   <trkpt lat="59.0790314527" lon="30.0272046611"><ele>76.739</ele><time>2026-04-20T23:41:00.000Z</time></trkpt>
   <trkpt lat="59.0790354761" lon="30.0270935171"><ele>77.279</ele><time>2026-04-20T23:41:14.000Z</time></trkpt>
   <trkpt lat="59.0790443609" lon="30.0269561377"><ele>76.699</ele><time>2026-04-20T23:41:29.000Z</time></trkpt>
   <trkpt lat="59.0790758768" lon="30.0267593306"><ele>75.269</ele><time>2026-04-20T23:41:44.000Z</time></trkpt>
   <trkpt lat="59.0791120028" lon="30.0266227056"><ele>74.809</ele><time>2026-04-20T23:42:02.000Z</time></trkpt>
   <trkpt lat="59.079124911" lon="30.0265038502"><ele>75.059</ele><time>2026-04-20T23:42:25.000Z</time></trkpt>
   <trkpt lat="59.0791521521" lon="30.0263657164"><ele>73.139</ele><time>2026-04-20T23:42:40.000Z</time></trkpt>
   <trkpt lat="59.079132287" lon="30.0261492957"><ele>70.769</ele><time>2026-04-20T23:42:55.000Z</time></trkpt>
   <trkpt lat="59.0791155232" lon="30.0259539135"><ele>70.289</ele><time>2026-04-20T23:43:11.000Z</time></trkpt>
   <trkpt lat="59.079067914" lon="30.025789293"><ele>69.819</ele><time>2026-04-20T23:43:28.000Z</time></trkpt>
   <trkpt lat="59.0790410919" lon="30.0258193002"><ele>74.099</ele><time>2026-04-20T23:44:03.000Z</time></trkpt>
   <trkpt lat="59.079126755" lon="30.0259249121"><ele>74.159</ele><time>2026-04-20T23:44:24.000Z</time></trkpt>
   <trkpt lat="59.0791435188" lon="30.0258853496"><ele>74.969</ele><time>2026-04-20T23:44:58.000Z</time></trkpt>
   <trkpt lat="59.0791221449" lon="30.0258314539"><ele>74.169</ele><time>2026-04-20T23:45:28.000Z</time></trkpt>
   <trkpt lat="59.0791711791" lon="30.0259068072"><ele>73.739</ele><time>2026-04-20T23:45:59.000Z</time></trkpt>
   <trkpt lat="59.0792194588" lon="30.0259025325"><ele>74.219</ele><time>2026-04-20T23:46:25.000Z</time></trkpt>
   <trkpt lat="59.0792032818" lon="30.0256596249"><ele>75.019</ele><time>2026-04-20T23:46:44.000Z</time></trkpt>
   <trkpt lat="59.0791231508" lon="30.0256441184"><ele>74.089</ele><time>2026-04-20T23:46:58.000Z</time></trkpt>
   <trkpt lat="59.079036901" lon="30.0256350659"><ele>73.449</ele><time>2026-04-20T23:47:14.000Z</time></trkpt>
   <trkpt lat="59.0789819157" lon="30.0256219063"><ele>72.979</ele><time>2026-04-20T23:47:26.000Z</time></trkpt>
   <trkpt lat="59.0789392518" lon="30.0255665858"><ele>72.539</ele><time>2026-04-20T23:47:40.000Z</time></trkpt>
   <trkpt lat="59.0789103342" lon="30.0254301284"><ele>74.839</ele><time>2026-04-20T23:47:59.000Z</time></trkpt>
   <trkpt lat="59.0788906368" lon="30.025382603"><ele>76.419</ele><time>2026-04-20T23:48:15.000Z</time></trkpt>
   <trkpt lat="59.0788844342" lon="30.0252901506"><ele>77.389</ele><time>2026-04-20T23:48:33.000Z</time></trkpt>
   <trkpt lat="59.0788903853" lon="30.0252425414"><ele>78.699</ele><time>2026-04-20T23:48:49.000Z</time></trkpt>
   <trkpt lat="59.0789079873" lon="30.0252028112"><ele>79.459</ele><time>2026-04-20T23:49:03.000Z</time></trkpt>
   <trkpt lat="59.0789089093" lon="30.025141288"><ele>79.179</ele><time>2026-04-20T23:49:20.000Z</time></trkpt>
   <trkpt lat="59.0788882898" lon="30.0250287191"><ele>80.329</ele><time>2026-04-20T23:49:35.000Z</time></trkpt>
   <trkpt lat="59.0789078197" lon="30.024929142"><ele>81.439</ele><time>2026-04-20T23:49:50.000Z</time></trkpt>
   <trkpt lat="59.078900695" lon="30.0249063433"><ele>82.359</ele><time>2026-04-20T23:50:02.000Z</time></trkpt>
   <trkpt lat="59.0788990187" lon="30.0248259608"><ele>81.299</ele><time>2026-04-20T23:50:21.000Z</time></trkpt>
   <trkpt lat="59.078878483" lon="30.0247333408"><ele>81.069</ele><time>2026-04-20T23:50:35.000Z</time></trkpt>
   <trkpt lat="59.0788422732" lon="30.0246606697"><ele>80.339</ele><time>2026-04-20T23:50:53.000Z</time></trkpt>
   <trkpt lat="59.078875717" lon="30.0245861546"><ele>79.949</ele><time>2026-04-20T23:51:11.000Z</time></trkpt>
   <trkpt lat="59.0789350609" lon="30.0245025032"><ele>80.029</ele><time>2026-04-20T23:51:31.000Z</time></trkpt>
   <trkpt lat="59.0789671635" lon="30.0244260602"><ele>79.979</ele><time>2026-04-20T23:51:47.000Z</time></trkpt>
   <trkpt lat="59.0788991025" lon="30.0241663889"><ele>93.419</ele><time>2026-04-20T23:55:25.000Z</time></trkpt>
   <trkpt lat="59.0788883737" lon="30.024221458"><ele>90.129</ele><time>2026-04-20T23:55:42.000Z</time></trkpt>
   <trkpt lat="59.0789244997" lon="30.0243329373"><ele>82.299</ele><time>2026-04-20T23:56:06.000Z</time></trkpt>
   <trkpt lat="59.0789120106" lon="30.0242777005"><ele>80.689</ele><time>2026-04-20T23:56:31.000Z</time></trkpt>
   <trkpt lat="59.078801621" lon="30.0242472742"><ele>80.929</ele><time>2026-04-20T23:56:51.000Z</time></trkpt>
   <trkpt lat="59.0787577836" lon="30.0243087136"><ele>81.089</ele><time>2026-04-20T23:56:57.000Z</time></trkpt>
   <trkpt lat="59.0787004514" lon="30.0244509545"><ele>80.819</ele><time>2026-04-20T23:57:09.000Z</time></trkpt>
   <trkpt lat="59.0786259363" lon="30.0243833125"><ele>81.099</ele><time>2026-04-20T23:57:29.000Z</time></trkpt>
   <trkpt lat="59.0785648322" lon="30.0244453386"><ele>83.649</ele><time>2026-04-20T23:57:50.000Z</time></trkpt>
   <trkpt lat="59.078476906" lon="30.0244833924"><ele>85.279</ele><time>2026-04-20T23:58:12.000Z</time></trkpt>
   <trkpt lat="59.0783739763" lon="30.0244813808"><ele>87.199</ele><time>2026-04-20T23:58:30.000Z</time></trkpt>
   <trkpt lat="59.0782904087" lon="30.0245661218"><ele>87.289</ele><time>2026-04-20T23:58:47.000Z</time></trkpt>
   <trkpt lat="59.0781962799" lon="30.0246613402"><ele>87.559</ele><time>2026-04-20T23:59:06.000Z</time></trkpt>
   <trkpt lat="59.0781831203" lon="30.0247094524"><ele>89.359</ele><time>2026-04-20T23:59:24.000Z</time></trkpt>
   <trkpt lat="59.0781807734" lon="30.0247655273"><ele>90.289</ele><time>2026-04-20T23:59:54.000Z</time></trkpt>
   <trkpt lat="59.0780827051" lon="30.0246993941"><ele>89.929</ele><time>2026-04-21T00:00:10.000Z</time></trkpt>
   <trkpt lat="59.0780044181" lon="30.0247819558"><ele>88.819</ele><time>2026-04-21T00:00:26.000Z</time></trkpt>
   <trkpt lat="59.0779055117" lon="30.02485228"><ele>84.919</ele><time>2026-04-21T00:00:42.000Z</time></trkpt>
   <trkpt lat="59.0778258836" lon="30.0248825387"><ele>83.339</ele><time>2026-04-21T00:01:01.000Z</time></trkpt>
   <trkpt lat="59.0777594151" lon="30.0249091931"><ele>83.909</ele><time>2026-04-21T00:01:20.000Z</time></trkpt>
   <trkpt lat="59.0776944554" lon="30.0248718936"><ele>84.099</ele><time>2026-04-21T00:01:40.000Z</time></trkpt>
   <trkpt lat="59.0776930304" lon="30.0248884898"><ele>86.229</ele><time>2026-04-21T00:02:04.000Z</time></trkpt>
   <trkpt lat="59.0776690582" lon="30.0248672836"><ele>87.059</ele><time>2026-04-21T00:02:29.000Z</time></trkpt>
   <trkpt lat="59.0775781984" lon="30.0248409644"><ele>87.419</ele><time>2026-04-21T00:02:44.000Z</time></trkpt>
   <trkpt lat="59.0775372109" lon="30.0246843067"><ele>88.289</ele><time>2026-04-21T00:02:58.000Z</time></trkpt>
   <trkpt lat="59.0774388911" lon="30.0246140663"><ele>88.759</ele><time>2026-04-21T00:03:14.000Z</time></trkpt>
   <trkpt lat="59.077362532" lon="30.0246300757"><ele>88.119</ele><time>2026-04-21T00:03:28.000Z</time></trkpt>
   <trkpt lat="59.0772773719" lon="30.0246960413"><ele>88.409</ele><time>2026-04-21T00:03:43.000Z</time></trkpt>
   <trkpt lat="59.0772370549" lon="30.0247228634"><ele>88.619</ele><time>2026-04-21T00:04:00.000Z</time></trkpt>
   <trkpt lat="59.0771958998" lon="30.024749434"><ele>87.329</ele><time>2026-04-21T00:04:17.000Z</time></trkpt>
   <trkpt lat="59.0771425909" lon="30.0247664493"><ele>85.009</ele><time>2026-04-21T00:04:30.000Z</time></trkpt>
   <trkpt lat="59.0770741945" lon="30.0247226958"><ele>84.759</ele><time>2026-04-21T00:04:47.000Z</time></trkpt>
   <trkpt lat="59.0769964105" lon="30.024786985"><ele>83.949</ele><time>2026-04-21T00:05:10.000Z</time></trkpt>
   <trkpt lat="59.0769159442" lon="30.0246296566"><ele>83.029</ele><time>2026-04-21T00:05:28.000Z</time></trkpt>
   <trkpt lat="59.07684562" lon="30.0245513697"><ele>84.239</ele><time>2026-04-21T00:05:46.000Z</time></trkpt>
   <trkpt lat="59.0767641479" lon="30.0245204404"><ele>84.099</ele><time>2026-04-21T00:05:59.000Z</time></trkpt>
   <trkpt lat="59.076686783" lon="30.0244198576"><ele>83.829</ele><time>2026-04-21T00:06:19.000Z</time></trkpt>
   <trkpt lat="59.0766625593" lon="30.0244065304"><ele>87.039</ele><time>2026-04-21T00:06:42.000Z</time></trkpt>
   <trkpt lat="59.0766571948" lon="30.0244216178"><ele>91.909</ele><time>2026-04-21T00:07:06.000Z</time></trkpt>
   <trkpt lat="59.0766149501" lon="30.0244025071"><ele>92.819</ele><time>2026-04-21T00:07:20.000Z</time></trkpt>
   <trkpt lat="59.0765807519" lon="30.0243582506"><ele>94.949</ele><time>2026-04-21T00:07:48.000Z</time></trkpt>
   <trkpt lat="59.0765929056" lon="30.0243752659"><ele>95.949</ele><time>2026-04-21T00:08:13.000Z</time></trkpt>
   <trkpt lat="59.0766193925" lon="30.024358083"><ele>92.749</ele><time>2026-04-21T00:08:44.000Z</time></trkpt>
   <trkpt lat="59.0766425265" lon="30.02438633"><ele>88.759</ele><time>2026-04-21T00:09:07.000Z</time></trkpt>
   <trkpt lat="59.0766566081" lon="30.0244244677"><ele>87.189</ele><time>2026-04-21T00:09:33.000Z</time></trkpt>
   <trkpt lat="59.0765922351" lon="30.0243924488"><ele>86.519</ele><time>2026-04-21T00:09:56.000Z</time></trkpt>
   <trkpt lat="59.076552002" lon="30.024437292"><ele>85.859</ele><time>2026-04-21T00:10:09.000Z</time></trkpt>
   <trkpt lat="59.076511685" lon="30.0244416506"><ele>88.309</ele><time>2026-04-21T00:10:27.000Z</time></trkpt>
   <trkpt lat="59.0764152931" lon="30.0244364538"><ele>88.339</ele><time>2026-04-21T00:10:43.000Z</time></trkpt>
   <trkpt lat="59.0763014669" lon="30.0243873358"><ele>87.049</ele><time>2026-04-21T00:11:00.000Z</time></trkpt>
   <trkpt lat="59.0762181508" lon="30.0244519603"><ele>87.689</ele><time>2026-04-21T00:11:14.000Z</time></trkpt>
   <trkpt lat="59.0760977866" lon="30.0244704843"><ele>87.749</ele><time>2026-04-21T00:11:30.000Z</time></trkpt>
   <trkpt lat="59.0760460703" lon="30.0246059359"><ele>86.749</ele><time>2026-04-21T00:11:44.000Z</time></trkpt>
   <trkpt lat="59.0759745727" lon="30.0246255495"><ele>84.959</ele><time>2026-04-21T00:11:58.000Z</time></trkpt>
   <trkpt lat="59.0758962019" lon="30.0246503599"><ele>84.349</ele><time>2026-04-21T00:12:12.000Z</time></trkpt>
   <trkpt lat="59.0758889096" lon="30.0246710632"><ele>84.209</ele><time>2026-04-21T00:12:28.000Z</time></trkpt>
   <trkpt lat="59.0758446532" lon="30.0246949517"><ele>85.759</ele><time>2026-04-21T00:12:48.000Z</time></trkpt>
   <trkpt lat="59.0757638516" lon="30.0247939419"><ele>85.549</ele><time>2026-04-21T00:13:01.000Z</time></trkpt>
   <trkpt lat="59.0757174997" lon="30.0247656949"><ele>84.779</ele><time>2026-04-21T00:13:11.000Z</time></trkpt>
   <trkpt lat="59.0756239576" lon="30.0247273058"><ele>83.919</ele><time>2026-04-21T00:13:23.000Z</time></trkpt>
   <trkpt lat="59.0755236263" lon="30.0247080274"><ele>84.179</ele><time>2026-04-21T00:13:37.000Z</time></trkpt>
   <trkpt lat="59.0754676351" lon="30.0246956222"><ele>84.729</ele><time>2026-04-21T00:13:50.000Z</time></trkpt>
   <trkpt lat="59.0754608458" lon="30.0246972986"><ele>84.829</ele><time>2026-04-21T00:13:51.000Z</time></trkpt>
   <trkpt lat="59.0753833132" lon="30.0246993103"><ele>84.219</ele><time>2026-04-21T00:14:04.000Z</time></trkpt>
   <trkpt lat="59.0753011705" lon="30.0248294812"><ele>83.749</ele><time>2026-04-21T00:14:20.000Z</time></trkpt>
   <trkpt lat="59.0752236379" lon="30.0248376117"><ele>84.079</ele><time>2026-04-21T00:14:33.000Z</time></trkpt>
   <trkpt lat="59.0751861708" lon="30.0248317443"><ele>83.779</ele><time>2026-04-21T00:14:46.000Z</time></trkpt>
   <trkpt lat="59.0751749391" lon="30.0250029866"><ele>83.589</ele><time>2026-04-21T00:14:59.000Z</time></trkpt>
   <trkpt lat="59.0751772022" lon="30.0250385259"><ele>83.489</ele><time>2026-04-21T00:15:01.000Z</time></trkpt>
   <trkpt lat="59.075162031" lon="30.0252808467"><ele>79.709</ele><time>2026-04-21T00:15:18.000Z</time></trkpt>
   <trkpt lat="59.0751333648" lon="30.0253960141"><ele>77.229</ele><time>2026-04-21T00:15:34.000Z</time></trkpt>
   <trkpt lat="59.0751425849" lon="30.0254206568"><ele>77.809</ele><time>2026-04-21T00:15:51.000Z</time></trkpt>
   <trkpt lat="59.0751457701" lon="30.0254072458"><ele>78.889</ele><time>2026-04-21T00:16:15.000Z</time></trkpt>
   <trkpt lat="59.0751407409" lon="30.0254112691"><ele>80.529</ele><time>2026-04-21T00:16:42.000Z</time></trkpt>
   <trkpt lat="59.0751651323" lon="30.0254130293"><ele>81.079</ele><time>2026-04-21T00:17:08.000Z</time></trkpt>
   <trkpt lat="59.0751611089" lon="30.0254130293"><ele>83.849</ele><time>2026-04-21T00:17:34.000Z</time></trkpt>
   <trkpt lat="59.0750675669" lon="30.025357122"><ele>85.639</ele><time>2026-04-21T00:18:04.000Z</time></trkpt>
   <trkpt lat="59.075102268" lon="30.0253874645"><ele>87.899</ele><time>2026-04-21T00:18:28.000Z</time></trkpt>
   <trkpt lat="59.0751316046" lon="30.0253769033"><ele>88.709</ele><time>2026-04-21T00:18:54.000Z</time></trkpt>
   <trkpt lat="59.075123558" lon="30.0254016299"><ele>86.529</ele><time>2026-04-21T00:19:22.000Z</time></trkpt>
   <trkpt lat="59.0750380626" lon="30.0253596366"><ele>86.879</ele><time>2026-04-21T00:19:35.000Z</time></trkpt>
   <trkpt lat="59.0749795569" lon="30.0253604748"><ele>88.029</ele><time>2026-04-21T00:19:45.000Z</time></trkpt>
   <trkpt lat="59.0749534892" lon="30.0254927412"><ele>87.489</ele><time>2026-04-21T00:19:58.000Z</time></trkpt>
   <trkpt lat="59.0749593565" lon="30.0256234989"><ele>85.509</ele><time>2026-04-21T00:20:11.000Z</time></trkpt>
   <trkpt lat="59.0749684928" lon="30.0257182982"><ele>84.579</ele><time>2026-04-21T00:20:27.000Z</time></trkpt>
   <trkpt lat="59.0749342946" lon="30.0258568511"><ele>85.039</ele><time>2026-04-21T00:20:49.000Z</time></trkpt>
   <trkpt lat="59.0748595281" lon="30.0259498902"><ele>85.319</ele><time>2026-04-21T00:21:05.000Z</time></trkpt>
   <trkpt lat="59.0747784751" lon="30.0260138441"><ele>86.159</ele><time>2026-04-21T00:21:19.000Z</time></trkpt>
   <trkpt lat="59.0747287704" lon="30.0260122516"><ele>84.419</ele><time>2026-04-21T00:21:33.000Z</time></trkpt>
   <trkpt lat="59.0746879505" lon="30.0260113296"><ele>85.639</ele><time>2026-04-21T00:21:45.000Z</time></trkpt>
   <trkpt lat="59.0746685045" lon="30.0261040334"><ele>82.669</ele><time>2026-04-21T00:22:01.000Z</time></trkpt>
   <trkpt lat="59.0746263435" lon="30.0261080567"><ele>82.979</ele><time>2026-04-21T00:22:21.000Z</time></trkpt>
   <trkpt lat="59.0745997729" lon="30.0262348749"><ele>81.719</ele><time>2026-04-21T00:22:33.000Z</time></trkpt>
   <trkpt lat="59.0745658262" lon="30.0262223021"><ele>83.099</ele><time>2026-04-21T00:22:47.000Z</time></trkpt>
   <trkpt lat="59.0744864496" lon="30.0262925424"><ele>82.459</ele><time>2026-04-21T00:23:02.000Z</time></trkpt>
   <trkpt lat="59.0744051451" lon="30.0263688177"><ele>81.579</ele><time>2026-04-21T00:23:17.000Z</time></trkpt>
   <trkpt lat="59.0743283669" lon="30.0263512157"><ele>81.809</ele><time>2026-04-21T00:23:31.000Z</time></trkpt>
   <trkpt lat="59.0742569531" lon="30.0263250642"><ele>81.679</ele><time>2026-04-21T00:23:43.000Z</time></trkpt>
   <trkpt lat="59.0741796719" lon="30.0263934605"><ele>81.739</ele><time>2026-04-21T00:23:57.000Z</time></trkpt>
   <trkpt lat="59.0741289614" lon="30.0264660478"><ele>81.949</ele><time>2026-04-21T00:24:11.000Z</time></trkpt>
   <trkpt lat="59.0740933383" lon="30.0265325163"><ele>82.029</ele><time>2026-04-21T00:24:22.000Z</time></trkpt>
   <trkpt lat="59.0740537757" lon="30.0265526329"><ele>83.249</ele><time>2026-04-21T00:24:37.000Z</time></trkpt>
   <trkpt lat="59.0739878101" lon="30.0266103842"><ele>84.259</ele><time>2026-04-21T00:24:50.000Z</time></trkpt>
   <trkpt lat="59.0739319028" lon="30.0267442432"><ele>84.069</ele><time>2026-04-21T00:25:04.000Z</time></trkpt>
   <trkpt lat="59.0738664402" lon="30.0268303253"><ele>84.829</ele><time>2026-04-21T00:25:17.000Z</time></trkpt>
   <trkpt lat="59.0737841299" lon="30.0267880805"><ele>85.739</ele><time>2026-04-21T00:25:31.000Z</time></trkpt>
   <trkpt lat="59.0737123808" lon="30.0266968854"><ele>85.119</ele><time>2026-04-21T00:25:40.000Z</time></trkpt>
   <trkpt lat="59.0736251252" lon="30.0266310037"><ele>84.619</ele><time>2026-04-21T00:25:53.000Z</time></trkpt>
   <trkpt lat="59.073584473" lon="30.0266239629"><ele>84.339</ele><time>2026-04-21T00:26:01.000Z</time></trkpt>
   <trkpt lat="59.0734865723" lon="30.0266618491"><ele>84.539</ele><time>2026-04-21T00:26:15.000Z</time></trkpt>
   <trkpt lat="59.0733861571" lon="30.0268611707"><ele>85.309</ele><time>2026-04-21T00:26:32.000Z</time></trkpt>
   <trkpt lat="59.0733609276" lon="30.026911546"><ele>85.209</ele><time>2026-04-21T00:26:36.000Z</time></trkpt>
   <trkpt lat="59.0732719956" lon="30.0270968698"><ele>83.949</ele><time>2026-04-21T00:26:52.000Z</time></trkpt>
   <trkpt lat="59.0732118135" lon="30.0272177369"><ele>80.459</ele><time>2026-04-21T00:27:03.000Z</time></trkpt>
   <trkpt lat="59.0731440878" lon="30.0272914138"><ele>79.329</ele><time>2026-04-21T00:27:14.000Z</time></trkpt>
   <trkpt lat="59.0730828161" lon="30.0273574632"><ele>80.489</ele><time>2026-04-21T00:27:23.000Z</time></trkpt>
   <trkpt lat="59.0730528088" lon="30.0275230896"><ele>82.559</ele><time>2026-04-21T00:27:40.000Z</time></trkpt>
   <trkpt lat="59.0730146712" lon="30.0275861215"><ele>84.679</ele><time>2026-04-21T00:28:02.000Z</time></trkpt>
   <trkpt lat="59.0729380606" lon="30.0276482314"><ele>86.029</ele><time>2026-04-21T00:28:11.000Z</time></trkpt>
   <trkpt lat="59.0728679041" lon="30.0276776519"><ele>85.979</ele><time>2026-04-21T00:28:19.000Z</time></trkpt>
   <trkpt lat="59.0726876931" lon="30.0277444557"><ele>84.379</ele><time>2026-04-21T00:28:37.000Z</time></trkpt>
   <trkpt lat="59.0725970009" lon="30.0278077391"><ele>83.289</ele><time>2026-04-21T00:28:52.000Z</time></trkpt>
   <trkpt lat="59.0725255033" lon="30.0278187193"><ele>83.929</ele><time>2026-04-21T00:29:03.000Z</time></trkpt>
   <trkpt lat="59.0724217354" lon="30.0278608803"><ele>84.239</ele><time>2026-04-21T00:29:16.000Z</time></trkpt>
   <trkpt lat="59.0723315461" lon="30.0278901332"><ele>84.959</ele><time>2026-04-21T00:29:34.000Z</time></trkpt>
   <trkpt lat="59.0723312108" lon="30.0279395026"><ele>86.899</ele><time>2026-04-21T00:30:05.000Z</time></trkpt>
   <trkpt lat="59.0723276066" lon="30.0279359822"><ele>87.309</ele><time>2026-04-21T00:30:33.000Z</time></trkpt>
   <trkpt lat="59.0723400956" lon="30.0279412628"><ele>89.299</ele><time>2026-04-21T00:31:07.000Z</time></trkpt>
   <trkpt lat="59.0722781534" lon="30.028004127"><ele>89.829</ele><time>2026-04-21T00:31:24.000Z</time></trkpt>
   <trkpt lat="59.0722559413" lon="30.0280039594"><ele>89.709</ele><time>2026-04-21T00:31:28.000Z</time></trkpt>
   <trkpt lat="59.0721686857" lon="30.0279765506"><ele>89.369</ele><time>2026-04-21T00:31:41.000Z</time></trkpt>
   <trkpt lat="59.0720937515" lon="30.0279700127"><ele>88.989</ele><time>2026-04-21T00:31:55.000Z</time></trkpt>
   <trkpt lat="59.0720759818" lon="30.0279666599"><ele>88.959</ele><time>2026-04-21T00:31:57.000Z</time></trkpt>
   <trkpt lat="59.0720179791" lon="30.0279933144"><ele>88.339</ele><time>2026-04-21T00:32:12.000Z</time></trkpt>
   <trkpt lat="59.0719114451" lon="30.0280813244"><ele>87.809</ele><time>2026-04-21T00:32:27.000Z</time></trkpt>
   <trkpt lat="59.0717900751" lon="30.0280660693"><ele>86.759</ele><time>2026-04-21T00:32:42.000Z</time></trkpt>
   <trkpt lat="59.071654875" lon="30.0281112478"><ele>85.409</ele><time>2026-04-21T00:32:58.000Z</time></trkpt>
   <trkpt lat="59.071549766" lon="30.0281143491"><ele>85.999</ele><time>2026-04-21T00:33:13.000Z</time></trkpt>
   <trkpt lat="59.0714345986" lon="30.0281152711"><ele>85.039</ele><time>2026-04-21T00:33:27.000Z</time></trkpt>
   <trkpt lat="59.0713177549" lon="30.0281501398"><ele>85.209</ele><time>2026-04-21T00:33:40.000Z</time></trkpt>
   <trkpt lat="59.0713001529" lon="30.0281551689"><ele>85.459</ele><time>2026-04-21T00:33:42.000Z</time></trkpt>
   <trkpt lat="59.0711791182" lon="30.0282211345"><ele>87.929</ele><time>2026-04-21T00:33:58.000Z</time></trkpt>
   <trkpt lat="59.0711643661" lon="30.0282323663"><ele>88.199</ele><time>2026-04-21T00:34:00.000Z</time></trkpt>
   <trkpt lat="59.0710458459" lon="30.0282605295"><ele>90.199</ele><time>2026-04-21T00:34:11.000Z</time></trkpt>
   <trkpt lat="59.0709021801" lon="30.0283326138"><ele>88.179</ele><time>2026-04-21T00:34:25.000Z</time></trkpt>
   <trkpt lat="59.0708921218" lon="30.0283383973"><ele>88.059</ele><time>2026-04-21T00:34:26.000Z</time></trkpt>
   <trkpt lat="59.0707712548" lon="30.0283674825"><ele>86.929</ele><time>2026-04-21T00:34:39.000Z</time></trkpt>
   <trkpt lat="59.0707470311" lon="30.0283859227"><ele>87.029</ele><time>2026-04-21T00:34:41.000Z</time></trkpt>
   <trkpt lat="59.0706171116" lon="30.0284241442"><ele>88.119</ele><time>2026-04-21T00:34:54.000Z</time></trkpt>
   <trkpt lat="59.0705329573" lon="30.0284678139"><ele>88.419</ele><time>2026-04-21T00:35:03.000Z</time></trkpt>
   <trkpt lat="59.0705006031" lon="30.0284688198"><ele>88.359</ele><time>2026-04-21T00:35:06.000Z</time></trkpt>
   <trkpt lat="59.0704810733" lon="30.0284780399"><ele>88.339</ele><time>2026-04-21T00:35:08.000Z</time></trkpt>
   <trkpt lat="59.0704451149" lon="30.0284803868"><ele>88.009</ele><time>2026-04-21T00:35:12.000Z</time></trkpt>
   <trkpt lat="59.0703296123" lon="30.0285269063"><ele>88.689</ele><time>2026-04-21T00:35:24.000Z</time></trkpt>
   <trkpt lat="59.0701612199" lon="30.0285883457"><ele>90.459</ele><time>2026-04-21T00:35:42.000Z</time></trkpt>
   <trkpt lat="59.0700156262" lon="30.0286384695"><ele>91.579</ele><time>2026-04-21T00:35:59.000Z</time></trkpt>
   <trkpt lat="59.0699695258" lon="30.0286555686"><ele>91.769</ele><time>2026-04-21T00:36:03.000Z</time></trkpt>
   <trkpt lat="59.0698504189" lon="30.0286308419"><ele>90.509</ele><time>2026-04-21T00:36:18.000Z</time></trkpt>
   <trkpt lat="59.0697469024" lon="30.0287619349"><ele>90.589</ele><time>2026-04-21T00:36:32.000Z</time></trkpt>
   <trkpt lat="59.0696086848" lon="30.0288084545"><ele>89.789</ele><time>2026-04-21T00:36:44.000Z</time></trkpt>
   <trkpt lat="59.0694217684" lon="30.0288501964"><ele>88.719</ele><time>2026-04-21T00:36:58.000Z</time></trkpt>
   <trkpt lat="59.069311714" lon="30.0289027509"><ele>87.459</ele><time>2026-04-21T00:37:10.000Z</time></trkpt>
   <trkpt lat="59.0692225305" lon="30.0289019127"><ele>89.099</ele><time>2026-04-21T00:37:26.000Z</time></trkpt>
   <trkpt lat="59.0691268092" lon="30.0289325066"><ele>91.789</ele><time>2026-04-21T00:37:45.000Z</time></trkpt>
   <trkpt lat="59.0690160843" lon="30.0290030823"><ele>93.269</ele><time>2026-04-21T00:37:58.000Z</time></trkpt>
   <trkpt lat="59.0689714087" lon="30.0290307425"><ele>94.519</ele><time>2026-04-21T00:38:03.000Z</time></trkpt>
   <trkpt lat="59.0689432455" lon="30.0290651083"><ele>95.359</ele><time>2026-04-21T00:38:06.000Z</time></trkpt>
   <trkpt lat="59.0687758589" lon="30.0290933554"><ele>95.789</ele><time>2026-04-21T00:38:20.000Z</time></trkpt>
   <trkpt lat="59.0685886072" lon="30.0291546271"><ele>93.529</ele><time>2026-04-21T00:38:37.000Z</time></trkpt>
   <trkpt lat="59.0684536586" lon="30.0292081874"><ele>91.499</ele><time>2026-04-21T00:38:55.000Z</time></trkpt>
   <trkpt lat="59.0683291873" lon="30.0292139709"><ele>92.329</ele><time>2026-04-21T00:39:10.000Z</time></trkpt>
   <trkpt lat="59.0682278501" lon="30.0292564672"><ele>93.259</ele><time>2026-04-21T00:39:25.000Z</time></trkpt>
   <trkpt lat="59.0680460466" lon="30.0292870611"><ele>94.349</ele><time>2026-04-21T00:39:46.000Z</time></trkpt>
   <trkpt lat="59.0678706972" lon="30.0293328263"><ele>94.599</ele><time>2026-04-21T00:40:05.000Z</time></trkpt>
   <trkpt lat="59.0678592978" lon="30.0293375202"><ele>94.549</ele><time>2026-04-21T00:40:06.000Z</time></trkpt>
   <trkpt lat="59.0677285401" lon="30.0294356723"><ele>92.259</ele><time>2026-04-21T00:40:21.000Z</time></trkpt>
   <trkpt lat="59.0676907377" lon="30.0294728041"><ele>92.069</ele><time>2026-04-21T00:40:25.000Z</time></trkpt>
   <trkpt lat="59.0675774982" lon="30.0294977822"><ele>92.289</ele><time>2026-04-21T00:40:39.000Z</time></trkpt>
   <trkpt lat="59.06752201" lon="30.0295266159"><ele>92.349</ele><time>2026-04-21T00:40:47.000Z</time></trkpt>
   <trkpt lat="59.0674677791" lon="30.0295118638"><ele>91.549</ele><time>2026-04-21T00:40:52.000Z</time></trkpt>
   <trkpt lat="59.0673210958" lon="30.0295525998"><ele>87.939</ele><time>2026-04-21T00:41:06.000Z</time></trkpt>
   <trkpt lat="59.0672416354" lon="30.0295644183"><ele>86.059</ele><time>2026-04-21T00:41:17.000Z</time></trkpt>
   <trkpt lat="59.0671448244" lon="30.0295762368"><ele>84.819</ele><time>2026-04-21T00:41:33.000Z</time></trkpt>
   <trkpt lat="59.0670306629" lon="30.0296242651"><ele>83.999</ele><time>2026-04-21T00:41:47.000Z</time></trkpt>
   <trkpt lat="59.0669285713" lon="30.0296187331"><ele>82.489</ele><time>2026-04-21T00:42:01.000Z</time></trkpt>
   <trkpt lat="59.0668709038" lon="30.0296525959"><ele>81.099</ele><time>2026-04-21T00:42:10.000Z</time></trkpt>
   <trkpt lat="59.0668239651" lon="30.029690063"><ele>80.889</ele><time>2026-04-21T00:42:16.000Z</time></trkpt>
   <trkpt lat="59.0667269027" lon="30.029799866"><ele>79.679</ele><time>2026-04-21T00:42:30.000Z</time></trkpt>
   <trkpt lat="59.0665555766" lon="30.0297723733"><ele>79.389</ele><time>2026-04-21T00:42:48.000Z</time></trkpt>
   <trkpt lat="59.0664361345" lon="30.0298022967"><ele>78.259</ele><time>2026-04-21T00:43:01.000Z</time></trkpt>
   <trkpt lat="59.066342341" lon="30.0298953359"><ele>79.109</ele><time>2026-04-21T00:43:15.000Z</time></trkpt>
   <trkpt lat="59.0663317798" lon="30.0299244211"><ele>78.689</ele><time>2026-04-21T00:43:18.000Z</time></trkpt>
   <trkpt lat="59.0662726035" lon="30.0299819209"><ele>78.269</ele><time>2026-04-21T00:43:30.000Z</time></trkpt>
   <trkpt lat="59.0662283471" lon="30.0299496506"><ele>76.879</ele><time>2026-04-21T00:43:41.000Z</time></trkpt>
   <trkpt lat="59.066220971" lon="30.0299299531"><ele>76.199</ele><time>2026-04-21T00:43:43.000Z</time></trkpt>
   <trkpt lat="59.0661591126" lon="30.0299167097"><ele>75.439</ele><time>2026-04-21T00:43:51.000Z</time></trkpt>
   <trkpt lat="59.0660837593" lon="30.0299996906"><ele>77.729</ele><time>2026-04-21T00:44:05.000Z</time></trkpt>
   <trkpt lat="59.0660692586" lon="30.0300071504"><ele>78.209</ele><time>2026-04-21T00:44:07.000Z</time></trkpt>
   <trkpt lat="59.065970855" lon="30.0300307036"><ele>80.059</ele><time>2026-04-21T00:44:21.000Z</time></trkpt>
   <trkpt lat="59.0659396744" lon="30.0300972559"><ele>80.079</ele><time>2026-04-21T00:44:33.000Z</time></trkpt>
   <trkpt lat="59.0658934062" lon="30.0300574419"><ele>81.899</ele><time>2026-04-21T00:44:49.000Z</time></trkpt>
   <trkpt lat="59.0658395106" lon="30.0301181268"><ele>81.879</ele><time>2026-04-21T00:45:02.000Z</time></trkpt>
   <trkpt lat="59.0657935778" lon="30.0302622956"><ele>80.849</ele><time>2026-04-21T00:45:13.000Z</time></trkpt>
   <trkpt lat="59.065697605" lon="30.030257015"><ele>82.319</ele><time>2026-04-21T00:45:29.000Z</time></trkpt>
   <trkpt lat="59.065610517" lon="30.0301670772"><ele>82.399</ele><time>2026-04-21T00:45:46.000Z</time></trkpt>
   <trkpt lat="59.0654569605" lon="30.0301890377"><ele>81.979</ele><time>2026-04-21T00:46:02.000Z</time></trkpt>
   <trkpt lat="59.0653458165" lon="30.0302297738"><ele>83.539</ele><time>2026-04-21T00:46:14.000Z</time></trkpt>
   <trkpt lat="59.0652306492" lon="30.0302729406"><ele>83.729</ele><time>2026-04-21T00:46:25.000Z</time></trkpt>
   <trkpt lat="59.0650778471" lon="30.0303433486"><ele>81.969</ele><time>2026-04-21T00:46:39.000Z</time></trkpt>
   <trkpt lat="59.0649007375" lon="30.0303645548"><ele>80.189</ele><time>2026-04-21T00:46:56.000Z</time></trkpt>
   <trkpt lat="59.0647543894" lon="30.0303943106"><ele>78.449</ele><time>2026-04-21T00:47:10.000Z</time></trkpt>
   <trkpt lat="59.0646192731" lon="30.030437645"><ele>78.529</ele><time>2026-04-21T00:47:25.000Z</time></trkpt>
   <trkpt lat="59.064498909" lon="30.0305058737"><ele>80.529</ele><time>2026-04-21T00:47:39.000Z</time></trkpt>
   <trkpt lat="59.0644033553" lon="30.030561781"><ele>81.999</ele><time>2026-04-21T00:47:55.000Z</time></trkpt>
   <trkpt lat="59.0643347914" lon="30.0306188617"><ele>82.339</ele><time>2026-04-21T00:48:11.000Z</time></trkpt>
   <trkpt lat="59.0642212166" lon="30.0306352065"><ele>81.749</ele><time>2026-04-21T00:48:26.000Z</time></trkpt>
   <trkpt lat="59.0640983379" lon="30.0306719192"><ele>80.699</ele><time>2026-04-21T00:48:42.000Z</time></trkpt>
   <trkpt lat="59.063993145" lon="30.0306833186"><ele>80.479</ele><time>2026-04-21T00:48:54.000Z</time></trkpt>
   <trkpt lat="59.0638986809" lon="30.0307290838"><ele>78.959</ele><time>2026-04-21T00:49:08.000Z</time></trkpt>
   <trkpt lat="59.0638922269" lon="30.0306864199"><ele>78.579</ele><time>2026-04-21T00:49:21.000Z</time></trkpt>
   <trkpt lat="59.063897256" lon="30.0306586758"><ele>78.849</ele><time>2026-04-21T00:49:36.000Z</time></trkpt>
   <trkpt lat="59.0638757983" lon="30.0305720069"><ele>78.289</ele><time>2026-04-21T00:49:53.000Z</time></trkpt>
   <trkpt lat="59.0638618844" lon="30.030508053"><ele>77.879</ele><time>2026-04-21T00:50:07.000Z</time></trkpt>
   <trkpt lat="59.0638241658" lon="30.0304312747"><ele>77.329</ele><time>2026-04-21T00:50:18.000Z</time></trkpt>
   <trkpt lat="59.0638433604" lon="30.0303038698"><ele>76.089</ele><time>2026-04-21T00:50:35.000Z</time></trkpt>
   <trkpt lat="59.0638241658" lon="30.0303137605"><ele>76.679</ele><time>2026-04-21T00:50:45.000Z</time></trkpt>
   <trkpt lat="59.0637369102" lon="30.0303881918"><ele>77.129</ele><time>2026-04-21T00:50:58.000Z</time></trkpt>
   <trkpt lat="59.0636996107" lon="30.030476537"><ele>77.089</ele><time>2026-04-21T00:51:09.000Z</time></trkpt>
   <trkpt lat="59.0636583718" lon="30.0305193685"><ele>78.649</ele><time>2026-04-21T00:51:21.000Z</time></trkpt>
   <trkpt lat="59.0635931606" lon="30.0305526447"><ele>80.809</ele><time>2026-04-21T00:51:33.000Z</time></trkpt>
   <trkpt lat="59.0635029713" lon="30.0306046125"><ele>83.049</ele><time>2026-04-21T00:51:45.000Z</time></trkpt>
   <trkpt lat="59.0634527637" lon="30.0307224621"><ele>82.679</ele><time>2026-04-21T00:51:53.000Z</time></trkpt>
   <trkpt lat="59.0634755625" lon="30.0312678725"><ele>82.039</ele><time>2026-04-21T00:52:16.000Z</time></trkpt>
   <trkpt lat="59.0635197351" lon="30.0317847007"><ele>82.529</ele><time>2026-04-21T00:52:39.000Z</time></trkpt>
   <trkpt lat="59.0635346549" lon="30.0322168716"><ele>82.699</ele><time>2026-04-21T00:52:57.000Z</time></trkpt>
   <trkpt lat="59.0635747204" lon="30.032785919"><ele>83.939</ele><time>2026-04-21T00:53:21.000Z</time></trkpt>
   <trkpt lat="59.0636083318" lon="30.0332575687"><ele>84.569</ele><time>2026-04-21T00:53:40.000Z</time></trkpt>
   <trkpt lat="59.0636589585" lon="30.0338412006"><ele>85.179</ele><time>2026-04-21T00:54:04.000Z</time></trkpt>
   <trkpt lat="59.0637004489" lon="30.0343016185"><ele>85.349</ele><time>2026-04-21T00:54:23.000Z</time></trkpt>
   <trkpt lat="59.0637531711" lon="30.0349012599"><ele>85.509</ele><time>2026-04-21T00:54:48.000Z</time></trkpt>
   <trkpt lat="59.0637903029" lon="30.0354218599"><ele>85.979</ele><time>2026-04-21T00:55:09.000Z</time></trkpt>
   <trkpt lat="59.0638382474" lon="30.035914632"><ele>86.479</ele><time>2026-04-21T00:55:30.000Z</time></trkpt>
   <trkpt lat="59.0638753792" lon="30.0362603855"><ele>86.869</ele><time>2026-04-21T00:55:48.000Z</time></trkpt>
   <trkpt lat="59.06391578" lon="30.0367322866"><ele>87.939</ele><time>2026-04-21T00:56:08.000Z</time></trkpt>
   <trkpt lat="59.0639660714" lon="30.0372786191"><ele>87.649</ele><time>2026-04-21T00:56:33.000Z</time></trkpt>
   <trkpt lat="59.0639643951" lon="30.0373750948"><ele>87.339</ele><time>2026-04-21T00:56:56.000Z</time></trkpt>
   <trkpt lat="59.0640063046" lon="30.0378189166"><ele>87.269</ele><time>2026-04-21T00:57:16.000Z</time></trkpt>
   <trkpt lat="59.0640563445" lon="30.0383686018"><ele>86.069</ele><time>2026-04-21T00:57:40.000Z</time></trkpt>
   <trkpt lat="59.0641109945" lon="30.0389296026"><ele>85.199</ele><time>2026-04-21T00:58:05.000Z</time></trkpt>
   <trkpt lat="59.0641606992" lon="30.0395057746"><ele>85.099</ele><time>2026-04-21T00:58:30.000Z</time></trkpt>
   <trkpt lat="59.0642037822" lon="30.0399951101"><ele>85.279</ele><time>2026-04-21T00:58:51.000Z</time></trkpt>
   <trkpt lat="59.0642580969" lon="30.0405573682"><ele>85.669</ele><time>2026-04-21T00:59:15.000Z</time></trkpt>
   <trkpt lat="59.064311322" lon="30.0408713542"><ele>86.019</ele><time>2026-04-21T00:59:35.000Z</time></trkpt>
   <trkpt lat="59.0643296784" lon="30.0410504755"><ele>85.849</ele><time>2026-04-21T00:59:48.000Z</time></trkpt>
   <trkpt lat="59.0643671455" lon="30.0415855762"><ele>85.799</ele><time>2026-04-21T01:00:11.000Z</time></trkpt>
   <trkpt lat="59.0644174369" lon="30.0422186614"><ele>86.439</ele><time>2026-04-21T01:00:38.000Z</time></trkpt>
   <trkpt lat="59.0644777028" lon="30.0428528362"><ele>86.839</ele><time>2026-04-21T01:01:05.000Z</time></trkpt>
   <trkpt lat="59.0645102246" lon="30.0434353784"><ele>87.749</ele><time>2026-04-21T01:01:29.000Z</time></trkpt>
   <trkpt lat="59.0645611866" lon="30.0439820462"><ele>88.249</ele><time>2026-04-21T01:01:52.000Z</time></trkpt>
   <trkpt lat="59.0646126514" lon="30.0445307255"><ele>88.539</ele><time>2026-04-21T01:02:15.000Z</time></trkpt>
   <trkpt lat="59.0646630267" lon="30.0451234099"><ele>88.589</ele><time>2026-04-21T01:02:40.000Z</time></trkpt>
   <trkpt lat="59.0647126475" lon="30.0456743524"><ele>87.999</ele><time>2026-04-21T01:03:04.000Z</time></trkpt>
   <trkpt lat="59.0647486059" lon="30.0460412283"><ele>87.889</ele><time>2026-04-21T01:03:20.000Z</time></trkpt>
   <trkpt lat="59.0647643639" lon="30.0460753426"><ele>87.589</ele><time>2026-04-21T01:03:34.000Z</time></trkpt>
   <trkpt lat="59.0647625199" lon="30.0460845627"><ele>87.589</ele><time>2026-04-21T01:03:35.000Z</time></trkpt>
   <trkpt lat="59.0647714885" lon="30.0462508597"><ele>87.659</ele><time>2026-04-21T01:03:43.000Z</time></trkpt>
   <trkpt lat="59.0648088718" lon="30.0467985333"><ele>87.329</ele><time>2026-04-21T01:04:05.000Z</time></trkpt>
   <trkpt lat="59.0648276473" lon="30.0470699393"><ele>86.369</ele><time>2026-04-21T01:04:25.000Z</time></trkpt>
   <trkpt lat="59.0648369512" lon="30.0472953287"><ele>86.489</ele><time>2026-04-21T01:04:42.000Z</time></trkpt>
   <trkpt lat="59.0648661202" lon="30.0476947263"><ele>86.319</ele><time>2026-04-21T01:04:58.000Z</time></trkpt>
   <trkpt lat="59.0649164116" lon="30.0482429866"><ele>86.289</ele><time>2026-04-21T01:05:20.000Z</time></trkpt>
   <trkpt lat="59.0649827963" lon="30.0488892314"><ele>86.559</ele><time>2026-04-21T01:05:46.000Z</time></trkpt>
   <trkpt lat="59.065027388" lon="30.0494075683"><ele>85.829</ele><time>2026-04-21T01:06:06.000Z</time></trkpt>
   <trkpt lat="59.0650892465" lon="30.0500916992"><ele>85.819</ele><time>2026-04-21T01:06:33.000Z</time></trkpt>
   <trkpt lat="59.0651293958" lon="30.0505477585"><ele>85.239</ele><time>2026-04-21T01:06:52.000Z</time></trkpt>
   <trkpt lat="59.0651790166" lon="30.0510669336"><ele>85.269</ele><time>2026-04-21T01:07:13.000Z</time></trkpt>
   <trkpt lat="59.0652091077" lon="30.0513490685"><ele>84.919</ele><time>2026-04-21T01:07:26.000Z</time></trkpt>
   <trkpt lat="59.0652182439" lon="30.0514903874"><ele>85.109</ele><time>2026-04-21T01:07:32.000Z</time></trkpt>
   <trkpt lat="59.0652707985" lon="30.0520550762"><ele>85.129</ele><time>2026-04-21T01:07:55.000Z</time></trkpt>
   <trkpt lat="59.0653116183" lon="30.0525289052"><ele>86.049</ele><time>2026-04-21T01:08:15.000Z</time></trkpt>
   <trkpt lat="59.0653486664" lon="30.0529739842"><ele>86.159</ele><time>2026-04-21T01:08:34.000Z</time></trkpt>
   <trkpt lat="59.0654029811" lon="30.0535170477"><ele>86.009</ele><time>2026-04-21T01:08:57.000Z</time></trkpt>
   <trkpt lat="59.0654346647" lon="30.053912003"><ele>85.459</ele><time>2026-04-21T01:09:17.000Z</time></trkpt>
   <trkpt lat="59.0654629955" lon="30.0542152603"><ele>84.619</ele><time>2026-04-21T01:09:37.000Z</time></trkpt>
   <trkpt lat="59.0654644204" lon="30.0542300962"><ele>84.199</ele><time>2026-04-21T01:09:53.000Z</time></trkpt>
   <trkpt lat="59.0654994568" lon="30.0541937188"><ele>82.239</ele><time>2026-04-21T01:10:18.000Z</time></trkpt>
   <trkpt lat="59.0655251892" lon="30.0541729317"><ele>81.499</ele><time>2026-04-21T01:10:44.000Z</time></trkpt>
   <trkpt lat="59.0655246025" lon="30.0541513064"><ele>81.319</ele><time>2026-04-21T01:11:07.000Z</time></trkpt>
   <trkpt lat="59.0655189866" lon="30.0541369733"><ele>81.529</ele><time>2026-04-21T01:11:30.000Z</time></trkpt>
   <trkpt lat="59.0655240996" lon="30.0541198742"><ele>81.869</ele><time>2026-04-21T01:11:57.000Z</time></trkpt>
   <trkpt lat="59.0655158015" lon="30.05411166"><ele>81.909</ele><time>2026-04-21T01:12:18.000Z</time></trkpt>
   <trkpt lat="59.0655044021" lon="30.0541751948"><ele>80.929</ele><time>2026-04-21T01:12:32.000Z</time></trkpt>
   <trkpt lat="59.0654976128" lon="30.0541966525"><ele>80.629</ele><time>2026-04-21T01:12:53.000Z</time></trkpt>
   <trkpt lat="59.0654972775" lon="30.0541887735"><ele>80.389</ele><time>2026-04-21T01:13:09.000Z</time></trkpt>
   <trkpt lat="59.06550633" lon="30.0541758653"><ele>80.379</ele><time>2026-04-21T01:13:24.000Z</time></trkpt>
   <trkpt lat="59.0654930027" lon="30.0541917909"><ele>80.349</ele><time>2026-04-21T01:13:51.000Z</time></trkpt>
   <trkpt lat="59.0654805137" lon="30.0542036094"><ele>80.359</ele><time>2026-04-21T01:14:31.000Z</time></trkpt>
  </trkseg>
 </trk>
</gpx>